Home > Products > Valid Products > TAF

000
FTUS44 KHGX 262214 AAB
TAFSGR
TAF AMD
KSGR 262214Z 2622/2718 12009KT P6SM VCTS SCT025CB BKN100
      TEMPO 2623/2701 VRB30KT 1 1/2SM TSRA BKN020CB
     FM270200 15009KT P6SM SCT020
     FM270600 15006KT 5SM BR SCT006 BKN012
     FM271400 16006KT 5SM BR VCTS BKN007 BKN020 BKN040CB=



000
FTUS44 KHGX 262214 AAB
TAFSGR
TAF AMD
KSGR 262214Z 2622/2718 12009KT P6SM VCTS SCT025CB BKN100
      TEMPO 2623/2701 VRB30KT 1 1/2SM TSRA BKN020CB
     FM270200 15009KT P6SM SCT020
     FM270600 15006KT 5SM BR SCT006 BKN012
     FM271400 16006KT 5SM BR VCTS BKN007 BKN020 BKN040CB=



000
FTUS44 KHGX 262107 AAB
TAFHOU
TAF AMD
KHOU 262107Z 2621/2718 13009KT P6SM SCT022 BKN130
     FM270000 14005KT P6SM SCT020
     FM270600 13008KT 5SM BR SCT006 BKN012
     FM271400 06009KT 5SM BR VCTS BKN007 BKN020 BKN040CB=



000
FTUS44 KHGX 262107 AAB
TAFHOU
TAF AMD
KHOU 262107Z 2621/2718 13009KT P6SM SCT022 BKN130
     FM270000 14005KT P6SM SCT020
     FM270600 13008KT 5SM BR SCT006 BKN012
     FM271400 06009KT 5SM BR VCTS BKN007 BKN020 BKN040CB=



000
FTUS44 KHGX 262106 AAB
TAFIAH
TAF AMD
KIAH 262106Z 2621/2724 14011KT P6SM FEW025 BKN250
     FM270300 14008KT 6SM BR SCT020
     FM270600 13008KT 5SM BR SCT006 BKN012
     FM271400 06009KT 5SM BR VCTS BKN007 BKN020 BKN040CB
     FM272100 06009KT P6SM VCSH BKN050=



000
FTUS44 KHGX 262106 AAB
TAFIAH
TAF AMD
KIAH 262106Z 2621/2724 14011KT P6SM FEW025 BKN250
     FM270300 14008KT 6SM BR SCT020
     FM270600 13008KT 5SM BR SCT006 BKN012
     FM271400 06009KT 5SM BR VCTS BKN007 BKN020 BKN040CB
     FM272100 06009KT P6SM VCSH BKN050=



000
FTUS44 KHGX 261804 AAA
TAFHOU
TAF AMD
KHOU 261804Z 2618/2718 10006KT P6SM VCSH SCT016 BKN070 BKN140
     FM262000 13008KT P6SM SCT020 BKN050
     FM270000 14005KT P6SM SCT020
     FM270600 13008KT 5SM BR SCT006 BKN012
     FM271400 06009KT 5SM BR VCTS BKN007 BKN020 BKN040CB=



000
FTUS44 KHGX 261804 AAA
TAFHOU
TAF AMD
KHOU 261804Z 2618/2718 10006KT P6SM VCSH SCT016 BKN070 BKN140
     FM262000 13008KT P6SM SCT020 BKN050
     FM270000 14005KT P6SM SCT020
     FM270600 13008KT 5SM BR SCT006 BKN012
     FM271400 06009KT 5SM BR VCTS BKN007 BKN020 BKN040CB=



000
FTUS44 KHGX 261803 AAA
TAFSGR
TAF AMD
KSGR 261803Z 2618/2718 12009KT P6SM VCSH FEW016
     FM262000 14008KT P6SM SCT020 SCT050
     FM270000 15009KT P6SM SCT020
     FM270600 15006KT 5SM BR SCT006 BKN012
     FM271400 16006KT 5SM BR VCTS BKN007 BKN020 BKN040CB=



000
FTUS44 KHGX 261803 AAA
TAFSGR
TAF AMD
KSGR 261803Z 2618/2718 12009KT P6SM VCSH FEW016
     FM262000 14008KT P6SM SCT020 SCT050
     FM270000 15009KT P6SM SCT020
     FM270600 15006KT 5SM BR SCT006 BKN012
     FM271400 16006KT 5SM BR VCTS BKN007 BKN020 BKN040CB=



000
FTUS44 KHGX 261802 AAA
TAFIAH
TAF AMD
KIAH 261802Z 2618/2724 10007KT P6SM VCSH FEW025 SCT160
     FM262000 14012KT P6SM FEW040 BKN160
     FM270300 14008KT 6SM BR SCT020
     FM270600 13008KT 5SM BR SCT006 BKN012
     FM271400 06009KT 5SM BR VCTS BKN007 BKN020 BKN040CB
     FM272100 06009KT P6SM VCSH BKN050=



000
FTUS44 KHGX 261802 AAA
TAFIAH
TAF AMD
KIAH 261802Z 2618/2724 10007KT P6SM VCSH FEW025 SCT160
     FM262000 14012KT P6SM FEW040 BKN160
     FM270300 14008KT 6SM BR SCT020
     FM270600 13008KT 5SM BR SCT006 BKN012
     FM271400 06009KT 5SM BR VCTS BKN007 BKN020 BKN040CB
     FM272100 06009KT P6SM VCSH BKN050=



000
FTUS44 KHGX 261724
TAFCXO
TAF
KCXO 261724Z 2618/2718 16006KT P6SM VCSH SCT020 SCT110
      TEMPO 2618/2620 TSRA BKN020CB
     FM262000 15012KT P6SM FEW040 BKN160
     FM270300 14006KT 6SM BR SCT020
     FM270600 15006KT 5SM BR SCT006 BKN012
     FM271400 09006KT 5SM BR VCTS BKN007 BKN020 BKN040CB=



000
FTUS44 KHGX 261724
TAFHOU
TAF
KHOU 261724Z 2618/2718 13006KT P6SM VCSH BKN015 BKN030 BKN150
      TEMPO 2618/2620 TSRA BKN015CB
     FM262000 13008KT P6SM SCT020 BKN050
     FM270000 14005KT P6SM SCT020
     FM270600 13008KT 5SM BR SCT006 BKN012
     FM271400 06009KT 5SM BR VCTS BKN007 BKN020 BKN040CB=



000
FTUS44 KHGX 261724
TAFSGR
TAF
KSGR 261724Z 2618/2718 14009KT P6SM VCSH BKN015
      TEMPO 2618/2620 TSRA BKN015CB
     FM262000 14008KT P6SM SCT020 BKN050
     FM270000 15009KT P6SM SCT020
     FM270600 15006KT 5SM BR SCT006 BKN012
     FM271400 16006KT 5SM BR VCTS BKN007 BKN020 BKN040CB=



000
FTUS44 KHGX 261724
TAFIAH
TAF
KIAH 261724Z 2618/2724 16006KT P6SM VCSH SCT020 BKN160
      TEMPO 2618/2620 TSRA BKN020CB
     FM262000 14012KT P6SM FEW040 BKN160
     FM270300 14008KT 6SM BR SCT020
     FM270600 13008KT 5SM BR SCT006 BKN012
     FM271400 06009KT 5SM BR VCTS BKN007 BKN020 BKN040CB
     FM272100 06009KT P6SM VCSH BKN050=



000
FTUS44 KHGX 261724
TAFCXO
TAF
KCXO 261724Z 2618/2718 16006KT P6SM VCSH SCT020 SCT110
      TEMPO 2618/2620 TSRA BKN020CB
     FM262000 15012KT P6SM FEW040 BKN160
     FM270300 14006KT 6SM BR SCT020
     FM270600 15006KT 5SM BR SCT006 BKN012
     FM271400 09006KT 5SM BR VCTS BKN007 BKN020 BKN040CB=



000
FTUS44 KHGX 261724
TAFGLS
TAF
KGLS 261724Z 2618/2718 13008KT P6SM VCSH BKN015
     FM262000 13008KT P6SM SCT020 BKN050
     FM270000 15010KT P6SM SCT015
     FM270400 14013KT 5SM BR SCT005 BKN010
     FM271400 12007KT 5SM BR VCTS BKN007 BKN020 BKN040CB=



000
FTUS44 KHGX 261724
TAFUTS
TAF
KUTS 261724Z 2618/2718 12005KT P6SM VCSH SCT020 BKN160
      TEMPO 2618/2620 TSRA BKN020CB
     FM262000 12005KT P6SM FEW040 BKN160
     FM270300 16004KT 6SM BR SCT020
     FM270600 13008KT 5SM BR SCT006 BKN012
     FM271300 06009KT 5SM BR VCTS BKN007 BKN020 BKN040CB=



000
FTUS44 KHGX 261724
TAFLBX
TAF
KLBX 261724Z 2618/2718 12009KT P6SM VCSH BKN015
      TEMPO 2618/2620 TSRA BKN015CB
     FM262000 13009KT P6SM SCT020 BKN050
     FM270000 15008KT P6SM SCT015
     FM270400 12007KT 5SM BR SCT005 BKN010
     FM271400 12007KT 5SM BR VCTS BKN007 BKN020 BKN040CB=



000
FTUS44 KHGX 261724
TAFCLL
TAF
KCLL 261724Z 2618/2718 12006KT P6SM VCSH FEW025 SCT120
      TEMPO 2618/2620 TSRA BKN020CB
     FM262000 14010KT P6SM FEW040 BKN160
     FM270300 14010KT 6SM BR SCT020
     FM270600 13008KT 5SM BR SCT006 BKN012
     FM271200 06008KT 5SM BR VCTS BKN007 BKN020 BKN040CB=



000
FTUS44 KHGX 261724
TAFUTS
TAF
KUTS 261724Z 2618/2718 12005KT P6SM VCSH SCT020 BKN160
      TEMPO 2618/2620 TSRA BKN020CB
     FM262000 12005KT P6SM FEW040 BKN160
     FM270300 16004KT 6SM BR SCT020
     FM270600 13008KT 5SM BR SCT006 BKN012
     FM271300 06009KT 5SM BR VCTS BKN007 BKN020 BKN040CB=



000
FTUS44 KHGX 261724
TAFSGR
TAF
KSGR 261724Z 2618/2718 14009KT P6SM VCSH BKN015
      TEMPO 2618/2620 TSRA BKN015CB
     FM262000 14008KT P6SM SCT020 BKN050
     FM270000 15009KT P6SM SCT020
     FM270600 15006KT 5SM BR SCT006 BKN012
     FM271400 16006KT 5SM BR VCTS BKN007 BKN020 BKN040CB=



000
FTUS44 KHGX 261724
TAFIAH
TAF
KIAH 261724Z 2618/2724 16006KT P6SM VCSH SCT020 BKN160
      TEMPO 2618/2620 TSRA BKN020CB
     FM262000 14012KT P6SM FEW040 BKN160
     FM270300 14008KT 6SM BR SCT020
     FM270600 13008KT 5SM BR SCT006 BKN012
     FM271400 06009KT 5SM BR VCTS BKN007 BKN020 BKN040CB
     FM272100 06009KT P6SM VCSH BKN050=



000
FTUS44 KHGX 261724
TAFCLL
TAF
KCLL 261724Z 2618/2718 12006KT P6SM VCSH FEW025 SCT120
      TEMPO 2618/2620 TSRA BKN020CB
     FM262000 14010KT P6SM FEW040 BKN160
     FM270300 14010KT 6SM BR SCT020
     FM270600 13008KT 5SM BR SCT006 BKN012
     FM271200 06008KT 5SM BR VCTS BKN007 BKN020 BKN040CB=



000
FTUS44 KHGX 261724
TAFHOU
TAF
KHOU 261724Z 2618/2718 13006KT P6SM VCSH BKN015 BKN030 BKN150
      TEMPO 2618/2620 TSRA BKN015CB
     FM262000 13008KT P6SM SCT020 BKN050
     FM270000 14005KT P6SM SCT020
     FM270600 13008KT 5SM BR SCT006 BKN012
     FM271400 06009KT 5SM BR VCTS BKN007 BKN020 BKN040CB=



000
FTUS44 KHGX 261724
TAFLBX
TAF
KLBX 261724Z 2618/2718 12009KT P6SM VCSH BKN015
      TEMPO 2618/2620 TSRA BKN015CB
     FM262000 13009KT P6SM SCT020 BKN050
     FM270000 15008KT P6SM SCT015
     FM270400 12007KT 5SM BR SCT005 BKN010
     FM271400 12007KT 5SM BR VCTS BKN007 BKN020 BKN040CB=



000
FTUS44 KHGX 261724
TAFGLS
TAF
KGLS 261724Z 2618/2718 13008KT P6SM VCSH BKN015
     FM262000 13008KT P6SM SCT020 BKN050
     FM270000 15010KT P6SM SCT015
     FM270400 14013KT 5SM BR SCT005 BKN010
     FM271400 12007KT 5SM BR VCTS BKN007 BKN020 BKN040CB=



000
FTUS44 KHGX 261504 AAA
TAFUTS
TAF AMD
KUTS 261504Z 2615/2712 19004KT P6SM VCSH SCT014 SCT250
      TEMPO 2616/2618 5SM TSRA BR BKN014CB
     FM261800 16010KT P6SM SCT040 BKN120
     FM270000 14006KT P6SM SCT025
     FM270600 VRB03KT 6SM BR VCTS SCT015CB=



000
FTUS44 KHGX 261504 AAA
TAFUTS
TAF AMD
KUTS 261504Z 2615/2712 19004KT P6SM VCSH SCT014 SCT250
      TEMPO 2616/2618 5SM TSRA BR BKN014CB
     FM261800 16010KT P6SM SCT040 BKN120
     FM270000 14006KT P6SM SCT025
     FM270600 VRB03KT 6SM BR VCTS SCT015CB=



000
FTUS44 KHGX 261504 AAA
TAFUTS
TAF AMD
KUTS 261504Z 2615/2712 19004KT P6SM VCSH SCT014 SCT250
      TEMPO 2616/2618 5SM TSRA BR BKN014CB
     FM261800 16010KT P6SM SCT040 BKN120
     FM270000 14006KT P6SM SCT025
     FM270600 VRB03KT 6SM BR VCTS SCT015CB=



000
FTUS44 KHGX 261504 AAA
TAFUTS
TAF AMD
KUTS 261504Z 2615/2712 19004KT P6SM VCSH SCT014 SCT250
      TEMPO 2616/2618 5SM TSRA BR BKN014CB
     FM261800 16010KT P6SM SCT040 BKN120
     FM270000 14006KT P6SM SCT025
     FM270600 VRB03KT 6SM BR VCTS SCT015CB=



000
FTUS44 KHGX 261502 AAA
TAFGLS
TAF AMD
KGLS 261502Z 2615/2712 VRB04KT 5SM BR VCTS SCT009 OVC012CB
      TEMPO 2615/2618 3SM TSRA BR OVC007CB
     FM261800 15010KT P6SM VCSH SCT025 SCT150
     FM270300 12012KT 6SM BR SCT010 SCT250
     FM270600 14014KT 4SM BR SCT005 BKN010=



000
FTUS44 KHGX 261502 AAA
TAFGLS
TAF AMD
KGLS 261502Z 2615/2712 VRB04KT 5SM BR VCTS SCT009 OVC012CB
      TEMPO 2615/2618 3SM TSRA BR OVC007CB
     FM261800 15010KT P6SM VCSH SCT025 SCT150
     FM270300 12012KT 6SM BR SCT010 SCT250
     FM270600 14014KT 4SM BR SCT005 BKN010=



000
FTUS44 KHGX 261501 AAC
TAFLBX
TAF AMD
KLBX 261501Z 2615/2712 VRB04KT 3SM BR VCTS BKN015 OVC025CB
      TEMPO 2615/2618 3SM TSRA BR OVC002CB
     FM261800 14007KT P6SM VCSH SCT025 BKN150
     FM270000 11004KT P6SM SCT015
     FM270400 12007KT 6SM BR SCT005 BKN010=



000
FTUS44 KHGX 261501 AAC
TAFLBX
TAF AMD
KLBX 261501Z 2615/2712 VRB04KT 3SM BR VCTS BKN015 OVC025CB
      TEMPO 2615/2618 3SM TSRA BR OVC002CB
     FM261800 14007KT P6SM VCSH SCT025 BKN150
     FM270000 11004KT P6SM SCT015
     FM270400 12007KT 6SM BR SCT005 BKN010=



000
FTUS44 KHGX 261500 AAB
TAFHOU
TAF AMD
KHOU 261500Z 2615/2712 13006KT P6SM VCSH SCT014 OVC160
      TEMPO 2615/2617 BKN014
     FM261800 13007KT P6SM SCT025 BKN150
     FM270300 14005KT P6SM SCT020
     FM270600 13008KT 6SM BR SCT006 BKN012=



000
FTUS44 KHGX 261500 AAB
TAFHOU
TAF AMD
KHOU 261500Z 2615/2712 13006KT P6SM VCSH SCT014 OVC160
      TEMPO 2615/2617 BKN014
     FM261800 13007KT P6SM SCT025 BKN150
     FM270300 14005KT P6SM SCT020
     FM270600 13008KT 6SM BR SCT006 BKN012=



000
FTUS44 KHGX 261500 AAB
TAFHOU
TAF AMD
KHOU 261500Z 2615/2712 13006KT P6SM VCSH SCT014 OVC160
      TEMPO 2615/2617 BKN014
     FM261800 13007KT P6SM SCT025 BKN150
     FM270300 14005KT P6SM SCT020
     FM270600 13008KT 6SM BR SCT006 BKN012=



000
FTUS44 KHGX 261459 AAB
TAFIAH
TAF AMD
KIAH 261459Z 2615/2718 12007KT P6SM VCSH FEW020 BKN160
     FM261900 16012KT P6SM FEW040 BKN150
     FM270300 14008KT 6SM BR SCT020
     FM270600 13010KT 5SM BR SCT006 BKN012
     FM271500 15009KT P6SM VCTS BKN020 BKN040CB=



000
FTUS44 KHGX 261459 AAB
TAFIAH
TAF AMD
KIAH 261459Z 2615/2718 12007KT P6SM VCSH FEW020 BKN160
     FM261900 16012KT P6SM FEW040 BKN150
     FM270300 14008KT 6SM BR SCT020
     FM270600 13010KT 5SM BR SCT006 BKN012
     FM271500 15009KT P6SM VCTS BKN020 BKN040CB=



000
FTUS44 KHGX 261459 AAB
TAFIAH
TAF AMD
KIAH 261459Z 2615/2718 12007KT P6SM VCSH FEW020 BKN160
     FM261900 16012KT P6SM FEW040 BKN150
     FM270300 14008KT 6SM BR SCT020
     FM270600 13010KT 5SM BR SCT006 BKN012
     FM271500 15009KT P6SM VCTS BKN020 BKN040CB=



000
FTUS44 KHGX 261358 AAB
TAFCLL
TAF AMD
KCLL 261358Z 2614/2712 18005KT P6SM VCSH SCT015
      TEMPO 2615/2619 5SM TSRA BR BKN025CB
     FM261900 16012KT P6SM SCT040 BKN120
     FM270100 14009KT P6SM SCT025
     FM270600 15012KT 6SM BR VCTS SCT015CB=



000
FTUS44 KHGX 261358 AAB
TAFCLL
TAF AMD
KCLL 261358Z 2614/2712 18005KT P6SM VCSH SCT015
      TEMPO 2615/2619 5SM TSRA BR BKN025CB
     FM261900 16012KT P6SM SCT040 BKN120
     FM270100 14009KT P6SM SCT025
     FM270600 15012KT 6SM BR VCTS SCT015CB=



000
FTUS44 KHGX 261358 AAB
TAFCLL
TAF AMD
KCLL 261358Z 2614/2712 18005KT P6SM VCSH SCT015
      TEMPO 2615/2619 5SM TSRA BR BKN025CB
     FM261900 16012KT P6SM SCT040 BKN120
     FM270100 14009KT P6SM SCT025
     FM270600 15012KT 6SM BR VCTS SCT015CB=



000
FTUS44 KHGX 261358 AAB
TAFCLL
TAF AMD
KCLL 261358Z 2614/2712 18005KT P6SM VCSH SCT015
      TEMPO 2615/2619 5SM TSRA BR BKN025CB
     FM261900 16012KT P6SM SCT040 BKN120
     FM270100 14009KT P6SM SCT025
     FM270600 15012KT 6SM BR VCTS SCT015CB=



000
FTUS44 KHGX 261323 AAB
TAFLBX
TAF AMD
KLBX 261323Z 2613/2712 VRB04KT 3SM BR VCTS BKN003 OVC015CB
      TEMPO 2613/2615 1/4SM FG VV002
     FM261500 VRB03KT 5SM BR VCTS SCT006 BKN018CB
      TEMPO 2615/2618 6SM BR SCT020
     FM261800 14007KT P6SM VCSH SCT025 BKN150
     FM270000 11004KT P6SM SCT015
     FM270400 12007KT 6SM BR SCT005 BKN010=



000
FTUS44 KHGX 261323 AAB
TAFLBX
TAF AMD
KLBX 261323Z 2613/2712 VRB04KT 3SM BR VCTS BKN003 OVC015CB
      TEMPO 2613/2615 1/4SM FG VV002
     FM261500 VRB03KT 5SM BR VCTS SCT006 BKN018CB
      TEMPO 2615/2618 6SM BR SCT020
     FM261800 14007KT P6SM VCSH SCT025 BKN150
     FM270000 11004KT P6SM SCT015
     FM270400 12007KT 6SM BR SCT005 BKN010=



000
FTUS44 KHGX 261323 AAB
TAFLBX
TAF AMD
KLBX 261323Z 2613/2712 VRB04KT 3SM BR VCTS BKN003 OVC015CB
      TEMPO 2613/2615 1/4SM FG VV002
     FM261500 VRB03KT 5SM BR VCTS SCT006 BKN018CB
      TEMPO 2615/2618 6SM BR SCT020
     FM261800 14007KT P6SM VCSH SCT025 BKN150
     FM270000 11004KT P6SM SCT015
     FM270400 12007KT 6SM BR SCT005 BKN010=



000
FTUS44 KHGX 261323 AAB
TAFLBX
TAF AMD
KLBX 261323Z 2613/2712 VRB04KT 3SM BR VCTS BKN003 OVC015CB
      TEMPO 2613/2615 1/4SM FG VV002
     FM261500 VRB03KT 5SM BR VCTS SCT006 BKN018CB
      TEMPO 2615/2618 6SM BR SCT020
     FM261800 14007KT P6SM VCSH SCT025 BKN150
     FM270000 11004KT P6SM SCT015
     FM270400 12007KT 6SM BR SCT005 BKN010=



000
FTUS44 KHGX 261229 AAA
TAFIAH
TAF AMD
KIAH 261229Z 2612/2718 00000KT P6SM BKN010 BKN100
      TEMPO 2614/2617 SCT012
     FM261700 13005KT P6SM FEW015 SCT120
     FM261900 16012KT P6SM FEW040 BKN150
     FM270300 14008KT 6SM BR SCT020
     FM270600 13010KT 5SM BR SCT006 BKN012
     FM271500 15009KT P6SM VCTS BKN020 BKN040CB=



000
FTUS44 KHGX 261229 AAA
TAFCXO
TAF AMD
KCXO 261229Z 2612/2712 24005KT 5SM BR OVC011
      TEMPO 2613/2617 SCT012
     FM261700 11004KT P6SM SCT012 SCT120
     FM261900 16007KT P6SM FEW040 BKN150
     FM270300 14006KT 6SM BR FEW010
     FM270900 16005KT 6SM BR VCTS SCT006 BKN012CB=



000
FTUS44 KHGX 261229 AAA
TAFCXO
TAF AMD
KCXO 261229Z 2612/2712 24005KT 5SM BR OVC011
      TEMPO 2613/2617 SCT012
     FM261700 11004KT P6SM SCT012 SCT120
     FM261900 16007KT P6SM FEW040 BKN150
     FM270300 14006KT 6SM BR FEW010
     FM270900 16005KT 6SM BR VCTS SCT006 BKN012CB=



000
FTUS44 KHGX 261229 AAA
TAFIAH
TAF AMD
KIAH 261229Z 2612/2718 00000KT P6SM BKN010 BKN100
      TEMPO 2614/2617 SCT012
     FM261700 13005KT P6SM FEW015 SCT120
     FM261900 16012KT P6SM FEW040 BKN150
     FM270300 14008KT 6SM BR SCT020
     FM270600 13010KT 5SM BR SCT006 BKN012
     FM271500 15009KT P6SM VCTS BKN020 BKN040CB=



000
FTUS44 KHGX 261201 AAA
TAFHOU
TAF AMD
KHOU 261201Z 2612/2712 00000KT P6SM OVC010
     FM261400 21004KT 6SM BR VCSH SCT005 OVC010
      TEMPO 2615/2618 SCT012
     FM261800 13007KT P6SM SCT025 BKN150
     FM270300 14005KT P6SM SCT020
     FM270600 13008KT 6SM BR SCT006 BKN012=



000
FTUS44 KHGX 261201 AAA
TAFCLL
TAF AMD
KCLL 261201Z 2612/2712 19003KT P6SM OVC010
      TEMPO 2614/2616 SCT012
     FM261600 18007KT P6SM SCT012
     FM261900 16012KT P6SM SCT040 BKN120
     FM270100 14009KT P6SM SCT025
     FM270600 15012KT 6SM BR VCTS SCT015CB=



000
FTUS44 KHGX 261201 AAA
TAFCLL
TAF AMD
KCLL 261201Z 2612/2712 19003KT P6SM OVC010
      TEMPO 2614/2616 SCT012
     FM261600 18007KT P6SM SCT012
     FM261900 16012KT P6SM SCT040 BKN120
     FM270100 14009KT P6SM SCT025
     FM270600 15012KT 6SM BR VCTS SCT015CB=



000
FTUS44 KHGX 261201 AAA
TAFHOU
TAF AMD
KHOU 261201Z 2612/2712 00000KT P6SM OVC010
     FM261400 21004KT 6SM BR VCSH SCT005 OVC010
      TEMPO 2615/2618 SCT012
     FM261800 13007KT P6SM SCT025 BKN150
     FM270300 14005KT P6SM SCT020
     FM270600 13008KT 6SM BR SCT006 BKN012=



000
FTUS44 KHGX 261201 AAA
TAFHOU
TAF AMD
KHOU 261201Z 2612/2712 00000KT P6SM OVC010
     FM261400 21004KT 6SM BR VCSH SCT005 OVC010
      TEMPO 2615/2618 SCT012
     FM261800 13007KT P6SM SCT025 BKN150
     FM270300 14005KT P6SM SCT020
     FM270600 13008KT 6SM BR SCT006 BKN012=



000
FTUS44 KHGX 261201 AAA
TAFHOU
TAF AMD
KHOU 261201Z 2612/2712 00000KT P6SM OVC010
     FM261400 21004KT 6SM BR VCSH SCT005 OVC010
      TEMPO 2615/2618 SCT012
     FM261800 13007KT P6SM SCT025 BKN150
     FM270300 14005KT P6SM SCT020
     FM270600 13008KT 6SM BR SCT006 BKN012=



000
FTUS44 KHGX 261201 AAA
TAFCLL
TAF AMD
KCLL 261201Z 2612/2712 19003KT P6SM OVC010
      TEMPO 2614/2616 SCT012
     FM261600 18007KT P6SM SCT012
     FM261900 16012KT P6SM SCT040 BKN120
     FM270100 14009KT P6SM SCT025
     FM270600 15012KT 6SM BR VCTS SCT015CB=



000
FTUS44 KHGX 261200 AAA
TAFLBX
TAF AMD
KLBX 261200Z 2612/2712 05005KT 4SM BR VCSH BKN003 OVC015
     FM261400 VRB03KT 5SM BR VCTS SCT006 BKN018CB
      TEMPO 2614/2618 6SM BR SCT020
     FM261800 14007KT P6SM VCSH SCT025 BKN150
     FM270000 11004KT P6SM SCT015
     FM270400 12007KT 6SM BR SCT005 BKN010=



000
FTUS44 KHGX 261200 AAA
TAFLBX
TAF AMD
KLBX 261200Z 2612/2712 05005KT 4SM BR VCSH BKN003 OVC015
     FM261400 VRB03KT 5SM BR VCTS SCT006 BKN018CB
      TEMPO 2614/2618 6SM BR SCT020
     FM261800 14007KT P6SM VCSH SCT025 BKN150
     FM270000 11004KT P6SM SCT015
     FM270400 12007KT 6SM BR SCT005 BKN010=



000
FTUS44 KHGX 261200 AAA
TAFLBX
TAF AMD
KLBX 261200Z 2612/2712 05005KT 4SM BR VCSH BKN003 OVC015
     FM261400 VRB03KT 5SM BR VCTS SCT006 BKN018CB
      TEMPO 2614/2618 6SM BR SCT020
     FM261800 14007KT P6SM VCSH SCT025 BKN150
     FM270000 11004KT P6SM SCT015
     FM270400 12007KT 6SM BR SCT005 BKN010=



000
FTUS44 KHGX 261200 AAA
TAFLBX
TAF AMD
KLBX 261200Z 2612/2712 05005KT 4SM BR VCSH BKN003 OVC015
     FM261400 VRB03KT 5SM BR VCTS SCT006 BKN018CB
      TEMPO 2614/2618 6SM BR SCT020
     FM261800 14007KT P6SM VCSH SCT025 BKN150
     FM270000 11004KT P6SM SCT015
     FM270400 12007KT 6SM BR SCT005 BKN010=



000
FTUS44 KHGX 261134
TAFCXO
TAF
KCXO 261134Z 2612/2712 23003KT 6SM BR OVC007
      TEMPO 2613/2617 SCT012
     FM261700 11004KT P6SM SCT012 SCT120
     FM261900 16007KT P6SM FEW040 BKN150
     FM270300 14006KT 6SM BR FEW010
     FM270900 16005KT 6SM BR VCTS SCT006 BKN012CB=



000
FTUS44 KHGX 261134
TAFSGR
TAF
KSGR 261134Z 2612/2712 21005KT P6SM OVC012
     FM261400 19003KT 6SM BR VCSH BKN008
      TEMPO 2615/2618 SCT012
     FM261800 14010KT P6SM SCT025 BKN150
     FM270300 14005KT P6SM SCT020
     FM270600 16010KT 6SM BR SCT006 BKN012=



000
FTUS44 KHGX 261134
TAFSGR
TAF
KSGR 261134Z 2612/2712 21005KT P6SM OVC012
     FM261400 19003KT 6SM BR VCSH BKN008
      TEMPO 2615/2618 SCT012
     FM261800 14010KT P6SM SCT025 BKN150
     FM270300 14005KT P6SM SCT020
     FM270600 16010KT 6SM BR SCT006 BKN012=



000
FTUS44 KHGX 261134
TAFIAH
TAF
KIAH 261134Z 2612/2718 20003KT 6SM BR OVC008
      TEMPO 2614/2617 SCT012
     FM261700 13005KT P6SM FEW015 SCT120
     FM261900 16012KT P6SM FEW040 BKN150
     FM270300 14008KT 6SM BR SCT020
     FM270600 13010KT 5SM BR SCT006 BKN012
     FM271500 15009KT P6SM VCTS BKN020 BKN040CB=



000
FTUS44 KHGX 261134
TAFUTS
TAF
KUTS 261134Z 2612/2712 20007KT 6SM BR OVC003
      TEMPO 2612/2616 SCT010
     FM261600 19004KT P6SM SCT012
     FM261800 16010KT P6SM SCT040 BKN120
     FM270000 14006KT P6SM SCT025
     FM270600 VRB03KT 6SM BR VCTS SCT015CB=



000
FTUS44 KHGX 261134
TAFCLL
TAF
KCLL 261134Z 2612/2712 21004KT P6SM OVC009
      TEMPO 2614/2616 SCT012
     FM261600 18007KT P6SM SCT012
     FM261900 16012KT P6SM SCT040 BKN120
     FM270100 14009KT P6SM SCT025
     FM270600 15012KT 6SM BR VCTS SCT015CB=



000
FTUS44 KHGX 261134
TAFGLS
TAF
KGLS 261134Z 2612/2712 20006KT 5SM BR VCTS BKN005 OVC012CB
      TEMPO 2615/2618 SCT015CB
     FM261800 15010KT P6SM VCSH SCT025 SCT150
     FM270300 12012KT 6SM BR SCT010 SCT250
     FM270600 14014KT 4SM BR SCT005 BKN010=



000
FTUS44 KHGX 261134
TAFHOU
TAF
KHOU 261134Z 2612/2712 21005KT 6SM BR OVC005
     FM261400 21004KT 6SM BR VCSH BKN005
      TEMPO 2615/2618 SCT012
     FM261800 13007KT P6SM SCT025 BKN150
     FM270300 14005KT P6SM SCT020
     FM270600 13008KT 6SM BR SCT006 BKN012=



000
FTUS44 KHGX 261134
TAFCXO
TAF
KCXO 261134Z 2612/2712 23003KT 6SM BR OVC007
      TEMPO 2613/2617 SCT012
     FM261700 11004KT P6SM SCT012 SCT120
     FM261900 16007KT P6SM FEW040 BKN150
     FM270300 14006KT 6SM BR FEW010
     FM270900 16005KT 6SM BR VCTS SCT006 BKN012CB=



000
FTUS44 KHGX 261134
TAFIAH
TAF
KIAH 261134Z 2612/2718 20003KT 6SM BR OVC008
      TEMPO 2614/2617 SCT012
     FM261700 13005KT P6SM FEW015 SCT120
     FM261900 16012KT P6SM FEW040 BKN150
     FM270300 14008KT 6SM BR SCT020
     FM270600 13010KT 5SM BR SCT006 BKN012
     FM271500 15009KT P6SM VCTS BKN020 BKN040CB=



000
FTUS44 KHGX 261134
TAFCLL
TAF
KCLL 261134Z 2612/2712 21004KT P6SM OVC009
      TEMPO 2614/2616 SCT012
     FM261600 18007KT P6SM SCT012
     FM261900 16012KT P6SM SCT040 BKN120
     FM270100 14009KT P6SM SCT025
     FM270600 15012KT 6SM BR VCTS SCT015CB=



000
FTUS44 KHGX 261134
TAFHOU
TAF
KHOU 261134Z 2612/2712 21005KT 6SM BR OVC005
     FM261400 21004KT 6SM BR VCSH BKN005
      TEMPO 2615/2618 SCT012
     FM261800 13007KT P6SM SCT025 BKN150
     FM270300 14005KT P6SM SCT020
     FM270600 13008KT 6SM BR SCT006 BKN012=



000
FTUS44 KHGX 261134
TAFGLS
TAF
KGLS 261134Z 2612/2712 20006KT 5SM BR VCTS BKN005 OVC012CB
      TEMPO 2615/2618 SCT015CB
     FM261800 15010KT P6SM VCSH SCT025 SCT150
     FM270300 12012KT 6SM BR SCT010 SCT250
     FM270600 14014KT 4SM BR SCT005 BKN010=



000
FTUS44 KHGX 261134
TAFUTS
TAF
KUTS 261134Z 2612/2712 20007KT 6SM BR OVC003
      TEMPO 2612/2616 SCT010
     FM261600 19004KT P6SM SCT012
     FM261800 16010KT P6SM SCT040 BKN120
     FM270000 14006KT P6SM SCT025
     FM270600 VRB03KT 6SM BR VCTS SCT015CB=



000
FTUS44 KHGX 261134
TAFLBX
TAF
KLBX 261134Z 2612/2712 VRB02KT 4SM BR VCSH SCT003 OVC013
     FM261400 VRB03KT 5SM BR VCTS SCT006 BKN018CB
      TEMPO 2614/2618 6SM BR SCT020
     FM261800 14007KT P6SM VCSH SCT025 BKN150
     FM270000 11004KT P6SM SCT015
     FM270400 12007KT 6SM BR SCT005 BKN010=



000
FTUS44 KHGX 261134
TAFUTS
TAF
KUTS 261134Z 2612/2712 20007KT 6SM BR OVC003
      TEMPO 2612/2616 SCT010
     FM261600 19004KT P6SM SCT012
     FM261800 16010KT P6SM SCT040 BKN120
     FM270000 14006KT P6SM SCT025
     FM270600 VRB03KT 6SM BR VCTS SCT015CB=



000
FTUS44 KHGX 261134
TAFHOU
TAF
KHOU 261134Z 2612/2712 21005KT 6SM BR OVC005
     FM261400 21004KT 6SM BR VCSH BKN005
      TEMPO 2615/2618 SCT012
     FM261800 13007KT P6SM SCT025 BKN150
     FM270300 14005KT P6SM SCT020
     FM270600 13008KT 6SM BR SCT006 BKN012=



000
FTUS44 KHGX 261134
TAFGLS
TAF
KGLS 261134Z 2612/2712 20006KT 5SM BR VCTS BKN005 OVC012CB
      TEMPO 2615/2618 SCT015CB
     FM261800 15010KT P6SM VCSH SCT025 SCT150
     FM270300 12012KT 6SM BR SCT010 SCT250
     FM270600 14014KT 4SM BR SCT005 BKN010=



000
FTUS44 KHGX 261134
TAFCXO
TAF
KCXO 261134Z 2612/2712 23003KT 6SM BR OVC007
      TEMPO 2613/2617 SCT012
     FM261700 11004KT P6SM SCT012 SCT120
     FM261900 16007KT P6SM FEW040 BKN150
     FM270300 14006KT 6SM BR FEW010
     FM270900 16005KT 6SM BR VCTS SCT006 BKN012CB=



000
FTUS44 KHGX 261134
TAFCLL
TAF
KCLL 261134Z 2612/2712 21004KT P6SM OVC009
      TEMPO 2614/2616 SCT012
     FM261600 18007KT P6SM SCT012
     FM261900 16012KT P6SM SCT040 BKN120
     FM270100 14009KT P6SM SCT025
     FM270600 15012KT 6SM BR VCTS SCT015CB=



000
FTUS44 KHGX 261134
TAFIAH
TAF
KIAH 261134Z 2612/2718 20003KT 6SM BR OVC008
      TEMPO 2614/2617 SCT012
     FM261700 13005KT P6SM FEW015 SCT120
     FM261900 16012KT P6SM FEW040 BKN150
     FM270300 14008KT 6SM BR SCT020
     FM270600 13010KT 5SM BR SCT006 BKN012
     FM271500 15009KT P6SM VCTS BKN020 BKN040CB=



000
FTUS44 KHGX 261134
TAFSGR
TAF
KSGR 261134Z 2612/2712 21005KT P6SM OVC012
     FM261400 19003KT 6SM BR VCSH BKN008
      TEMPO 2615/2618 SCT012
     FM261800 14010KT P6SM SCT025 BKN150
     FM270300 14005KT P6SM SCT020
     FM270600 16010KT 6SM BR SCT006 BKN012=



000
FTUS44 KHGX 261134
TAFUTS
TAF
KUTS 261134Z 2612/2712 20007KT 6SM BR OVC003
      TEMPO 2612/2616 SCT010
     FM261600 19004KT P6SM SCT012
     FM261800 16010KT P6SM SCT040 BKN120
     FM270000 14006KT P6SM SCT025
     FM270600 VRB03KT 6SM BR VCTS SCT015CB=



000
FTUS44 KHGX 261134
TAFLBX
TAF
KLBX 261134Z 2612/2712 VRB02KT 4SM BR VCSH SCT003 OVC013
     FM261400 VRB03KT 5SM BR VCTS SCT006 BKN018CB
      TEMPO 2614/2618 6SM BR SCT020
     FM261800 14007KT P6SM VCSH SCT025 BKN150
     FM270000 11004KT P6SM SCT015
     FM270400 12007KT 6SM BR SCT005 BKN010=



000
FTUS44 KHGX 261134
TAFCLL
TAF
KCLL 261134Z 2612/2712 21004KT P6SM OVC009
      TEMPO 2614/2616 SCT012
     FM261600 18007KT P6SM SCT012
     FM261900 16012KT P6SM SCT040 BKN120
     FM270100 14009KT P6SM SCT025
     FM270600 15012KT 6SM BR VCTS SCT015CB=



000
FTUS44 KHGX 261134
TAFCXO
TAF
KCXO 261134Z 2612/2712 23003KT 6SM BR OVC007
      TEMPO 2613/2617 SCT012
     FM261700 11004KT P6SM SCT012 SCT120
     FM261900 16007KT P6SM FEW040 BKN150
     FM270300 14006KT 6SM BR FEW010
     FM270900 16005KT 6SM BR VCTS SCT006 BKN012CB=



000
FTUS44 KHGX 261134
TAFHOU
TAF
KHOU 261134Z 2612/2712 21005KT 6SM BR OVC005
     FM261400 21004KT 6SM BR VCSH BKN005
      TEMPO 2615/2618 SCT012
     FM261800 13007KT P6SM SCT025 BKN150
     FM270300 14005KT P6SM SCT020
     FM270600 13008KT 6SM BR SCT006 BKN012=



000
FTUS44 KHGX 261134
TAFGLS
TAF
KGLS 261134Z 2612/2712 20006KT 5SM BR VCTS BKN005 OVC012CB
      TEMPO 2615/2618 SCT015CB
     FM261800 15010KT P6SM VCSH SCT025 SCT150
     FM270300 12012KT 6SM BR SCT010 SCT250
     FM270600 14014KT 4SM BR SCT005 BKN010=



000
FTUS44 KHGX 261134
TAFLBX
TAF
KLBX 261134Z 2612/2712 VRB02KT 4SM BR VCSH SCT003 OVC013
     FM261400 VRB03KT 5SM BR VCTS SCT006 BKN018CB
      TEMPO 2614/2618 6SM BR SCT020
     FM261800 14007KT P6SM VCSH SCT025 BKN150
     FM270000 11004KT P6SM SCT015
     FM270400 12007KT 6SM BR SCT005 BKN010=



000
FTUS44 KHGX 261134
TAFLBX
TAF
KLBX 261134Z 2612/2712 VRB02KT 4SM BR VCSH SCT003 OVC013
     FM261400 VRB03KT 5SM BR VCTS SCT006 BKN018CB
      TEMPO 2614/2618 6SM BR SCT020
     FM261800 14007KT P6SM VCSH SCT025 BKN150
     FM270000 11004KT P6SM SCT015
     FM270400 12007KT 6SM BR SCT005 BKN010=



000
FTUS44 KHGX 261134
TAFSGR
TAF
KSGR 261134Z 2612/2712 21005KT P6SM OVC012
     FM261400 19003KT 6SM BR VCSH BKN008
      TEMPO 2615/2618 SCT012
     FM261800 14010KT P6SM SCT025 BKN150
     FM270300 14005KT P6SM SCT020
     FM270600 16010KT 6SM BR SCT006 BKN012=



000
FTUS44 KHGX 261134
TAFIAH
TAF
KIAH 261134Z 2612/2718 20003KT 6SM BR OVC008
      TEMPO 2614/2617 SCT012
     FM261700 13005KT P6SM FEW015 SCT120
     FM261900 16012KT P6SM FEW040 BKN150
     FM270300 14008KT 6SM BR SCT020
     FM270600 13010KT 5SM BR SCT006 BKN012
     FM271500 15009KT P6SM VCTS BKN020 BKN040CB=



000
FTUS44 KHGX 261009 AAC
TAFIAH
TAF AMD
KIAH 261009Z 2610/2712 00000KT 4SM BR OVC004
      TEMPO 2612/2616 5SM BR BKN007
     FM261600 19005KT P6SM FEW020 SCT120
     FM261800 16010KT P6SM FEW030 BKN150
     FM270300 14008KT P6SM SCT020
     FM270900 15009KT P6SM BKN020=



000
FTUS44 KHGX 261009 AAC
TAFIAH
TAF AMD
KIAH 261009Z 2610/2712 00000KT 4SM BR OVC004
      TEMPO 2612/2616 5SM BR BKN007
     FM261600 19005KT P6SM FEW020 SCT120
     FM261800 16010KT P6SM FEW030 BKN150
     FM270300 14008KT P6SM SCT020
     FM270900 15009KT P6SM BKN020=



000
FTUS44 KHGX 261009 AAD
TAFUTS
TAF AMD
KUTS 261009Z 2610/2706 20003KT P6SM FEW005
      TEMPO 2610/2614 3SM BR
     FM261400 18005KT P6SM SCT012
     FM261800 18010KT P6SM SCT030 BKN120
     FM270000 14009KT P6SM SCT250=



000
FTUS44 KHGX 261009 AAD
TAFUTS
TAF AMD
KUTS 261009Z 2610/2706 20003KT P6SM FEW005
      TEMPO 2610/2614 3SM BR
     FM261400 18005KT P6SM SCT012
     FM261800 18010KT P6SM SCT030 BKN120
     FM270000 14009KT P6SM SCT250=



000
FTUS44 KHGX 260908 AAB
TAFLBX
TAF AMD
KLBX 260908Z 2609/2706 19006KT 2SM BR OVC002
      TEMPO 2611/2614 1/2SM FG VV002
     FM261400 13004KT P6SM VCSH SCT120
     FM261800 14007KT P6SM SCT025 BKN150=



000
FTUS44 KHGX 260908 AAB
TAFLBX
TAF AMD
KLBX 260908Z 2609/2706 19006KT 2SM BR OVC002
      TEMPO 2611/2614 1/2SM FG VV002
     FM261400 13004KT P6SM VCSH SCT120
     FM261800 14007KT P6SM SCT025 BKN150=



000
FTUS44 KHGX 260908 AAD
TAFSGR
TAF AMD
KSGR 260908Z 2609/2706 20009KT 3SM BR OVC002
      TEMPO 2614/2616 4SM BR BKN005
     FM261600 VRB04KT P6SM VCSH SCT120
     FM261800 14007KT P6SM SCT025 BKN150
     FM270300 14005KT P6SM SCT020=



000
FTUS44 KHGX 260908 AAD
TAFSGR
TAF AMD
KSGR 260908Z 2609/2706 20009KT 3SM BR OVC002
      TEMPO 2614/2616 4SM BR BKN005
     FM261600 VRB04KT P6SM VCSH SCT120
     FM261800 14007KT P6SM SCT025 BKN150
     FM270300 14005KT P6SM SCT020=



000
FTUS44 KHGX 260908 AAC
TAFGLS
TAF AMD
KGLS 260908Z 2609/2706 19008KT 4SM BR OVC003
     FM261500 18007KT P6SM VCSH FEW012 SCT150
     FM261800 14009KT P6SM SCT025 SCT150
     FM270300 12012KT 6SM HZ SCT010 SCT250=



000
FTUS44 KHGX 260908 AAC
TAFGLS
TAF AMD
KGLS 260908Z 2609/2706 19008KT 4SM BR OVC003
     FM261500 18007KT P6SM VCSH FEW012 SCT150
     FM261800 14009KT P6SM SCT025 SCT150
     FM270300 12012KT 6SM HZ SCT010 SCT250=



000
FTUS44 KHGX 260907 AAC
TAFHOU
TAF AMD
KHOU 260907Z 2609/2706 17009KT 3/4SM BR VV002
      TEMPO 2613/2615 4SM BR SCT004 BKN007
     FM261500 VRB04KT P6SM VCSH SCT120
     FM261800 14007KT P6SM SCT025 BKN150
     FM270300 14005KT P6SM SCT020=



000
FTUS44 KHGX 260907 AAC
TAFHOU
TAF AMD
KHOU 260907Z 2609/2706 17009KT 3/4SM BR VV002
      TEMPO 2613/2615 4SM BR SCT004 BKN007
     FM261500 VRB04KT P6SM VCSH SCT120
     FM261800 14007KT P6SM SCT025 BKN150
     FM270300 14005KT P6SM SCT020=



000
FTUS44 KHGX 260906 AAB
TAFIAH
TAF AMD
KIAH 260906Z 2609/2712 21003KT 2SM BR OVC003
      TEMPO 2612/2616 4SM BR BKN007
     FM261600 19005KT P6SM FEW020 SCT120
     FM261800 16010KT P6SM FEW030 BKN150
     FM270300 14008KT P6SM SCT020
     FM270900 15009KT P6SM BKN020=



000
FTUS44 KHGX 260906 AAB
TAFIAH
TAF AMD
KIAH 260906Z 2609/2712 21003KT 2SM BR OVC003
      TEMPO 2612/2616 4SM BR BKN007
     FM261600 19005KT P6SM FEW020 SCT120
     FM261800 16010KT P6SM FEW030 BKN150
     FM270300 14008KT P6SM SCT020
     FM270900 15009KT P6SM BKN020=



000
FTUS44 KHGX 260904 AAC
TAFCXO
TAF AMD
KCXO 260904Z 2609/2706 00000KT 3/4SM BR VV003
      TEMPO 2613/2615 2SM BR SCT005 BKN015
     FM261500 18008KT 6SM BR SCT012 SCT120
     FM261800 16010KT P6SM FEW030 BKN150
     FM270300 14006KT 6SM BR FEW010=



000
FTUS44 KHGX 260904 AAC
TAFCXO
TAF AMD
KCXO 260904Z 2609/2706 00000KT 3/4SM BR VV003
      TEMPO 2613/2615 2SM BR SCT005 BKN015
     FM261500 18008KT 6SM BR SCT012 SCT120
     FM261800 16010KT P6SM FEW030 BKN150
     FM270300 14006KT 6SM BR FEW010=



000
FTUS44 KHGX 260903 AAC
TAFUTS
TAF AMD
KUTS 260903Z 2609/2706 00000KT 5SM BR FEW003
      TEMPO 2610/2614 2SM BR BKN005
     FM261400 18005KT P6SM SCT012
     FM261800 18010KT P6SM SCT030 BKN120
     FM270000 14009KT P6SM SCT250=



000
FTUS44 KHGX 260903 AAC
TAFUTS
TAF AMD
KUTS 260903Z 2609/2706 00000KT 5SM BR FEW003
      TEMPO 2610/2614 2SM BR BKN005
     FM261400 18005KT P6SM SCT012
     FM261800 18010KT P6SM SCT030 BKN120
     FM270000 14009KT P6SM SCT250=



000
FTUS44 KHGX 260903 AAC
TAFUTS
TAF AMD
KUTS 260903Z 2609/2706 00000KT 5SM BR FEW003
      TEMPO 2610/2614 2SM BR BKN005
     FM261400 18005KT P6SM SCT012
     FM261800 18010KT P6SM SCT030 BKN120
     FM270000 14009KT P6SM SCT250=



000
FTUS44 KHGX 260903 AAC
TAFUTS
TAF AMD
KUTS 260903Z 2609/2706 00000KT 5SM BR FEW003
      TEMPO 2610/2614 2SM BR BKN005
     FM261400 18005KT P6SM SCT012
     FM261800 18010KT P6SM SCT030 BKN120
     FM270000 14009KT P6SM SCT250=



000
FTUS44 KHGX 260902 AAA
TAFCLL
TAF AMD
KCLL 260902Z 2609/2706 20005KT 6SM BR BKN006
      TEMPO 2613/2615 3SM BR SCT003
     FM261500 18008KT P6SM SCT012
     FM261800 18012KT P6SM SCT030 BKN120
     FM270000 14009KT P6SM SCT250=



000
FTUS44 KHGX 260902 AAA
TAFCLL
TAF AMD
KCLL 260902Z 2609/2706 20005KT 6SM BR BKN006
      TEMPO 2613/2615 3SM BR SCT003
     FM261500 18008KT P6SM SCT012
     FM261800 18012KT P6SM SCT030 BKN120
     FM270000 14009KT P6SM SCT250=



000
FTUS44 KHGX 260902 AAA
TAFCLL
TAF AMD
KCLL 260902Z 2609/2706 20005KT 6SM BR BKN006
      TEMPO 2613/2615 3SM BR SCT003
     FM261500 18008KT P6SM SCT012
     FM261800 18012KT P6SM SCT030 BKN120
     FM270000 14009KT P6SM SCT250=



000
FTUS44 KHGX 260811 AAB
TAFGLS
TAF AMD
KGLS 260811Z 2608/2706 22006KT P6SM OVC004
     FM261500 18007KT P6SM VCSH FEW012 SCT150
     FM261800 14009KT P6SM SCT025 SCT150
     FM270300 12012KT 6SM HZ SCT010 SCT250=



000
FTUS44 KHGX 260811 AAB
TAFGLS
TAF AMD
KGLS 260811Z 2608/2706 22006KT P6SM OVC004
     FM261500 18007KT P6SM VCSH FEW012 SCT150
     FM261800 14009KT P6SM SCT025 SCT150
     FM270300 12012KT 6SM HZ SCT010 SCT250=



000
FTUS44 KHGX 260755 AAB
TAFUTS
TAF AMD
KUTS 260755Z 2608/2706 19007KT P6SM SCT005
      TEMPO 2608/2609 BKN005
     FM260900 17005KT 5SM BR SCT005
      TEMPO 2610/2613 2SM BR BKN005
     FM261300 18005KT P6SM SCT012
     FM261800 18007KT P6SM SCT030 BKN120
     FM270000 14009KT P6SM SCT250=



000
FTUS44 KHGX 260755 AAB
TAFUTS
TAF AMD
KUTS 260755Z 2608/2706 19007KT P6SM SCT005
      TEMPO 2608/2609 BKN005
     FM260900 17005KT 5SM BR SCT005
      TEMPO 2610/2613 2SM BR BKN005
     FM261300 18005KT P6SM SCT012
     FM261800 18007KT P6SM SCT030 BKN120
     FM270000 14009KT P6SM SCT250=



000
FTUS44 KHGX 260755 AAB
TAFUTS
TAF AMD
KUTS 260755Z 2608/2706 19007KT P6SM SCT005
      TEMPO 2608/2609 BKN005
     FM260900 17005KT 5SM BR SCT005
      TEMPO 2610/2613 2SM BR BKN005
     FM261300 18005KT P6SM SCT012
     FM261800 18007KT P6SM SCT030 BKN120
     FM270000 14009KT P6SM SCT250=



000
FTUS44 KHGX 260747 AAA
TAFIAH
TAF AMD
KIAH 260747Z 2608/2712 21003KT P6SM BKN006 BKN250
      TEMPO 2610/2614 00000KT 4SM BR SCT004
     FM261400 VRB04KT P6SM FEW020 SCT120
     FM261800 16007KT P6SM FEW030 BKN150
     FM270300 14008KT P6SM SCT020
     FM270900 15009KT P6SM BKN020=



000
FTUS44 KHGX 260747 AAA
TAFIAH
TAF AMD
KIAH 260747Z 2608/2712 21003KT P6SM BKN006 BKN250
      TEMPO 2610/2614 00000KT 4SM BR SCT004
     FM261400 VRB04KT P6SM FEW020 SCT120
     FM261800 16007KT P6SM FEW030 BKN150
     FM270300 14008KT P6SM SCT020
     FM270900 15009KT P6SM BKN020=



000
FTUS44 KHGX 260747 AAC
TAFSGR
TAF AMD
KSGR 260747Z 2608/2706 16007KT 1/2SM FG VV002
      TEMPO 2609/2613 00000KT 4SM BR BKN004
     FM261400 VRB04KT P6SM VCSH SCT120
     FM261800 14007KT P6SM SCT025 BKN150
     FM270300 14005KT P6SM SCT020=



000
FTUS44 KHGX 260747 AAC
TAFSGR
TAF AMD
KSGR 260747Z 2608/2706 16007KT 1/2SM FG VV002
      TEMPO 2609/2613 00000KT 4SM BR BKN004
     FM261400 VRB04KT P6SM VCSH SCT120
     FM261800 14007KT P6SM SCT025 BKN150
     FM270300 14005KT P6SM SCT020=



000
FTUS44 KHGX 260747 AAC
TAFSGR
TAF AMD
KSGR 260747Z 2608/2706 16007KT 1/2SM FG VV002
      TEMPO 2609/2613 00000KT 4SM BR BKN004
     FM261400 VRB04KT P6SM VCSH SCT120
     FM261800 14007KT P6SM SCT025 BKN150
     FM270300 14005KT P6SM SCT020=



000
FTUS44 KHGX 260727 AAB
TAFHOU
TAF AMD
KHOU 260727Z 2607/2706 18005KT 1/2SM FG OVC002
      TEMPO 2609/2613 00000KT 4SM BR SCT004
     FM261400 VRB04KT P6SM VCSH SCT120
     FM261800 14007KT P6SM SCT025 BKN150
     FM270300 14005KT P6SM SCT020=



000
FTUS44 KHGX 260727 AAB
TAFHOU
TAF AMD
KHOU 260727Z 2607/2706 18005KT 1/2SM FG OVC002
      TEMPO 2609/2613 00000KT 4SM BR SCT004
     FM261400 VRB04KT P6SM VCSH SCT120
     FM261800 14007KT P6SM SCT025 BKN150
     FM270300 14005KT P6SM SCT020=



000
FTUS44 KHGX 260727 AAB
TAFHOU
TAF AMD
KHOU 260727Z 2607/2706 18005KT 1/2SM FG OVC002
      TEMPO 2609/2613 00000KT 4SM BR SCT004
     FM261400 VRB04KT P6SM VCSH SCT120
     FM261800 14007KT P6SM SCT025 BKN150
     FM270300 14005KT P6SM SCT020=



000
FTUS44 KHGX 260726 AAA
TAFUTS
TAF AMD
KUTS 260726Z 2607/2706 20006KT P6SM BKN006
      TEMPO 2607/2609 SCT006
     FM260900 17005KT 5SM BR SCT006
      TEMPO 2610/2613 2SM BR BKN006
     FM261300 18005KT P6SM SCT012
     FM261800 18007KT P6SM SCT030 BKN120
     FM270000 14009KT P6SM SCT250=



000
FTUS44 KHGX 260726 AAA
TAFUTS
TAF AMD
KUTS 260726Z 2607/2706 20006KT P6SM BKN006
      TEMPO 2607/2609 SCT006
     FM260900 17005KT 5SM BR SCT006
      TEMPO 2610/2613 2SM BR BKN006
     FM261300 18005KT P6SM SCT012
     FM261800 18007KT P6SM SCT030 BKN120
     FM270000 14009KT P6SM SCT250=



000
FTUS44 KHGX 260726 AAA
TAFUTS
TAF AMD
KUTS 260726Z 2607/2706 20006KT P6SM BKN006
      TEMPO 2607/2609 SCT006
     FM260900 17005KT 5SM BR SCT006
      TEMPO 2610/2613 2SM BR BKN006
     FM261300 18005KT P6SM SCT012
     FM261800 18007KT P6SM SCT030 BKN120
     FM270000 14009KT P6SM SCT250=



000
FTUS44 KHGX 260726 AAA
TAFUTS
TAF AMD
KUTS 260726Z 2607/2706 20006KT P6SM BKN006
      TEMPO 2607/2609 SCT006
     FM260900 17005KT 5SM BR SCT006
      TEMPO 2610/2613 2SM BR BKN006
     FM261300 18005KT P6SM SCT012
     FM261800 18007KT P6SM SCT030 BKN120
     FM270000 14009KT P6SM SCT250=



000
FTUS44 KHGX 260702 AAB
TAFSGR
TAF AMD
KSGR 260702Z 2607/2706 18006KT 1SM BR OVC003
      TEMPO 2609/2613 00000KT 4SM BR SCT004
     FM261400 VRB04KT P6SM VCSH SCT120
     FM261800 14007KT P6SM SCT025 BKN150
     FM270300 14005KT P6SM SCT020=



000
FTUS44 KHGX 260702 AAB
TAFSGR
TAF AMD
KSGR 260702Z 2607/2706 18006KT 1SM BR OVC003
      TEMPO 2609/2613 00000KT 4SM BR SCT004
     FM261400 VRB04KT P6SM VCSH SCT120
     FM261800 14007KT P6SM SCT025 BKN150
     FM270300 14005KT P6SM SCT020=



000
FTUS44 KHGX 260701 AAA
TAFHOU
TAF AMD
KHOU 260701Z 2607/2706 19004KT 1 1/2SM BR OVC004
      TEMPO 2609/2613 00000KT 4SM BR SCT004
     FM261400 VRB04KT P6SM VCSH SCT120
     FM261800 14007KT P6SM SCT025 BKN150
     FM270300 14005KT P6SM SCT020=



000
FTUS44 KHGX 260701 AAA
TAFHOU
TAF AMD
KHOU 260701Z 2607/2706 19004KT 1 1/2SM BR OVC004
      TEMPO 2609/2613 00000KT 4SM BR SCT004
     FM261400 VRB04KT P6SM VCSH SCT120
     FM261800 14007KT P6SM SCT025 BKN150
     FM270300 14005KT P6SM SCT020=



000
FTUS44 KHGX 260701 AAA
TAFHOU
TAF AMD
KHOU 260701Z 2607/2706 19004KT 1 1/2SM BR OVC004
      TEMPO 2609/2613 00000KT 4SM BR SCT004
     FM261400 VRB04KT P6SM VCSH SCT120
     FM261800 14007KT P6SM SCT025 BKN150
     FM270300 14005KT P6SM SCT020=



000
FTUS44 KHGX 260701 AAA
TAFHOU
TAF AMD
KHOU 260701Z 2607/2706 19004KT 1 1/2SM BR OVC004
      TEMPO 2609/2613 00000KT 4SM BR SCT004
     FM261400 VRB04KT P6SM VCSH SCT120
     FM261800 14007KT P6SM SCT025 BKN150
     FM270300 14005KT P6SM SCT020=



000
FTUS44 KHGX 260658 AAB
TAFCXO
TAF AMD
KCXO 260658Z 2607/2706 18003KT P6SM SCT007
      TEMPO 2607/2609 BKN007
     FM260900 17004KT 4SM BR BKN007
      TEMPO 2609/2613 1SM BR VV003
     FM261400 18008KT P6SM SCT012 SCT120
     FM261800 16007KT P6SM FEW030 BKN150=



000
FTUS44 KHGX 260658 AAB
TAFCXO
TAF AMD
KCXO 260658Z 2607/2706 18003KT P6SM SCT007
      TEMPO 2607/2609 BKN007
     FM260900 17004KT 4SM BR BKN007
      TEMPO 2609/2613 1SM BR VV003
     FM261400 18008KT P6SM SCT012 SCT120
     FM261800 16007KT P6SM FEW030 BKN150=



000
FTUS44 KHGX 260658 AAB
TAFCXO
TAF AMD
KCXO 260658Z 2607/2706 18003KT P6SM SCT007
      TEMPO 2607/2609 BKN007
     FM260900 17004KT 4SM BR BKN007
      TEMPO 2609/2613 1SM BR VV003
     FM261400 18008KT P6SM SCT012 SCT120
     FM261800 16007KT P6SM FEW030 BKN150=



000
FTUS44 KHGX 260658 AAB
TAFCXO
TAF AMD
KCXO 260658Z 2607/2706 18003KT P6SM SCT007
      TEMPO 2607/2609 BKN007
     FM260900 17004KT 4SM BR BKN007
      TEMPO 2609/2613 1SM BR VV003
     FM261400 18008KT P6SM SCT012 SCT120
     FM261800 16007KT P6SM FEW030 BKN150=



000
FTUS44 KHGX 260630 CCA
TAFSGR
TAF COR
KSGR 260630Z 2607/2706 00000KT P6SM BKN006
      TEMPO 2609/2613 00000KT 4SM BR SCT004
     FM261400 VRB04KT P6SM VCSH SCT120
     FM261800 14007KT P6SM SCT025 BKN150
     FM270300 14005KT P6SM SCT020=



000
FTUS44 KHGX 260630 CCA
TAFSGR
TAF COR
KSGR 260630Z 2607/2706 00000KT P6SM BKN006
      TEMPO 2609/2613 00000KT 4SM BR SCT004
     FM261400 VRB04KT P6SM VCSH SCT120
     FM261800 14007KT P6SM SCT025 BKN150
     FM270300 14005KT P6SM SCT020=



000
FTUS44 KHGX 260630 CCA
TAFSGR
TAF COR
KSGR 260630Z 2607/2706 00000KT P6SM BKN006
      TEMPO 2609/2613 00000KT 4SM BR SCT004
     FM261400 VRB04KT P6SM VCSH SCT120
     FM261800 14007KT P6SM SCT025 BKN150
     FM270300 14005KT P6SM SCT020=



000
FTUS44 KHGX 260630 CCA
TAFSGR
TAF COR
KSGR 260630Z 2607/2706 00000KT P6SM BKN006
      TEMPO 2609/2613 00000KT 4SM BR SCT004
     FM261400 VRB04KT P6SM VCSH SCT120
     FM261800 14007KT P6SM SCT025 BKN150
     FM270300 14005KT P6SM SCT020=



000
FTUS44 KHGX 260627 AAA
TAFSGR
TAF AMD
KSGR 260627Z 2606/2706 00000KT P6SM BKN006
      TEMPO 2609/2613 00000KT 4SM BR SCT004
     FM261400 VRB04KT P6SM VCSH SCT120
     FM261800 14007KT P6SM SCT025 BKN150
     FM270300 14005KT P6SM SCT020=



000
FTUS44 KHGX 260627 AAA
TAFSGR
TAF AMD
KSGR 260627Z 2606/2706 00000KT P6SM BKN006
      TEMPO 2609/2613 00000KT 4SM BR SCT004
     FM261400 VRB04KT P6SM VCSH SCT120
     FM261800 14007KT P6SM SCT025 BKN150
     FM270300 14005KT P6SM SCT020=



000
FTUS44 KHGX 260627 AAA
TAFSGR
TAF AMD
KSGR 260627Z 2606/2706 00000KT P6SM BKN006
      TEMPO 2609/2613 00000KT 4SM BR SCT004
     FM261400 VRB04KT P6SM VCSH SCT120
     FM261800 14007KT P6SM SCT025 BKN150
     FM270300 14005KT P6SM SCT020=



000
FTUS44 KHGX 260627 AAA
TAFSGR
TAF AMD
KSGR 260627Z 2606/2706 00000KT P6SM BKN006
      TEMPO 2609/2613 00000KT 4SM BR SCT004
     FM261400 VRB04KT P6SM VCSH SCT120
     FM261800 14007KT P6SM SCT025 BKN150
     FM270300 14005KT P6SM SCT020=



000
FTUS44 KHGX 260606 AAA
TAFLBX
TAF AMD
KLBX 260606Z 2606/2706 19005KT 4SM BR OVC003
      TEMPO 2606/2608 1SM BR VV002
     FM260900 15006KT 2SM BR OVC004
      TEMPO 2609/2613 1/2SM FG VV002
     FM261400 13004KT P6SM VCSH SCT120
     FM261800 14007KT P6SM SCT025 BKN150=



000
FTUS44 KHGX 260606 AAA
TAFLBX
TAF AMD
KLBX 260606Z 2606/2706 19005KT 4SM BR OVC003
      TEMPO 2606/2608 1SM BR VV002
     FM260900 15006KT 2SM BR OVC004
      TEMPO 2609/2613 1/2SM FG VV002
     FM261400 13004KT P6SM VCSH SCT120
     FM261800 14007KT P6SM SCT025 BKN150=



000
FTUS44 KHGX 260606 AAA
TAFGLS
TAF AMD
KGLS 260606Z 2606/2706 00000KT P6SM BKN007 OVC014
     FM261500 18007KT P6SM VCSH FEW012 SCT150
     FM261800 14009KT P6SM SCT025 SCT150
     FM270300 12012KT 6SM HZ SCT010 SCT250=



000
FTUS44 KHGX 260606 AAA
TAFGLS
TAF AMD
KGLS 260606Z 2606/2706 00000KT P6SM BKN007 OVC014
     FM261500 18007KT P6SM VCSH FEW012 SCT150
     FM261800 14009KT P6SM SCT025 SCT150
     FM270300 12012KT 6SM HZ SCT010 SCT250=



000
FTUS44 KHGX 260606 AAA
TAFGLS
TAF AMD
KGLS 260606Z 2606/2706 00000KT P6SM BKN007 OVC014
     FM261500 18007KT P6SM VCSH FEW012 SCT150
     FM261800 14009KT P6SM SCT025 SCT150
     FM270300 12012KT 6SM HZ SCT010 SCT250=



000
FTUS44 KHGX 260606 AAA
TAFLBX
TAF AMD
KLBX 260606Z 2606/2706 19005KT 4SM BR OVC003
      TEMPO 2606/2608 1SM BR VV002
     FM260900 15006KT 2SM BR OVC004
      TEMPO 2609/2613 1/2SM FG VV002
     FM261400 13004KT P6SM VCSH SCT120
     FM261800 14007KT P6SM SCT025 BKN150=



000
FTUS44 KHGX 260606 AAA
TAFLBX
TAF AMD
KLBX 260606Z 2606/2706 19005KT 4SM BR OVC003
      TEMPO 2606/2608 1SM BR VV002
     FM260900 15006KT 2SM BR OVC004
      TEMPO 2609/2613 1/2SM FG VV002
     FM261400 13004KT P6SM VCSH SCT120
     FM261800 14007KT P6SM SCT025 BKN150=



000
FTUS44 KHGX 260606 AAA
TAFGLS
TAF AMD
KGLS 260606Z 2606/2706 00000KT P6SM BKN007 OVC014
     FM261500 18007KT P6SM VCSH FEW012 SCT150
     FM261800 14009KT P6SM SCT025 SCT150
     FM270300 12012KT 6SM HZ SCT010 SCT250=



000
FTUS44 KHGX 260605 AAA
TAFCXO
TAF AMD
KCXO 260605Z 2606/2706 18003KT P6SM BKN008
      TEMPO 2609/2613 1SM BR VV003
     FM261400 18008KT P6SM SCT012 SCT120
     FM261800 16007KT P6SM FEW030 BKN150=



000
FTUS44 KHGX 260605 AAA
TAFCXO
TAF AMD
KCXO 260605Z 2606/2706 18003KT P6SM BKN008
      TEMPO 2609/2613 1SM BR VV003
     FM261400 18008KT P6SM SCT012 SCT120
     FM261800 16007KT P6SM FEW030 BKN150=



000
FTUS44 KHGX 260605 AAA
TAFCXO
TAF AMD
KCXO 260605Z 2606/2706 18003KT P6SM BKN008
      TEMPO 2609/2613 1SM BR VV003
     FM261400 18008KT P6SM SCT012 SCT120
     FM261800 16007KT P6SM FEW030 BKN150=



000
FTUS44 KHGX 260524
TAFGLS
TAF
KGLS 260524Z 2606/2706 17007KT 6SM HZ SCT015
     FM261500 18007KT P6SM VCSH FEW012 SCT150
     FM261800 14009KT P6SM SCT025 SCT150
     FM270300 12012KT 6SM HZ SCT010 SCT250=



000
FTUS44 KHGX 260524
TAFCLL
TAF
KCLL 260524Z 2606/2706 18008KT P6SM SCT250
     FM260900 17005KT 5SM BR SCT250
      TEMPO 2610/2613 3SM BR SCT003
     FM261300 18008KT P6SM SCT012
     FM261800 18007KT P6SM SCT030 BKN120
     FM270000 14009KT P6SM SCT250=



000
FTUS44 KHGX 260524
TAFHOU
TAF
KHOU 260524Z 2606/2706 18004KT P6SM SCT250
      TEMPO 2609/2613 00000KT 4SM BR SCT004
     FM261400 VRB04KT P6SM VCSH SCT120
     FM261800 14007KT P6SM SCT025 BKN150
     FM270300 14005KT P6SM SCT020=



000
FTUS44 KHGX 260524
TAFLBX
TAF
KLBX 260524Z 2606/2706 VRB03KT 4SM BR SCT250
      TEMPO 2606/2608 1SM BR VV002
     FM260900 15006KT 2SM BR OVC004
      TEMPO 2609/2613 1/2SM FG VV002
     FM261400 13004KT P6SM VCSH SCT120
     FM261800 14007KT P6SM SCT025 BKN150=



000
FTUS44 KHGX 260524
TAFSGR
TAF
KSGR 260524Z 2606/2706 18005KT P6SM SCT250
      TEMPO 2609/2613 00000KT 4SM BR SCT004
     FM261400 VRB04KT P6SM VCSH SCT120
     FM261800 14007KT P6SM SCT025 BKN150
     FM270300 14005KT P6SM SCT020=



000
FTUS44 KHGX 260524
TAFCXO
TAF
KCXO 260524Z 2606/2706 23006KT P6SM SKC
     FM260800 00000KT 4SM BR FEW003
      TEMPO 2609/2613 1SM BR VV003
     FM261400 18008KT P6SM SCT012 SCT120
     FM261800 16007KT P6SM FEW030 BKN150=



000
FTUS44 KHGX 260524
TAFUTS
TAF
KUTS 260524Z 2606/2706 19004KT P6SM SCT250
     FM260900 17005KT 5SM BR SCT250
      TEMPO 2610/2613 2SM BR SCT003
     FM261300 18005KT P6SM SCT012
     FM261800 18007KT P6SM SCT030 BKN120
     FM270000 14009KT P6SM SCT250=



000
FTUS44 KHGX 260524
TAFGLS
TAF
KGLS 260524Z 2606/2706 17007KT 6SM HZ SCT015
     FM261500 18007KT P6SM VCSH FEW012 SCT150
     FM261800 14009KT P6SM SCT025 SCT150
     FM270300 12012KT 6SM HZ SCT010 SCT250=



000
FTUS44 KHGX 260524
TAFIAH
TAF
KIAH 260524Z 2606/2712 18004KT P6SM SCT250
      TEMPO 2610/2614 00000KT 4SM BR SCT004
     FM261400 VRB04KT P6SM FEW020 SCT120
     FM261800 16007KT P6SM FEW030 BKN150
     FM270300 14008KT P6SM SCT020
     FM270900 15009KT P6SM BKN020=



000
FTUS44 KHGX 260524
TAFUTS
TAF
KUTS 260524Z 2606/2706 19004KT P6SM SCT250
     FM260900 17005KT 5SM BR SCT250
      TEMPO 2610/2613 2SM BR SCT003
     FM261300 18005KT P6SM SCT012
     FM261800 18007KT P6SM SCT030 BKN120
     FM270000 14009KT P6SM SCT250=



000
FTUS44 KHGX 260524
TAFSGR
TAF
KSGR 260524Z 2606/2706 18005KT P6SM SCT250
      TEMPO 2609/2613 00000KT 4SM BR SCT004
     FM261400 VRB04KT P6SM VCSH SCT120
     FM261800 14007KT P6SM SCT025 BKN150
     FM270300 14005KT P6SM SCT020=



000
FTUS44 KHGX 260524
TAFLBX
TAF
KLBX 260524Z 2606/2706 VRB03KT 4SM BR SCT250
      TEMPO 2606/2608 1SM BR VV002
     FM260900 15006KT 2SM BR OVC004
      TEMPO 2609/2613 1/2SM FG VV002
     FM261400 13004KT P6SM VCSH SCT120
     FM261800 14007KT P6SM SCT025 BKN150=



000
FTUS44 KHGX 260524
TAFHOU
TAF
KHOU 260524Z 2606/2706 18004KT P6SM SCT250
      TEMPO 2609/2613 00000KT 4SM BR SCT004
     FM261400 VRB04KT P6SM VCSH SCT120
     FM261800 14007KT P6SM SCT025 BKN150
     FM270300 14005KT P6SM SCT020=



000
FTUS44 KHGX 260524
TAFCLL
TAF
KCLL 260524Z 2606/2706 18008KT P6SM SCT250
     FM260900 17005KT 5SM BR SCT250
      TEMPO 2610/2613 3SM BR SCT003
     FM261300 18008KT P6SM SCT012
     FM261800 18007KT P6SM SCT030 BKN120
     FM270000 14009KT P6SM SCT250=



000
FTUS44 KHGX 260524
TAFGLS
TAF
KGLS 260524Z 2606/2706 17007KT 6SM HZ SCT015
     FM261500 18007KT P6SM VCSH FEW012 SCT150
     FM261800 14009KT P6SM SCT025 SCT150
     FM270300 12012KT 6SM HZ SCT010 SCT250=



000
FTUS44 KHGX 260524
TAFUTS
TAF
KUTS 260524Z 2606/2706 19004KT P6SM SCT250
     FM260900 17005KT 5SM BR SCT250
      TEMPO 2610/2613 2SM BR SCT003
     FM261300 18005KT P6SM SCT012
     FM261800 18007KT P6SM SCT030 BKN120
     FM270000 14009KT P6SM SCT250=



000
FTUS44 KHGX 260524
TAFCXO
TAF
KCXO 260524Z 2606/2706 23006KT P6SM SKC
     FM260800 00000KT 4SM BR FEW003
      TEMPO 2609/2613 1SM BR VV003
     FM261400 18008KT P6SM SCT012 SCT120
     FM261800 16007KT P6SM FEW030 BKN150=



000
FTUS44 KHGX 260524
TAFIAH
TAF
KIAH 260524Z 2606/2712 18004KT P6SM SCT250
      TEMPO 2610/2614 00000KT 4SM BR SCT004
     FM261400 VRB04KT P6SM FEW020 SCT120
     FM261800 16007KT P6SM FEW030 BKN150
     FM270300 14008KT P6SM SCT020
     FM270900 15009KT P6SM BKN020=



000
FTUS44 KHGX 260524
TAFHOU
TAF
KHOU 260524Z 2606/2706 18004KT P6SM SCT250
      TEMPO 2609/2613 00000KT 4SM BR SCT004
     FM261400 VRB04KT P6SM VCSH SCT120
     FM261800 14007KT P6SM SCT025 BKN150
     FM270300 14005KT P6SM SCT020=



000
FTUS44 KHGX 260524
TAFLBX
TAF
KLBX 260524Z 2606/2706 VRB03KT 4SM BR SCT250
      TEMPO 2606/2608 1SM BR VV002
     FM260900 15006KT 2SM BR OVC004
      TEMPO 2609/2613 1/2SM FG VV002
     FM261400 13004KT P6SM VCSH SCT120
     FM261800 14007KT P6SM SCT025 BKN150=



000
FTUS44 KHGX 260524
TAFIAH
TAF
KIAH 260524Z 2606/2712 18004KT P6SM SCT250
      TEMPO 2610/2614 00000KT 4SM BR SCT004
     FM261400 VRB04KT P6SM FEW020 SCT120
     FM261800 16007KT P6SM FEW030 BKN150
     FM270300 14008KT P6SM SCT020
     FM270900 15009KT P6SM BKN020=



000
FTUS44 KHGX 260524
TAFSGR
TAF
KSGR 260524Z 2606/2706 18005KT P6SM SCT250
      TEMPO 2609/2613 00000KT 4SM BR SCT004
     FM261400 VRB04KT P6SM VCSH SCT120
     FM261800 14007KT P6SM SCT025 BKN150
     FM270300 14005KT P6SM SCT020=



000
FTUS44 KHGX 260524
TAFCXO
TAF
KCXO 260524Z 2606/2706 23006KT P6SM SKC
     FM260800 00000KT 4SM BR FEW003
      TEMPO 2609/2613 1SM BR VV003
     FM261400 18008KT P6SM SCT012 SCT120
     FM261800 16007KT P6SM FEW030 BKN150=



000
FTUS44 KHGX 260524
TAFCLL
TAF
KCLL 260524Z 2606/2706 18008KT P6SM SCT250
     FM260900 17005KT 5SM BR SCT250
      TEMPO 2610/2613 3SM BR SCT003
     FM261300 18008KT P6SM SCT012
     FM261800 18007KT P6SM SCT030 BKN120
     FM270000 14009KT P6SM SCT250=



000
FTUS44 KHGX 252324
TAFLBX
TAF
KLBX 252324Z 2600/2624 18009KT P6SM SKC
     FM260300 18003KT 6SM BR MIFG SCT015
     FM260600 00000KT 3SM BR SKC
      TEMPO 2609/2612 00000KT 1SM BR VV002
     FM261400 13004KT P6SM FEW120
     FM261800 14007KT P6SM SCT025 BKN250=



000
FTUS44 KHGX 252324
TAFCXO
TAF
KCXO 252324Z 2600/2624 23006KT P6SM SKC
     FM260400 VRB02KT 5SM BR FEW005
     FM260700 00000KT 2SM BR FEW003
      TEMPO 2609/2613 3/4SM BR VV003
     FM261300 18008KT P6SM SCT012 SCT120=



000
FTUS44 KHGX 252324
TAFHOU
TAF
KHOU 252324Z 2600/2624 20007KT P6SM FEW035 SCT250
     FM260700 00000KT 5SM BR FEW009
      TEMPO 2609/2612 00000KT 4SM BR SCT004
     FM261400 VRB04KT P6SM SCT120
     FM261800 14007KT P6SM SCT025 BKN250=



000
FTUS44 KHGX 252324
TAFSGR
TAF
KSGR 252324Z 2600/2624 VRB05KT P6SM SKC
     FM260400 19006KT 6SM BR FEW012
     FM260700 00000KT 4SM BR FEW009
      TEMPO 2609/2612 2SM BR SCT004
     FM261400 VRB04KT P6SM SCT120
     FM261800 14007KT P6SM SCT025 BKN250=



000
FTUS44 KHGX 252324
TAFGLS
TAF
KGLS 252324Z 2600/2624 16011KT P6SM SKC
     FM260400 19007KT 6SM HZ SCT015
     FM261500 18007KT P6SM FEW012 SCT250
     FM261800 14009KT P6SM SCT025 SCT250=



000
FTUS44 KHGX 252324
TAFIAH
TAF
KIAH 252324Z 2600/2706 18008KT P6SM FEW040 SCT250
     FM260300 19003KT P6SM SKC
      TEMPO 2609/2612 00000KT 4SM BR SCT004
     FM261400 VRB04KT P6SM SCT120
     FM261800 16007KT P6SM SCT025 BKN250
     FM270300 14008KT P6SM SCT020=



000
FTUS44 KHGX 252324
TAFIAH
TAF
KIAH 252324Z 2600/2706 18008KT P6SM FEW040 SCT250
     FM260300 19003KT P6SM SKC
      TEMPO 2609/2612 00000KT 4SM BR SCT004
     FM261400 VRB04KT P6SM SCT120
     FM261800 16007KT P6SM SCT025 BKN250
     FM270300 14008KT P6SM SCT020=



000
FTUS44 KHGX 252324
TAFUTS
TAF
KUTS 252324Z 2600/2624 19009KT P6SM SKC
     FM260900 17005KT 5SM BR SKC
      TEMPO 2610/2613 2SM BR SCT003
     FM261300 18005KT P6SM SCT012
     FM261800 18007KT P6SM SCT030 BKN150=



000
FTUS44 KHGX 252324
TAFCXO
TAF
KCXO 252324Z 2600/2624 23006KT P6SM SKC
     FM260400 VRB02KT 5SM BR FEW005
     FM260700 00000KT 2SM BR FEW003
      TEMPO 2609/2613 3/4SM BR VV003
     FM261300 18008KT P6SM SCT012 SCT120=



000
FTUS44 KHGX 252324
TAFCLL
TAF
KCLL 252324Z 2600/2624 22006KT P6SM SKC
     FM260900 17005KT 5SM BR SKC
      TEMPO 2610/2613 2SM BR SCT003
     FM261300 18008KT P6SM SCT012
     FM261800 18007KT P6SM SCT030 BKN150=



000
FTUS44 KHGX 252324
TAFCLL
TAF
KCLL 252324Z 2600/2624 22006KT P6SM SKC
     FM260900 17005KT 5SM BR SKC
      TEMPO 2610/2613 2SM BR SCT003
     FM261300 18008KT P6SM SCT012
     FM261800 18007KT P6SM SCT030 BKN150=



000
FTUS44 KHGX 252324
TAFSGR
TAF
KSGR 252324Z 2600/2624 VRB05KT P6SM SKC
     FM260400 19006KT 6SM BR FEW012
     FM260700 00000KT 4SM BR FEW009
      TEMPO 2609/2612 2SM BR SCT004
     FM261400 VRB04KT P6SM SCT120
     FM261800 14007KT P6SM SCT025 BKN250=



000
FTUS44 KHGX 252324
TAFHOU
TAF
KHOU 252324Z 2600/2624 20007KT P6SM FEW035 SCT250
     FM260700 00000KT 5SM BR FEW009
      TEMPO 2609/2612 00000KT 4SM BR SCT004
     FM261400 VRB04KT P6SM SCT120
     FM261800 14007KT P6SM SCT025 BKN250=



000
FTUS44 KHGX 252324
TAFCXO
TAF
KCXO 252324Z 2600/2624 23006KT P6SM SKC
     FM260400 VRB02KT 5SM BR FEW005
     FM260700 00000KT 2SM BR FEW003
      TEMPO 2609/2613 3/4SM BR VV003
     FM261300 18008KT P6SM SCT012 SCT120=



000
FTUS44 KHGX 252324
TAFGLS
TAF
KGLS 252324Z 2600/2624 16011KT P6SM SKC
     FM260400 19007KT 6SM HZ SCT015
     FM261500 18007KT P6SM FEW012 SCT250
     FM261800 14009KT P6SM SCT025 SCT250=



000
FTUS44 KHGX 252324
TAFLBX
TAF
KLBX 252324Z 2600/2624 18009KT P6SM SKC
     FM260300 18003KT 6SM BR MIFG SCT015
     FM260600 00000KT 3SM BR SKC
      TEMPO 2609/2612 00000KT 1SM BR VV002
     FM261400 13004KT P6SM FEW120
     FM261800 14007KT P6SM SCT025 BKN250=



000
FTUS44 KHGX 252324
TAFUTS
TAF
KUTS 252324Z 2600/2624 19009KT P6SM SKC
     FM260900 17005KT 5SM BR SKC
      TEMPO 2610/2613 2SM BR SCT003
     FM261300 18005KT P6SM SCT012
     FM261800 18007KT P6SM SCT030 BKN150=



000
FTUS44 KHGX 252324
TAFGLS
TAF
KGLS 252324Z 2600/2624 16011KT P6SM SKC
     FM260400 19007KT 6SM HZ SCT015
     FM261500 18007KT P6SM FEW012 SCT250
     FM261800 14009KT P6SM SCT025 SCT250=



000
FTUS44 KHGX 252324
TAFIAH
TAF
KIAH 252324Z 2600/2706 18008KT P6SM FEW040 SCT250
     FM260300 19003KT P6SM SKC
      TEMPO 2609/2612 00000KT 4SM BR SCT004
     FM261400 VRB04KT P6SM SCT120
     FM261800 16007KT P6SM SCT025 BKN250
     FM270300 14008KT P6SM SCT020=



000
FTUS44 KHGX 252324
TAFLBX
TAF
KLBX 252324Z 2600/2624 18009KT P6SM SKC
     FM260300 18003KT 6SM BR MIFG SCT015
     FM260600 00000KT 3SM BR SKC
      TEMPO 2609/2612 00000KT 1SM BR VV002
     FM261400 13004KT P6SM FEW120
     FM261800 14007KT P6SM SCT025 BKN250=



000
FTUS44 KHGX 252324
TAFUTS
TAF
KUTS 252324Z 2600/2624 19009KT P6SM SKC
     FM260900 17005KT 5SM BR SKC
      TEMPO 2610/2613 2SM BR SCT003
     FM261300 18005KT P6SM SCT012
     FM261800 18007KT P6SM SCT030 BKN150=



000
FTUS44 KHGX 252324
TAFSGR
TAF
KSGR 252324Z 2600/2624 VRB05KT P6SM SKC
     FM260400 19006KT 6SM BR FEW012
     FM260700 00000KT 4SM BR FEW009
      TEMPO 2609/2612 2SM BR SCT004
     FM261400 VRB04KT P6SM SCT120
     FM261800 14007KT P6SM SCT025 BKN250=



000
FTUS44 KHGX 252324
TAFHOU
TAF
KHOU 252324Z 2600/2624 20007KT P6SM FEW035 SCT250
     FM260700 00000KT 5SM BR FEW009
      TEMPO 2609/2612 00000KT 4SM BR SCT004
     FM261400 VRB04KT P6SM SCT120
     FM261800 14007KT P6SM SCT025 BKN250=



000
FTUS44 KHGX 252324
TAFCLL
TAF
KCLL 252324Z 2600/2624 22006KT P6SM SKC
     FM260900 17005KT 5SM BR SKC
      TEMPO 2610/2613 2SM BR SCT003
     FM261300 18008KT P6SM SCT012
     FM261800 18007KT P6SM SCT030 BKN150=



000
FTUS44 KHGX 252324
TAFGLS
TAF
KGLS 252324Z 2600/2624 16011KT P6SM SKC
     FM260400 19007KT 6SM HZ SCT015
     FM261500 18007KT P6SM FEW012 SCT250
     FM261800 14009KT P6SM SCT025 SCT250=



000
FTUS44 KHGX 252324
TAFHOU
TAF
KHOU 252324Z 2600/2624 20007KT P6SM FEW035 SCT250
     FM260700 00000KT 5SM BR FEW009
      TEMPO 2609/2612 00000KT 4SM BR SCT004
     FM261400 VRB04KT P6SM SCT120
     FM261800 14007KT P6SM SCT025 BKN250=



000
FTUS44 KHGX 252324
TAFUTS
TAF
KUTS 252324Z 2600/2624 19009KT P6SM SKC
     FM260900 17005KT 5SM BR SKC
      TEMPO 2610/2613 2SM BR SCT003
     FM261300 18005KT P6SM SCT012
     FM261800 18007KT P6SM SCT030 BKN150=



000
FTUS44 KHGX 252324
TAFSGR
TAF
KSGR 252324Z 2600/2624 VRB05KT P6SM SKC
     FM260400 19006KT 6SM BR FEW012
     FM260700 00000KT 4SM BR FEW009
      TEMPO 2609/2612 2SM BR SCT004
     FM261400 VRB04KT P6SM SCT120
     FM261800 14007KT P6SM SCT025 BKN250=



000
FTUS44 KHGX 252324
TAFIAH
TAF
KIAH 252324Z 2600/2706 18008KT P6SM FEW040 SCT250
     FM260300 19003KT P6SM SKC
      TEMPO 2609/2612 00000KT 4SM BR SCT004
     FM261400 VRB04KT P6SM SCT120
     FM261800 16007KT P6SM SCT025 BKN250
     FM270300 14008KT P6SM SCT020=



000
FTUS44 KHGX 252324
TAFLBX
TAF
KLBX 252324Z 2600/2624 18009KT P6SM SKC
     FM260300 18003KT 6SM BR MIFG SCT015
     FM260600 00000KT 3SM BR SKC
      TEMPO 2609/2612 00000KT 1SM BR VV002
     FM261400 13004KT P6SM FEW120
     FM261800 14007KT P6SM SCT025 BKN250=



000
FTUS44 KHGX 252324
TAFCXO
TAF
KCXO 252324Z 2600/2624 23006KT P6SM SKC
     FM260400 VRB02KT 5SM BR FEW005
     FM260700 00000KT 2SM BR FEW003
      TEMPO 2609/2613 3/4SM BR VV003
     FM261300 18008KT P6SM SCT012 SCT120=



000
FTUS44 KHGX 252324
TAFCLL
TAF
KCLL 252324Z 2600/2624 22006KT P6SM SKC
     FM260900 17005KT 5SM BR SKC
      TEMPO 2610/2613 2SM BR SCT003
     FM261300 18008KT P6SM SCT012
     FM261800 18007KT P6SM SCT030 BKN150=



000
FTUS44 KHGX 252036 AAA
TAFGLS
TAF AMD
KGLS 252036Z 2521/2618 15013KT P6SM FEW250
     FM260400 19007KT 6SM HZ SCT015
      TEMPO 2609/2613 4SM BR
     FM261500 18007KT P6SM FEW012 SCT250=



000
FTUS44 KHGX 252036 AAA
TAFCLL
TAF AMD
KCLL 252036Z 2521/2618 26007KT P6SM SKC
     FM260600 17005KT 5SM BR SKC
      TEMPO 2609/2613 2SM BR SCT003
     FM261300 18008KT P6SM SCT012=



000
FTUS44 KHGX 252036 AAA
TAFSGR
TAF AMD
KSGR 252036Z 2521/2618 18008KT P6SM SKC
     FM260300 18006KT 6SM BR MIFG SCT010
     FM260700 00000KT 4SM BR SKC
      TEMPO 2609/2612 00000KT 2SM BR FEW003
     FM261400 13004KT P6SM FEW120=



000
FTUS44 KHGX 252036 AAA
TAFHOU
TAF AMD
KHOU 252036Z 2521/2618 17010KT P6SM FEW020 SCT100 SCT250
     FM260400 19006KT P6SM MIFG FEW012
     FM260700 00000KT 5SM BR SKC
      TEMPO 2609/2612 00000KT 4SM BR SCT004
     FM261400 13004KT P6SM FEW120=



000
FTUS44 KHGX 252036 AAA
TAFLBX
TAF AMD
KLBX 252036Z 2521/2618 14009KT P6SM FEW030 SCT250
     FM260300 18003KT 6SM BR MIFG SCT015
     FM260600 00000KT 3SM BR SKC
      TEMPO 2609/2612 00000KT 1SM BR VV002
     FM261400 13004KT P6SM FEW120=



000
FTUS44 KHGX 252036 AAA
TAFUTS
TAF AMD
KUTS 252036Z 2521/2618 23006KT P6SM SKC
     FM260900 VRB03KT 6SM BR SKC
      TEMPO 2609/2613 2SM BR SCT003
     FM261300 17005KT P6SM FEW015=



000
FTUS44 KHGX 252036 AAA
TAFIAH
TAF AMD
KIAH 252036Z 2521/2624 23007KT P6SM FEW040 SCT250
     FM260300 19003KT P6SM MIFG SKC
      TEMPO 2609/2612 00000KT 4SM BR SCT004
     FM261400 11004KT P6SM FEW120=



000
FTUS44 KHGX 252036 AAA
TAFCXO
TAF AMD
KCXO 252036Z 2521/2618 24008KT P6SM SKC
     FM260400 VRB02KT 5SM BR FEW005
     FM260700 00000KT 2SM BR FEW003
      TEMPO 2609/2613 3/4SM BR VV003
     FM261300 18008KT P6SM SCT012 SCT120=



000
FTUS44 KHGX 252036 AAA
TAFCXO
TAF AMD
KCXO 252036Z 2521/2618 24008KT P6SM SKC
     FM260400 VRB02KT 5SM BR FEW005
     FM260700 00000KT 2SM BR FEW003
      TEMPO 2609/2613 3/4SM BR VV003
     FM261300 18008KT P6SM SCT012 SCT120=



000
FTUS44 KHGX 252036 AAA
TAFGLS
TAF AMD
KGLS 252036Z 2521/2618 15013KT P6SM FEW250
     FM260400 19007KT 6SM HZ SCT015
      TEMPO 2609/2613 4SM BR
     FM261500 18007KT P6SM FEW012 SCT250=



000
FTUS44 KHGX 252036 AAA
TAFSGR
TAF AMD
KSGR 252036Z 2521/2618 18008KT P6SM SKC
     FM260300 18006KT 6SM BR MIFG SCT010
     FM260700 00000KT 4SM BR SKC
      TEMPO 2609/2612 00000KT 2SM BR FEW003
     FM261400 13004KT P6SM FEW120=



000
FTUS44 KHGX 252036 AAA
TAFLBX
TAF AMD
KLBX 252036Z 2521/2618 14009KT P6SM FEW030 SCT250
     FM260300 18003KT 6SM BR MIFG SCT015
     FM260600 00000KT 3SM BR SKC
      TEMPO 2609/2612 00000KT 1SM BR VV002
     FM261400 13004KT P6SM FEW120=



000
FTUS44 KHGX 252036 AAA
TAFIAH
TAF AMD
KIAH 252036Z 2521/2624 23007KT P6SM FEW040 SCT250
     FM260300 19003KT P6SM MIFG SKC
      TEMPO 2609/2612 00000KT 4SM BR SCT004
     FM261400 11004KT P6SM FEW120=



000
FTUS44 KHGX 252036 AAA
TAFCLL
TAF AMD
KCLL 252036Z 2521/2618 26007KT P6SM SKC
     FM260600 17005KT 5SM BR SKC
      TEMPO 2609/2613 2SM BR SCT003
     FM261300 18008KT P6SM SCT012=



000
FTUS44 KHGX 252036 AAA
TAFHOU
TAF AMD
KHOU 252036Z 2521/2618 17010KT P6SM FEW020 SCT100 SCT250
     FM260400 19006KT P6SM MIFG FEW012
     FM260700 00000KT 5SM BR SKC
      TEMPO 2609/2612 00000KT 4SM BR SCT004
     FM261400 13004KT P6SM FEW120=



000
FTUS44 KHGX 252036 AAA
TAFUTS
TAF AMD
KUTS 252036Z 2521/2618 23006KT P6SM SKC
     FM260900 VRB03KT 6SM BR SKC
      TEMPO 2609/2613 2SM BR SCT003
     FM261300 17005KT P6SM FEW015=



000
FTUS44 KHGX 251752
TAFGLS
TAF
KGLS 251752Z 2518/2618 VRB10KT P6SM VCTS FEW050CB BKN110
     FM251900 17007KT P6SM FEW110 SCT250
     FM260400 19007KT 6SM HZ SCT015
      TEMPO 2609/2613 4SM BR
     FM261500 18007KT P6SM FEW012 SCT250=



000
FTUS44 KHGX 251752
TAFGLS
TAF
KGLS 251752Z 2518/2618 VRB10KT P6SM VCTS FEW050CB BKN110
     FM251900 17007KT P6SM FEW110 SCT250
     FM260400 19007KT 6SM HZ SCT015
      TEMPO 2609/2613 4SM BR
     FM261500 18007KT P6SM FEW012 SCT250=



000
FTUS44 KHGX 251743
TAFGLS
TAF
KGLS 251743Z 2518/2618 VRB10KT P6SM VCSH FEW050 BKN110
     FM251900 17007KT P6SM FEW110 SCT250
     FM260400 19007KT 6SM HZ SCT015
      TEMPO 2609/2613 4SM BR
     FM261500 18007KT P6SM FEW012 SCT250=



000
FTUS44 KHGX 251743
TAFGLS
TAF
KGLS 251743Z 2518/2618 VRB10KT P6SM VCSH FEW050 BKN110
     FM251900 17007KT P6SM FEW110 SCT250
     FM260400 19007KT 6SM HZ SCT015
      TEMPO 2609/2613 4SM BR
     FM261500 18007KT P6SM FEW012 SCT250=



000
FTUS44 KHGX 251731
TAFGLS
TAF
KGLS 251731Z 2518/2618 17011KT P6SM FEW050
     FM260400 19007KT 6SM HZ SCT015
      TEMPO 2609/2613 4SM BR
     FM261500 18007KT P6SM FEW012 SCT250=



000
FTUS44 KHGX 251731
TAFSGR
TAF
KSGR 251731Z 2518/2618 23007KT P6SM FEW050 SCT250
     FM260300 18006KT 6SM BR MIFG SCT010
     FM260700 00000KT 4SM BR SKC
      TEMPO 2609/2612 00000KT 2SM BR FEW003
     FM261400 13004KT P6SM FEW120=



000
FTUS44 KHGX 251731
TAFIAH
TAF
KIAH 251731Z 2518/2624 20006KT P6SM FEW050 SCT250
     FM260300 19003KT P6SM MIFG SKC
      TEMPO 2609/2612 00000KT 4SM BR SCT004
     FM261400 11004KT P6SM FEW120=



000
FTUS44 KHGX 251731
TAFCXO
TAF
KCXO 251731Z 2518/2618 22006KT P6SM FEW250
     FM260400 VRB02KT 5SM BR FEW005
     FM260700 00000KT 2SM BR FEW003
      TEMPO 2609/2613 3/4SM BR VV003
     FM261300 18008KT P6SM SCT012 SCT120=



000
FTUS44 KHGX 251731
TAFUTS
TAF
KUTS 251731Z 2518/2618 24005KT P6SM SCT250
     FM260900 VRB03KT 6SM BR SKC
      TEMPO 2609/2613 2SM BR SCT003
     FM261300 17005KT P6SM FEW015=



000
FTUS44 KHGX 251731
TAFCLL
TAF
KCLL 251731Z 2518/2618 23006KT P6SM FEW250
     FM260600 17005KT 5SM BR SKC
      TEMPO 2609/2613 2SM BR SCT003
     FM261300 18008KT P6SM SCT012=



000
FTUS44 KHGX 251731
TAFIAH
TAF
KIAH 251731Z 2518/2624 20006KT P6SM FEW050 SCT250
     FM260300 19003KT P6SM MIFG SKC
      TEMPO 2609/2612 00000KT 4SM BR SCT004
     FM261400 11004KT P6SM FEW120=



000
FTUS44 KHGX 251731
TAFLBX
TAF
KLBX 251731Z 2518/2618 VRB08KT P6SM VCSH SCT030 BKN250
     FM251900 19006KT P6SM FEW030 SCT250
     FM260300 18003KT 6SM BR MIFG SCT015
     FM260600 00000KT 3SM BR SKC
      TEMPO 2609/2612 00000KT 1SM BR VV002
     FM261400 13004KT P6SM FEW120=



000
FTUS44 KHGX 251731
TAFHOU
TAF
KHOU 251731Z 2518/2618 26007KT P6SM SCT035
     FM260400 19006KT P6SM MIFG FEW012
     FM260700 00000KT 5SM BR SKC
      TEMPO 2609/2612 00000KT 4SM BR SCT004
     FM261400 13004KT P6SM FEW120=



000
FTUS44 KHGX 251731
TAFGLS
TAF
KGLS 251731Z 2518/2618 17011KT P6SM FEW050
     FM260400 19007KT 6SM HZ SCT015
      TEMPO 2609/2613 4SM BR
     FM261500 18007KT P6SM FEW012 SCT250=



000
FTUS44 KHGX 251731
TAFCLL
TAF
KCLL 251731Z 2518/2618 23006KT P6SM FEW250
     FM260600 17005KT 5SM BR SKC
      TEMPO 2609/2613 2SM BR SCT003
     FM261300 18008KT P6SM SCT012=



000
FTUS44 KHGX 251731
TAFHOU
TAF
KHOU 251731Z 2518/2618 26007KT P6SM SCT035
     FM260400 19006KT P6SM MIFG FEW012
     FM260700 00000KT 5SM BR SKC
      TEMPO 2609/2612 00000KT 4SM BR SCT004
     FM261400 13004KT P6SM FEW120=



000
FTUS44 KHGX 251731
TAFSGR
TAF
KSGR 251731Z 2518/2618 23007KT P6SM FEW050 SCT250
     FM260300 18006KT 6SM BR MIFG SCT010
     FM260700 00000KT 4SM BR SKC
      TEMPO 2609/2612 00000KT 2SM BR FEW003
     FM261400 13004KT P6SM FEW120=



000
FTUS44 KHGX 251731
TAFUTS
TAF
KUTS 251731Z 2518/2618 24005KT P6SM SCT250
     FM260900 VRB03KT 6SM BR SKC
      TEMPO 2609/2613 2SM BR SCT003
     FM261300 17005KT P6SM FEW015=



000
FTUS44 KHGX 251731
TAFCXO
TAF
KCXO 251731Z 2518/2618 22006KT P6SM FEW250
     FM260400 VRB02KT 5SM BR FEW005
     FM260700 00000KT 2SM BR FEW003
      TEMPO 2609/2613 3/4SM BR VV003
     FM261300 18008KT P6SM SCT012 SCT120=



000
FTUS44 KHGX 251731
TAFLBX
TAF
KLBX 251731Z 2518/2618 VRB08KT P6SM VCSH SCT030 BKN250
     FM251900 19006KT P6SM FEW030 SCT250
     FM260300 18003KT 6SM BR MIFG SCT015
     FM260600 00000KT 3SM BR SKC
      TEMPO 2609/2612 00000KT 1SM BR VV002
     FM261400 13004KT P6SM FEW120=



000
FTUS44 KHGX 251608 AAB
TAFCLL
TAF AMD
KCLL 251608Z 2516/2612 23006KT P6SM FEW250
     FM260600 17005KT 5SM BR SKC=



000
FTUS44 KHGX 251608 AAB
TAFCLL
TAF AMD
KCLL 251608Z 2516/2612 23006KT P6SM FEW250
     FM260600 17005KT 5SM BR SKC=



000
FTUS44 KHGX 251607 AAB
TAFUTS
TAF AMD
KUTS 251607Z 2516/2612 22010KT P6SM SCT250
     FM251800 24005KT P6SM SCT250
     FM260900 VRB03KT 6SM BR SKC=



000
FTUS44 KHGX 251607 AAB
TAFUTS
TAF AMD
KUTS 251607Z 2516/2612 22010KT P6SM SCT250
     FM251800 24005KT P6SM SCT250
     FM260900 VRB03KT 6SM BR SKC=



000
FTUS44 KHGX 251605 AAC
TAFCXO
TAF AMD
KCXO 251605Z 2516/2612 23006KT P6SM BKN250
     FM251800 22006KT P6SM FEW250
     FM260400 VRB02KT 5SM BR FEW005=



000
FTUS44 KHGX 251605 AAC
TAFCXO
TAF AMD
KCXO 251605Z 2516/2612 23006KT P6SM BKN250
     FM251800 22006KT P6SM FEW250
     FM260400 VRB02KT 5SM BR FEW005=



000
FTUS44 KHGX 251605 AAC
TAFCXO
TAF AMD
KCXO 251605Z 2516/2612 23006KT P6SM BKN250
     FM251800 22006KT P6SM FEW250
     FM260400 VRB02KT 5SM BR FEW005=



000
FTUS44 KHGX 251605 AAC
TAFCXO
TAF AMD
KCXO 251605Z 2516/2612 23006KT P6SM BKN250
     FM251800 22006KT P6SM FEW250
     FM260400 VRB02KT 5SM BR FEW005=



000
FTUS44 KHGX 251556 AAC
TAFIAH
TAF AMD
KIAH 251556Z 2516/2618 VRB06KT P6SM RA VCTS SCT060CB BKN110
     FM251615 VRB04KT P6SM VCSH FEW040 BKN120 OVC250
     FM251700 20006KT P6SM FEW050 SCT250
     FM260300 19004KT 6SM BR MIFG FEW010
     FM261500 09004KT P6SM SCT120=



000
FTUS44 KHGX 251556 AAC
TAFIAH
TAF AMD
KIAH 251556Z 2516/2618 VRB06KT P6SM RA VCTS SCT060CB BKN110
     FM251615 VRB04KT P6SM VCSH FEW040 BKN120 OVC250
     FM251700 20006KT P6SM FEW050 SCT250
     FM260300 19004KT 6SM BR MIFG FEW010
     FM261500 09004KT P6SM SCT120=



000
FTUS44 KHGX 251556 AAC
TAFIAH
TAF AMD
KIAH 251556Z 2516/2618 VRB06KT P6SM RA VCTS SCT060CB BKN110
     FM251615 VRB04KT P6SM VCSH FEW040 BKN120 OVC250
     FM251700 20006KT P6SM FEW050 SCT250
     FM260300 19004KT 6SM BR MIFG FEW010
     FM261500 09004KT P6SM SCT120=



000
FTUS44 KHGX 251556 AAC
TAFIAH
TAF AMD
KIAH 251556Z 2516/2618 VRB06KT P6SM RA VCTS SCT060CB BKN110
     FM251615 VRB04KT P6SM VCSH FEW040 BKN120 OVC250
     FM251700 20006KT P6SM FEW050 SCT250
     FM260300 19004KT 6SM BR MIFG FEW010
     FM261500 09004KT P6SM SCT120=



000
FTUS44 KHGX 251554 AAD
TAFSGR
TAF AMD
KSGR 251554Z 2516/2612 16009KT P6SM FEW040 BKN100
     FM251700 23007KT P6SM FEW050 SCT250
     FM260300 18006KT 6SM BR MIFG SCT010=



000
FTUS44 KHGX 251554 AAD
TAFSGR
TAF AMD
KSGR 251554Z 2516/2612 16009KT P6SM FEW040 BKN100
     FM251700 23007KT P6SM FEW050 SCT250
     FM260300 18006KT 6SM BR MIFG SCT010=



000
FTUS44 KHGX 251545 AAD
TAFLBX
TAF AMD
KLBX 251545Z 2516/2612 01012KT P6SM VCTS SCT020 BKN100CB
      TEMPO 2516/2518 VRB08G22KT 5SM -TSRA BR BKN025CB
     FM251800 VRB08KT P6SM VCSH SCT030 BKN250
     FM251900 19006KT P6SM FEW030 SCT250
     FM260300 18003KT 6SM BR MIFG SCT015=



000
FTUS44 KHGX 251545 AAD
TAFLBX
TAF AMD
KLBX 251545Z 2516/2612 01012KT P6SM VCTS SCT020 BKN100CB
      TEMPO 2516/2518 VRB08G22KT 5SM -TSRA BR BKN025CB
     FM251800 VRB08KT P6SM VCSH SCT030 BKN250
     FM251900 19006KT P6SM FEW030 SCT250
     FM260300 18003KT 6SM BR MIFG SCT015=



000
FTUS44 KHGX 251446 AAB
TAFCXO
TAF AMD
KCXO 251446Z 2515/2612 20003KT P6SM VCSH FEW090 BKN110
      TEMPO 2515/2517 5SM -SHRA BKN040
     FM251800 22006KT P6SM SCT035 SCT250
     FM260400 VRB02KT 5SM BR FEW005=



000
FTUS44 KHGX 251446 AAB
TAFCXO
TAF AMD
KCXO 251446Z 2515/2612 20003KT P6SM VCSH FEW090 BKN110
      TEMPO 2515/2517 5SM -SHRA BKN040
     FM251800 22006KT P6SM SCT035 SCT250
     FM260400 VRB02KT 5SM BR FEW005=



000
FTUS44 KHGX 251441 AAB
TAFIAH
TAF AMD
KIAH 251441Z 2515/2618 VRB03KT P6SM RA VCTS SCT060CB BKN110
      TEMPO 2515/2517 -TSRA BKN040CB
     FM251700 VRB04KT P6SM VCSH FEW025 SCT150 OVC250
     FM252000 21007KT P6SM FEW050
     FM260300 19004KT 6SM BR MIFG FEW010
     FM261500 09004KT P6SM SCT120=



000
FTUS44 KHGX 251441 AAB
TAFIAH
TAF AMD
KIAH 251441Z 2515/2618 VRB03KT P6SM RA VCTS SCT060CB BKN110
      TEMPO 2515/2517 -TSRA BKN040CB
     FM251700 VRB04KT P6SM VCSH FEW025 SCT150 OVC250
     FM252000 21007KT P6SM FEW050
     FM260300 19004KT 6SM BR MIFG FEW010
     FM261500 09004KT P6SM SCT120=



000
FTUS44 KHGX 251441 AAB
TAFIAH
TAF AMD
KIAH 251441Z 2515/2618 VRB03KT P6SM RA VCTS SCT060CB BKN110
      TEMPO 2515/2517 -TSRA BKN040CB
     FM251700 VRB04KT P6SM VCSH FEW025 SCT150 OVC250
     FM252000 21007KT P6SM FEW050
     FM260300 19004KT 6SM BR MIFG FEW010
     FM261500 09004KT P6SM SCT120=



000
FTUS44 KHGX 251441 AAB
TAFIAH
TAF AMD
KIAH 251441Z 2515/2618 VRB03KT P6SM RA VCTS SCT060CB BKN110
      TEMPO 2515/2517 -TSRA BKN040CB
     FM251700 VRB04KT P6SM VCSH FEW025 SCT150 OVC250
     FM252000 21007KT P6SM FEW050
     FM260300 19004KT 6SM BR MIFG FEW010
     FM261500 09004KT P6SM SCT120=



000
FTUS44 KHGX 251439 AAB
TAFHOU
TAF AMD
KHOU 251439Z 2515/2612 00000KT P6SM -RA VCTS BKN060CB BKN120
      TEMPO 2515/2517 VRB05G20KT 4SM -TSRA OVC045CB
     FM251700 20007KT P6SM VCSH SCT025 SCT250
     FM251800 26007KT P6SM SCT035
     FM260400 19006KT 6SM BR MIFG FEW012=



000
FTUS44 KHGX 251439 AAB
TAFHOU
TAF AMD
KHOU 251439Z 2515/2612 00000KT P6SM -RA VCTS BKN060CB BKN120
      TEMPO 2515/2517 VRB05G20KT 4SM -TSRA OVC045CB
     FM251700 20007KT P6SM VCSH SCT025 SCT250
     FM251800 26007KT P6SM SCT035
     FM260400 19006KT 6SM BR MIFG FEW012=



000
FTUS44 KHGX 251437 AAC
TAFSGR
TAF AMD
KSGR 251437Z 2515/2612 00000KT P6SM VCTS FEW060CB BKN100 BKN120
      TEMPO 2515/2517 VRB05G20KT 3SM TSRA BKN035CB
     FM251700 23007KT P6SM SCT050 SCT250
     FM260300 18006KT 6SM BR MIFG SCT010=



000
FTUS44 KHGX 251437 AAC
TAFSGR
TAF AMD
KSGR 251437Z 2515/2612 00000KT P6SM VCTS FEW060CB BKN100 BKN120
      TEMPO 2515/2517 VRB05G20KT 3SM TSRA BKN035CB
     FM251700 23007KT P6SM SCT050 SCT250
     FM260300 18006KT 6SM BR MIFG SCT010=



000
FTUS44 KHGX 251416 AAC
TAFGLS
TAF AMD
KGLS 251416Z 2514/2612 34010KT 6SM -TSRA BR FEW007 SCT021 OVC035CB
      TEMPO 2514/2516 VRB35KT 2SM +TSRA BR BKN012CB
     FM251700 17011KT P6SM FEW050
     FM260400 20007KT 6SM BR SCT015=



000
FTUS44 KHGX 251416 AAC
TAFGLS
TAF AMD
KGLS 251416Z 2514/2612 34010KT 6SM -TSRA BR FEW007 SCT021 OVC035CB
      TEMPO 2514/2516 VRB35KT 2SM +TSRA BR BKN012CB
     FM251700 17011KT P6SM FEW050
     FM260400 20007KT 6SM BR SCT015=



000
FTUS44 KHGX 251416 AAC
TAFGLS
TAF AMD
KGLS 251416Z 2514/2612 34010KT 6SM -TSRA BR FEW007 SCT021 OVC035CB
      TEMPO 2514/2516 VRB35KT 2SM +TSRA BR BKN012CB
     FM251700 17011KT P6SM FEW050
     FM260400 20007KT 6SM BR SCT015=



000
FTUS44 KHGX 251416 AAC
TAFGLS
TAF AMD
KGLS 251416Z 2514/2612 34010KT 6SM -TSRA BR FEW007 SCT021 OVC035CB
      TEMPO 2514/2516 VRB35KT 2SM +TSRA BR BKN012CB
     FM251700 17011KT P6SM FEW050
     FM260400 20007KT 6SM BR SCT015=



000
FTUS44 KHGX 251415 AAC
TAFLBX
TAF AMD
KLBX 251415Z 2514/2612 01012KT P6SM VCTS SCT020 BKN100CB
      TEMPO 2514/2516 5SM -TSRA BR BKN025CB
     FM251700 18008KT P6SM SCT250
     FM260300 18003KT 6SM BR MIFG SCT015=



000
FTUS44 KHGX 251415 AAC
TAFLBX
TAF AMD
KLBX 251415Z 2514/2612 01012KT P6SM VCTS SCT020 BKN100CB
      TEMPO 2514/2516 5SM -TSRA BR BKN025CB
     FM251700 18008KT P6SM SCT250
     FM260300 18003KT 6SM BR MIFG SCT015=



000
FTUS44 KHGX 251414 AAB
TAFSGR
TAF AMD
KSGR 251414Z 2514/2612 VRB03KT P6SM VCTS FEW060CB BKN100 BKN120
      TEMPO 2514/2516 -TSRA BKN045CB
     FM251700 23007KT P6SM SCT050 SCT250
     FM260300 18006KT 6SM BR MIFG SCT010=



000
FTUS44 KHGX 251414 AAB
TAFSGR
TAF AMD
KSGR 251414Z 2514/2612 VRB03KT P6SM VCTS FEW060CB BKN100 BKN120
      TEMPO 2514/2516 -TSRA BKN045CB
     FM251700 23007KT P6SM SCT050 SCT250
     FM260300 18006KT 6SM BR MIFG SCT010=



000
FTUS44 KHGX 251413 AAA
TAFHOU
TAF AMD
KHOU 251413Z 2514/2612 00000KT P6SM VCTS SCT045CB BKN100
      TEMPO 2514/2516 5SM -TSRA OVC045CB
     FM251600 20007KT P6SM VCSH SCT025 SCT250
     FM251800 26007KT P6SM SCT035
     FM260400 19006KT 6SM BR MIFG FEW012=



000
FTUS44 KHGX 251413 AAA
TAFHOU
TAF AMD
KHOU 251413Z 2514/2612 00000KT P6SM VCTS SCT045CB BKN100
      TEMPO 2514/2516 5SM -TSRA OVC045CB
     FM251600 20007KT P6SM VCSH SCT025 SCT250
     FM251800 26007KT P6SM SCT035
     FM260400 19006KT 6SM BR MIFG FEW012=



000
FTUS44 KHGX 251412 AAA
TAFIAH
TAF AMD
KIAH 251412Z 2514/2618 VRB03KT P6SM RA VCTS SCT060CB BKN110
      TEMPO 2514/2515 -TSRA BKN040CB
     FM251600 19007KT P6SM VCSH FEW025 SCT150
     FM251800 21007KT P6SM FEW050
     FM260300 19004KT 6SM BR MIFG FEW010
     FM261500 09004KT P6SM SCT120=



000
FTUS44 KHGX 251412 AAA
TAFIAH
TAF AMD
KIAH 251412Z 2514/2618 VRB03KT P6SM RA VCTS SCT060CB BKN110
      TEMPO 2514/2515 -TSRA BKN040CB
     FM251600 19007KT P6SM VCSH FEW025 SCT150
     FM251800 21007KT P6SM FEW050
     FM260300 19004KT 6SM BR MIFG FEW010
     FM261500 09004KT P6SM SCT120=



000
FTUS44 KHGX 251411 AAA
TAFCXO
TAF AMD
KCXO 251411Z 2514/2612 20003KT 4SM BR VCSH FEW090 BKN110
      TEMPO 2514/2515 3SM -TSRA BKN040CB
     FM251800 22006KT P6SM SCT035 SCT250
     FM260400 VRB02KT 5SM BR FEW005=



000
FTUS44 KHGX 251411 AAA
TAFCXO
TAF AMD
KCXO 251411Z 2514/2612 20003KT 4SM BR VCSH FEW090 BKN110
      TEMPO 2514/2515 3SM -TSRA BKN040CB
     FM251800 22006KT P6SM SCT035 SCT250
     FM260400 VRB02KT 5SM BR FEW005=



000
FTUS44 KHGX 251410 AAA
TAFUTS
TAF AMD
KUTS 251410Z 2514/2612 16007KT P6SM -RA BKN110
     FM251600 23006KT P6SM VCSH SCT050 BKN250
     FM251800 24005KT P6SM SCT250
     FM260900 VRB03KT 6SM BR SKC=



000
FTUS44 KHGX 251410 AAA
TAFUTS
TAF AMD
KUTS 251410Z 2514/2612 16007KT P6SM -RA BKN110
     FM251600 23006KT P6SM VCSH SCT050 BKN250
     FM251800 24005KT P6SM SCT250
     FM260900 VRB03KT 6SM BR SKC=



000
FTUS44 KHGX 251341 AAB
TAFGLS
TAF AMD
KGLS 251341Z 2514/2612 VRB05KT 4SM -TSRA BR FEW008 BKN017CB
      TEMPO 2514/2516 VRB35KT 3SM TSRA BR BKN012CB
     FM251700 17011KT P6SM FEW050
     FM260400 20007KT 6SM BR SCT015=



000
FTUS44 KHGX 251341 AAB
TAFGLS
TAF AMD
KGLS 251341Z 2514/2612 VRB05KT 4SM -TSRA BR FEW008 BKN017CB
      TEMPO 2514/2516 VRB35KT 3SM TSRA BR BKN012CB
     FM251700 17011KT P6SM FEW050
     FM260400 20007KT 6SM BR SCT015=



000
FTUS44 KHGX 251333 AAA
TAFCLL
TAF AMD
KCLL 251333Z 2514/2612 20006KT P6SM VCSH FEW050 BKN250
     FM251600 24007KT P6SM SCT050
     FM260600 17005KT 5SM BR SKC=



000
FTUS44 KHGX 251333 AAA
TAFCLL
TAF AMD
KCLL 251333Z 2514/2612 20006KT P6SM VCSH FEW050 BKN250
     FM251600 24007KT P6SM SCT050
     FM260600 17005KT 5SM BR SKC=



000
FTUS44 KHGX 251333 AAA
TAFCLL
TAF AMD
KCLL 251333Z 2514/2612 20006KT P6SM VCSH FEW050 BKN250
     FM251600 24007KT P6SM SCT050
     FM260600 17005KT 5SM BR SKC=



000
FTUS44 KHGX 251250 AAB
TAFLBX
TAF AMD
KLBX 251250Z 2513/2612 VRB04KT P6SM VCTS SCT020 BKN100CB
      TEMPO 2513/2515 VRB25KT 3SM TSRA BR BKN018CB
     FM251700 18008KT P6SM SCT250
     FM260300 18003KT 6SM BR MIFG SCT015=



000
FTUS44 KHGX 251250 AAB
TAFLBX
TAF AMD
KLBX 251250Z 2513/2612 VRB04KT P6SM VCTS SCT020 BKN100CB
      TEMPO 2513/2515 VRB25KT 3SM TSRA BR BKN018CB
     FM251700 18008KT P6SM SCT250
     FM260300 18003KT 6SM BR MIFG SCT015=



000
FTUS44 KHGX 251250 AAB
TAFLBX
TAF AMD
KLBX 251250Z 2513/2612 VRB04KT P6SM VCTS SCT020 BKN100CB
      TEMPO 2513/2515 VRB25KT 3SM TSRA BR BKN018CB
     FM251700 18008KT P6SM SCT250
     FM260300 18003KT 6SM BR MIFG SCT015=



000
FTUS44 KHGX 251250 AAB
TAFLBX
TAF AMD
KLBX 251250Z 2513/2612 VRB04KT P6SM VCTS SCT020 BKN100CB
      TEMPO 2513/2515 VRB25KT 3SM TSRA BR BKN018CB
     FM251700 18008KT P6SM SCT250
     FM260300 18003KT 6SM BR MIFG SCT015=



000
FTUS44 KHGX 251249 AAA
TAFGLS
TAF AMD
KGLS 251249Z 2513/2612 33007KT 4SM BR VCTS BKN015CB
      TEMPO 2513/2517 -TSRA BKN025CB
     FM251700 17011KT P6SM FEW050
     FM260400 20007KT 6SM BR SCT015=



000
FTUS44 KHGX 251249 AAA
TAFGLS
TAF AMD
KGLS 251249Z 2513/2612 33007KT 4SM BR VCTS BKN015CB
      TEMPO 2513/2517 -TSRA BKN025CB
     FM251700 17011KT P6SM FEW050
     FM260400 20007KT 6SM BR SCT015=



000
FTUS44 KHGX 251249 AAA
TAFGLS
TAF AMD
KGLS 251249Z 2513/2612 33007KT 4SM BR VCTS BKN015CB
      TEMPO 2513/2517 -TSRA BKN025CB
     FM251700 17011KT P6SM FEW050
     FM260400 20007KT 6SM BR SCT015=



000
FTUS44 KHGX 251236 AAA
TAFSGR
TAF AMD
KSGR 251236Z 2513/2612 36006KT 6SM -TSRA BR FEW020 BKN120CB
      TEMPO 2513/2514 VRB25KT 3SM TSRA BR BKN020CB
     FM251700 23007KT P6SM SCT050 SCT250
     FM260300 18006KT 6SM BR MIFG SCT010=



000
FTUS44 KHGX 251236 AAA
TAFSGR
TAF AMD
KSGR 251236Z 2513/2612 36006KT 6SM -TSRA BR FEW020 BKN120CB
      TEMPO 2513/2514 VRB25KT 3SM TSRA BR BKN020CB
     FM251700 23007KT P6SM SCT050 SCT250
     FM260300 18006KT 6SM BR MIFG SCT010=



000
FTUS44 KHGX 251214 AAA
TAFLBX
TAF AMD
KLBX 251214Z 2512/2612 VRB05KT P6SM VCTS SCT050CB BKN250
      TEMPO 2513/2517 -TSRA BKN025CB
     FM251800 18008KT P6SM SCT250
     FM260300 18003KT 6SM BR MIFG SCT015=



000
FTUS44 KHGX 251214 AAA
TAFLBX
TAF AMD
KLBX 251214Z 2512/2612 VRB05KT P6SM VCTS SCT050CB BKN250
      TEMPO 2513/2517 -TSRA BKN025CB
     FM251800 18008KT P6SM SCT250
     FM260300 18003KT 6SM BR MIFG SCT015=



000
FTUS44 KHGX 251214 AAA
TAFLBX
TAF AMD
KLBX 251214Z 2512/2612 VRB05KT P6SM VCTS SCT050CB BKN250
      TEMPO 2513/2517 -TSRA BKN025CB
     FM251800 18008KT P6SM SCT250
     FM260300 18003KT 6SM BR MIFG SCT015=



000
FTUS44 KHGX 251214 AAA
TAFLBX
TAF AMD
KLBX 251214Z 2512/2612 VRB05KT P6SM VCTS SCT050CB BKN250
      TEMPO 2513/2517 -TSRA BKN025CB
     FM251800 18008KT P6SM SCT250
     FM260300 18003KT 6SM BR MIFG SCT015=



000
FTUS44 KHGX 251201 CCA
TAFIAH
TAF COR
KIAH 251201Z 2512/2618 35008KT 6SM RA BR VCTS FEW020 SCT100CB
      OVC250
      TEMPO 2512/2513 VRB50KT 3/4SM TSRAGR BR SCT005 OVC012CB
     FM251300 25006KT 6SM BR VCTS SCT020 BKN100CB
      TEMPO 2513/2515 VRB25KT 3SM TSRA BKN020CB
     FM251500 19007KT P6SM VCSH FEW025 SCT150
     FM251800 21007KT P6SM FEW050
     FM260300 19004KT 6SM BR MIFG FEW010
     FM261500 09004KT P6SM SCT120=



000
FTUS44 KHGX 251201 CCA
TAFIAH
TAF COR
KIAH 251201Z 2512/2618 35008KT 6SM RA BR VCTS FEW020 SCT100CB
      OVC250
      TEMPO 2512/2513 VRB50KT 3/4SM TSRAGR BR SCT005 OVC012CB
     FM251300 25006KT 6SM BR VCTS SCT020 BKN100CB
      TEMPO 2513/2515 VRB25KT 3SM TSRA BKN020CB
     FM251500 19007KT P6SM VCSH FEW025 SCT150
     FM251800 21007KT P6SM FEW050
     FM260300 19004KT 6SM BR MIFG FEW010
     FM261500 09004KT P6SM SCT120=



000
FTUS44 KHGX 251201 CCA
TAFIAH
TAF COR
KIAH 251201Z 2512/2618 35008KT 6SM RA BR VCTS FEW020 SCT100CB
      OVC250
      TEMPO 2512/2513 VRB50KT 3/4SM TSRAGR BR SCT005 OVC012CB
     FM251300 25006KT 6SM BR VCTS SCT020 BKN100CB
      TEMPO 2513/2515 VRB25KT 3SM TSRA BKN020CB
     FM251500 19007KT P6SM VCSH FEW025 SCT150
     FM251800 21007KT P6SM FEW050
     FM260300 19004KT 6SM BR MIFG FEW010
     FM261500 09004KT P6SM SCT120=



000
FTUS44 KHGX 251201 CCA
TAFIAH
TAF COR
KIAH 251201Z 2512/2618 35008KT 6SM RA BR VCTS FEW020 SCT100CB
      OVC250
      TEMPO 2512/2513 VRB50KT 3/4SM TSRAGR BR SCT005 OVC012CB
     FM251300 25006KT 6SM BR VCTS SCT020 BKN100CB
      TEMPO 2513/2515 VRB25KT 3SM TSRA BKN020CB
     FM251500 19007KT P6SM VCSH FEW025 SCT150
     FM251800 21007KT P6SM FEW050
     FM260300 19004KT 6SM BR MIFG FEW010
     FM261500 09004KT P6SM SCT120=



000
FTUS44 KHGX 251122
TAFCXO
TAF
KCXO 251122Z 2512/2612 28008KT 4SM BR VCTS FEW028 SCT070CB BKN250
      TEMPO 2512/2515 VRB25KT 3SM TSRA BKN020CB
     FM251500 21005KT P6SM VCSH SCT015 BKN025
     FM251800 22006KT P6SM SCT035 SCT250
     FM260400 VRB02KT 5SM BR FEW005=



000
FTUS44 KHGX 251122
TAFHOU
TAF
KHOU 251122Z 2512/2612 VRB02KT P6SM VCTS FEW010 BKN130CB
      TEMPO 2512/2516 VRB25KT 3SM TSRA OVC020CB
     FM251600 20007KT P6SM VCSH SCT025 SCT250
     FM251800 26007KT P6SM SCT035
     FM260400 19006KT 6SM BR MIFG FEW012=



000
FTUS44 KHGX 251122
TAFGLS
TAF
KGLS 251122Z 2512/2612 18014KT P6SM VCSH FEW050 BKN250
      TEMPO 2513/2517 -TSRA BKN025CB
     FM251700 17011KT P6SM FEW050
     FM260400 20007KT 6SM BR SCT015=



000
FTUS44 KHGX 251122
TAFSGR
TAF
KSGR 251122Z 2512/2612 36006KT 6SM BR VCTS FEW020 BKN120CB
      TEMPO 2512/2515 3SM -TSRA BR BKN020CB
     FM251700 23007KT P6SM SCT050 SCT250
     FM260300 18006KT 6SM BR MIFG SCT010=



000
FTUS44 KHGX 251122
TAFLBX
TAF
KLBX 251122Z 2512/2612 VRB04KT P6SM VCSH SCT050 BKN250
      TEMPO 2513/2517 -TSRA BKN025CB
     FM251800 18008KT P6SM SCT250
     FM260300 18003KT 6SM BR MIFG SCT015=



000
FTUS44 KHGX 251122
TAFIAH
TAF
KIAH 251122Z 2512/2618 03006KT 6SM BR VCTS FEW018 SCT100CB BKN250
      TEMPO 2512/2515 VRB25KT 3SM TSRA BKN020CB
     FM251500 19007KT P6SM VCSH FEW025 SCT150
     FM251800 21007KT P6SM FEW050
     FM260300 19004KT 6SM BR MIFG FEW010
     FM261500 09004KT P6SM SCT120=



000
FTUS44 KHGX 251122
TAFCXO
TAF
KCXO 251122Z 2512/2612 28008KT 4SM BR VCTS FEW028 SCT070CB BKN250
      TEMPO 2512/2515 VRB25KT 3SM TSRA BKN020CB
     FM251500 21005KT P6SM VCSH SCT015 BKN025
     FM251800 22006KT P6SM SCT035 SCT250
     FM260400 VRB02KT 5SM BR FEW005=



000
FTUS44 KHGX 251122
TAFGLS
TAF
KGLS 251122Z 2512/2612 18014KT P6SM VCSH FEW050 BKN250
      TEMPO 2513/2517 -TSRA BKN025CB
     FM251700 17011KT P6SM FEW050
     FM260400 20007KT 6SM BR SCT015=



000
FTUS44 KHGX 251122
TAFHOU
TAF
KHOU 251122Z 2512/2612 VRB02KT P6SM VCTS FEW010 BKN130CB
      TEMPO 2512/2516 VRB25KT 3SM TSRA OVC020CB
     FM251600 20007KT P6SM VCSH SCT025 SCT250
     FM251800 26007KT P6SM SCT035
     FM260400 19006KT 6SM BR MIFG FEW012=



000
FTUS44 KHGX 251122
TAFIAH
TAF
KIAH 251122Z 2512/2618 03006KT 6SM BR VCTS FEW018 SCT100CB BKN250
      TEMPO 2512/2515 VRB25KT 3SM TSRA BKN020CB
     FM251500 19007KT P6SM VCSH FEW025 SCT150
     FM251800 21007KT P6SM FEW050
     FM260300 19004KT 6SM BR MIFG FEW010
     FM261500 09004KT P6SM SCT120=



000
FTUS44 KHGX 251122
TAFSGR
TAF
KSGR 251122Z 2512/2612 36006KT 6SM BR VCTS FEW020 BKN120CB
      TEMPO 2512/2515 3SM -TSRA BR BKN020CB
     FM251700 23007KT P6SM SCT050 SCT250
     FM260300 18006KT 6SM BR MIFG SCT010=



000
FTUS44 KHGX 251122
TAFIAH
TAF
KIAH 251122Z 2512/2618 03006KT 6SM BR VCTS FEW018 SCT100CB BKN250
      TEMPO 2512/2515 VRB25KT 3SM TSRA BKN020CB
     FM251500 19007KT P6SM VCSH FEW025 SCT150
     FM251800 21007KT P6SM FEW050
     FM260300 19004KT 6SM BR MIFG FEW010
     FM261500 09004KT P6SM SCT120=



000
FTUS44 KHGX 251122
TAFGLS
TAF
KGLS 251122Z 2512/2612 18014KT P6SM VCSH FEW050 BKN250
      TEMPO 2513/2517 -TSRA BKN025CB
     FM251700 17011KT P6SM FEW050
     FM260400 20007KT 6SM BR SCT015=



000
FTUS44 KHGX 251122
TAFHOU
TAF
KHOU 251122Z 2512/2612 VRB02KT P6SM VCTS FEW010 BKN130CB
      TEMPO 2512/2516 VRB25KT 3SM TSRA OVC020CB
     FM251600 20007KT P6SM VCSH SCT025 SCT250
     FM251800 26007KT P6SM SCT035
     FM260400 19006KT 6SM BR MIFG FEW012=



000
FTUS44 KHGX 251122
TAFUTS
TAF
KUTS 251122Z 2512/2612 18006KT 6SM BR VCTS FEW050CB BKN250
      TEMPO 2512/2516 5SM -TSRA BR BKN025CB
     FM251600 23006KT P6SM VCSH SCT050 BKN250
     FM251800 24005KT P6SM SCT250
     FM260900 VRB03KT 6SM BR SKC=



000
FTUS44 KHGX 251122
TAFLBX
TAF
KLBX 251122Z 2512/2612 VRB04KT P6SM VCSH SCT050 BKN250
      TEMPO 2513/2517 -TSRA BKN025CB
     FM251800 18008KT P6SM SCT250
     FM260300 18003KT 6SM BR MIFG SCT015=



000
FTUS44 KHGX 251122
TAFLBX
TAF
KLBX 251122Z 2512/2612 VRB04KT P6SM VCSH SCT050 BKN250
      TEMPO 2513/2517 -TSRA BKN025CB
     FM251800 18008KT P6SM SCT250
     FM260300 18003KT 6SM BR MIFG SCT015=



000
FTUS44 KHGX 251122
TAFCLL
TAF
KCLL 251122Z 2512/2612 19005KT 5SM BR VCTS FEW050CB BKN250
      TEMPO 2512/2515 3SM -TSRA BR BKN025CB
     FM251500 24007KT P6SM VCSH SCT050
     FM251700 24007KT P6SM SCT050
     FM260600 17005KT 5SM BR SKC=



000
FTUS44 KHGX 251122
TAFUTS
TAF
KUTS 251122Z 2512/2612 18006KT 6SM BR VCTS FEW050CB BKN250
      TEMPO 2512/2516 5SM -TSRA BR BKN025CB
     FM251600 23006KT P6SM VCSH SCT050 BKN250
     FM251800 24005KT P6SM SCT250
     FM260900 VRB03KT 6SM BR SKC=



000
FTUS44 KHGX 251122
TAFLBX
TAF
KLBX 251122Z 2512/2612 VRB04KT P6SM VCSH SCT050 BKN250
      TEMPO 2513/2517 -TSRA BKN025CB
     FM251800 18008KT P6SM SCT250
     FM260300 18003KT 6SM BR MIFG SCT015=



000
FTUS44 KHGX 251122
TAFHOU
TAF
KHOU 251122Z 2512/2612 VRB02KT P6SM VCTS FEW010 BKN130CB
      TEMPO 2512/2516 VRB25KT 3SM TSRA OVC020CB
     FM251600 20007KT P6SM VCSH SCT025 SCT250
     FM251800 26007KT P6SM SCT035
     FM260400 19006KT 6SM BR MIFG FEW012=



000
FTUS44 KHGX 251122
TAFSGR
TAF
KSGR 251122Z 2512/2612 36006KT 6SM BR VCTS FEW020 BKN120CB
      TEMPO 2512/2515 3SM -TSRA BR BKN020CB
     FM251700 23007KT P6SM SCT050 SCT250
     FM260300 18006KT 6SM BR MIFG SCT010=



000
FTUS44 KHGX 251122
TAFIAH
TAF
KIAH 251122Z 2512/2618 03006KT 6SM BR VCTS FEW018 SCT100CB BKN250
      TEMPO 2512/2515 VRB25KT 3SM TSRA BKN020CB
     FM251500 19007KT P6SM VCSH FEW025 SCT150
     FM251800 21007KT P6SM FEW050
     FM260300 19004KT 6SM BR MIFG FEW010
     FM261500 09004KT P6SM SCT120=



000
FTUS44 KHGX 251122
TAFGLS
TAF
KGLS 251122Z 2512/2612 18014KT P6SM VCSH FEW050 BKN250
      TEMPO 2513/2517 -TSRA BKN025CB
     FM251700 17011KT P6SM FEW050
     FM260400 20007KT 6SM BR SCT015=



000
FTUS44 KHGX 251122
TAFCLL
TAF
KCLL 251122Z 2512/2612 19005KT 5SM BR VCTS FEW050CB BKN250
      TEMPO 2512/2515 3SM -TSRA BR BKN025CB
     FM251500 24007KT P6SM VCSH SCT050
     FM251700 24007KT P6SM SCT050
     FM260600 17005KT 5SM BR SKC=



000
FTUS44 KHGX 251122
TAFUTS
TAF
KUTS 251122Z 2512/2612 18006KT 6SM BR VCTS FEW050CB BKN250
      TEMPO 2512/2516 5SM -TSRA BR BKN025CB
     FM251600 23006KT P6SM VCSH SCT050 BKN250
     FM251800 24005KT P6SM SCT250
     FM260900 VRB03KT 6SM BR SKC=



000
FTUS44 KHGX 251122
TAFCLL
TAF
KCLL 251122Z 2512/2612 19005KT 5SM BR VCTS FEW050CB BKN250
      TEMPO 2512/2515 3SM -TSRA BR BKN025CB
     FM251500 24007KT P6SM VCSH SCT050
     FM251700 24007KT P6SM SCT050
     FM260600 17005KT 5SM BR SKC=



000
FTUS44 KHGX 251122
TAFCXO
TAF
KCXO 251122Z 2512/2612 28008KT 4SM BR VCTS FEW028 SCT070CB BKN250
      TEMPO 2512/2515 VRB25KT 3SM TSRA BKN020CB
     FM251500 21005KT P6SM VCSH SCT015 BKN025
     FM251800 22006KT P6SM SCT035 SCT250
     FM260400 VRB02KT 5SM BR FEW005=



000
FTUS44 KHGX 251122
TAFSGR
TAF
KSGR 251122Z 2512/2612 36006KT 6SM BR VCTS FEW020 BKN120CB
      TEMPO 2512/2515 3SM -TSRA BR BKN020CB
     FM251700 23007KT P6SM SCT050 SCT250
     FM260300 18006KT 6SM BR MIFG SCT010=



000
FTUS44 KHGX 251122
TAFUTS
TAF
KUTS 251122Z 2512/2612 18006KT 6SM BR VCTS FEW050CB BKN250
      TEMPO 2512/2516 5SM -TSRA BR BKN025CB
     FM251600 23006KT P6SM VCSH SCT050 BKN250
     FM251800 24005KT P6SM SCT250
     FM260900 VRB03KT 6SM BR SKC=



000
FTUS44 KHGX 251122
TAFCLL
TAF
KCLL 251122Z 2512/2612 19005KT 5SM BR VCTS FEW050CB BKN250
      TEMPO 2512/2515 3SM -TSRA BR BKN025CB
     FM251500 24007KT P6SM VCSH SCT050
     FM251700 24007KT P6SM SCT050
     FM260600 17005KT 5SM BR SKC=



000
FTUS44 KHGX 251122
TAFCXO
TAF
KCXO 251122Z 2512/2612 28008KT 4SM BR VCTS FEW028 SCT070CB BKN250
      TEMPO 2512/2515 VRB25KT 3SM TSRA BKN020CB
     FM251500 21005KT P6SM VCSH SCT015 BKN025
     FM251800 22006KT P6SM SCT035 SCT250
     FM260400 VRB02KT 5SM BR FEW005=



000
FTUS44 KHGX 251025 AAA
TAFGLS
TAF AMD
KGLS 251025Z 2510/2606 06003KT P6SM FEW060 FEW100
     FM251200 VRB04KT P6SM VCSH SCT050 BKN250
      TEMPO 2513/2517 -TSRA BKN025CB
     FM251700 17011KT 6SM HZ FEW050 BKN250
     FM260400 20007KT 6SM BR SCT015=



000
FTUS44 KHGX 251025 AAA
TAFGLS
TAF AMD
KGLS 251025Z 2510/2606 06003KT P6SM FEW060 FEW100
     FM251200 VRB04KT P6SM VCSH SCT050 BKN250
      TEMPO 2513/2517 -TSRA BKN025CB
     FM251700 17011KT 6SM HZ FEW050 BKN250
     FM260400 20007KT 6SM BR SCT015=



000
FTUS44 KHGX 251023 AAB
TAFIAH
TAF AMD
KIAH 251023Z 2510/2612 03006KT 6SM BR VCTS SCT015 BKN080CB OVC100
      TEMPO 2511/2515 -TSRA SCT012 BKN020CB
     FM251500 19007KT P6SM FEW070 SCT150
     FM251800 21007KT P6SM FEW050
     FM260300 19004KT P6SM MIFG OVC012=



000
FTUS44 KHGX 251023 AAB
TAFIAH
TAF AMD
KIAH 251023Z 2510/2612 03006KT 6SM BR VCTS SCT015 BKN080CB OVC100
      TEMPO 2511/2515 -TSRA SCT012 BKN020CB
     FM251500 19007KT P6SM FEW070 SCT150
     FM251800 21007KT P6SM FEW050
     FM260300 19004KT P6SM MIFG OVC012=



000
FTUS44 KHGX 251022 AAB
TAFCLL
TAF AMD
KCLL 251022Z 2510/2606 17007KT 5SM BR VCTS FEW045CB
     FM251100 24003KT 5SM BR VCTS FEW025 BKN035CB
      TEMPO 2511/2515 VRB25KT 2SM TSRA BKN020CB
     FM251500 24007KT P6SM VCSH SCT050
     FM251700 24010KT P6SM SCT250
     FM260000 17005KT P6SM SKC=



000
FTUS44 KHGX 251022 AAB
TAFCLL
TAF AMD
KCLL 251022Z 2510/2606 17007KT 5SM BR VCTS FEW045CB
     FM251100 24003KT 5SM BR VCTS FEW025 BKN035CB
      TEMPO 2511/2515 VRB25KT 2SM TSRA BKN020CB
     FM251500 24007KT P6SM VCSH SCT050
     FM251700 24010KT P6SM SCT250
     FM260000 17005KT P6SM SKC=



000
FTUS44 KHGX 251022 AAB
TAFCLL
TAF AMD
KCLL 251022Z 2510/2606 17007KT 5SM BR VCTS FEW045CB
     FM251100 24003KT 5SM BR VCTS FEW025 BKN035CB
      TEMPO 2511/2515 VRB25KT 2SM TSRA BKN020CB
     FM251500 24007KT P6SM VCSH SCT050
     FM251700 24010KT P6SM SCT250
     FM260000 17005KT P6SM SKC=



000
FTUS44 KHGX 251021 AAA
TAFLBX
TAF AMD
KLBX 251021Z 2510/2606 15005KT 4SM BR FEW050 BKN250
     FM251200 11006KT 3SM BR VCSH SCT050 BKN250
      TEMPO 2513/2517 -TSRA BKN025CB
     FM251800 18008KT P6SM SCT250
     FM260300 18003KT 6SM BR SCT015=



000
FTUS44 KHGX 251021 AAA
TAFLBX
TAF AMD
KLBX 251021Z 2510/2606 15005KT 4SM BR FEW050 BKN250
     FM251200 11006KT 3SM BR VCSH SCT050 BKN250
      TEMPO 2513/2517 -TSRA BKN025CB
     FM251800 18008KT P6SM SCT250
     FM260300 18003KT 6SM BR SCT015=



000
FTUS44 KHGX 251018 AAA
TAFSGR
TAF AMD
KSGR 251018Z 2510/2606 36006KT 5SM BR SKC
     FM251200 23005KT 5SM BR VCSH FEW035
      TEMPO 2512/2515 -TSRA BR BKN020CB
     FM251700 23007KT P6SM SCT050 SCT250
     FM260300 18006KT 6SM BR SCT010=



000
FTUS44 KHGX 251018 AAA
TAFSGR
TAF AMD
KSGR 251018Z 2510/2606 36006KT 5SM BR SKC
     FM251200 23005KT 5SM BR VCSH FEW035
      TEMPO 2512/2515 -TSRA BR BKN020CB
     FM251700 23007KT P6SM SCT050 SCT250
     FM260300 18006KT 6SM BR SCT010=



000
FTUS44 KHGX 251016 AAA
TAFCXO
TAF AMD
KCXO 251016Z 2510/2606 06003KT 4SM BR VCTS FEW035CB BKN250
      TEMPO 2511/2515 VRB25KT 2SM TSRA BKN020CB
     FM251500 21005KT P6SM VCSH SCT015 BKN025
     FM251800 22009KT P6SM SCT035 SCT250
     FM260000 VRB02KT P6SM SCT250=



000
FTUS44 KHGX 251016 AAA
TAFCXO
TAF AMD
KCXO 251016Z 2510/2606 06003KT 4SM BR VCTS FEW035CB BKN250
      TEMPO 2511/2515 VRB25KT 2SM TSRA BKN020CB
     FM251500 21005KT P6SM VCSH SCT015 BKN025
     FM251800 22009KT P6SM SCT035 SCT250
     FM260000 VRB02KT P6SM SCT250=



000
FTUS44 KHGX 251016 AAA
TAFCXO
TAF AMD
KCXO 251016Z 2510/2606 06003KT 4SM BR VCTS FEW035CB BKN250
      TEMPO 2511/2515 VRB25KT 2SM TSRA BKN020CB
     FM251500 21005KT P6SM VCSH SCT015 BKN025
     FM251800 22009KT P6SM SCT035 SCT250
     FM260000 VRB02KT P6SM SCT250=



000
FTUS44 KHGX 251013 AAA
TAFUTS
TAF AMD
KUTS 251013Z 2510/2606 17005KT 6SM BR SKC
     FM251100 19004KT 6SM BR VCSH FEW035
      TEMPO 2512/2516 -TSRA BKN025CB
     FM251600 23008KT P6SM VCSH SCT050 BKN250
     FM251800 24005KT P6SM SCT250=



000
FTUS44 KHGX 251013 AAA
TAFUTS
TAF AMD
KUTS 251013Z 2510/2606 17005KT 6SM BR SKC
     FM251100 19004KT 6SM BR VCSH FEW035
      TEMPO 2512/2516 -TSRA BKN025CB
     FM251600 23008KT P6SM VCSH SCT050 BKN250
     FM251800 24005KT P6SM SCT250=



000
FTUS44 KHGX 251011 AAA
TAFCLL
TAF AMD
KCLL 251011Z 2510/2606 17007KT 5SM BR VCSH FEW045
     FM251100 24003KT 5SM BR VCTS FEW025 SCT035CB
      TEMPO 2511/2515 VRB25KT 2SM TSRA BKN020CB
     FM251500 24007KT P6SM VCSH SCT050
     FM251700 24010KT P6SM SCT250
     FM260000 17005KT P6SM SKC=



000
FTUS44 KHGX 251011 AAA
TAFCLL
TAF AMD
KCLL 251011Z 2510/2606 17007KT 5SM BR VCSH FEW045
     FM251100 24003KT 5SM BR VCTS FEW025 SCT035CB
      TEMPO 2511/2515 VRB25KT 2SM TSRA BKN020CB
     FM251500 24007KT P6SM VCSH SCT050
     FM251700 24010KT P6SM SCT250
     FM260000 17005KT P6SM SKC=



000
FTUS44 KHGX 251011 AAA
TAFCLL
TAF AMD
KCLL 251011Z 2510/2606 17007KT 5SM BR VCSH FEW045
     FM251100 24003KT 5SM BR VCTS FEW025 SCT035CB
      TEMPO 2511/2515 VRB25KT 2SM TSRA BKN020CB
     FM251500 24007KT P6SM VCSH SCT050
     FM251700 24010KT P6SM SCT250
     FM260000 17005KT P6SM SKC=



000
FTUS44 KHGX 250944 AAA
TAFHOU
TAF AMD
KHOU 250944Z 2510/2606 20008KT P6SM VCSH FEW009 SCT100 OVC160
      TEMPO 2511/2515 VRB15G25KT 2SM -TSRA OVC020CB
     FM251500 20007KT P6SM SCT050 SCT250
     FM260300 19006KT P6SM MIFG OVC012=



000
FTUS44 KHGX 250944 AAA
TAFHOU
TAF AMD
KHOU 250944Z 2510/2606 20008KT P6SM VCSH FEW009 SCT100 OVC160
      TEMPO 2511/2515 VRB15G25KT 2SM -TSRA OVC020CB
     FM251500 20007KT P6SM SCT050 SCT250
     FM260300 19006KT P6SM MIFG OVC012=



000
FTUS44 KHGX 250944 AAA
TAFHOU
TAF AMD
KHOU 250944Z 2510/2606 20008KT P6SM VCSH FEW009 SCT100 OVC160
      TEMPO 2511/2515 VRB15G25KT 2SM -TSRA OVC020CB
     FM251500 20007KT P6SM SCT050 SCT250
     FM260300 19006KT P6SM MIFG OVC012=



000
FTUS44 KHGX 250944 AAA
TAFHOU
TAF AMD
KHOU 250944Z 2510/2606 20008KT P6SM VCSH FEW009 SCT100 OVC160
      TEMPO 2511/2515 VRB15G25KT 2SM -TSRA OVC020CB
     FM251500 20007KT P6SM SCT050 SCT250
     FM260300 19006KT P6SM MIFG OVC012=



000
FTUS44 KHGX 250943 AAA
TAFIAH
TAF AMD
KIAH 250943Z 2510/2612 28004KT 5SM BR VCSH BKN012 BKN020 OVC100
      TEMPO 2511/2515 -TSRA SCT012 BKN020CB
     FM251500 19007KT P6SM FEW070 SCT150
     FM251800 21007KT P6SM FEW050
     FM260300 19004KT P6SM MIFG OVC012=



000
FTUS44 KHGX 250943 AAA
TAFIAH
TAF AMD
KIAH 250943Z 2510/2612 28004KT 5SM BR VCSH BKN012 BKN020 OVC100
      TEMPO 2511/2515 -TSRA SCT012 BKN020CB
     FM251500 19007KT P6SM FEW070 SCT150
     FM251800 21007KT P6SM FEW050
     FM260300 19004KT P6SM MIFG OVC012=



000
FTUS44 KHGX 250520
TAFCXO
TAF
KCXO 250520Z 2506/2606 21009KT P6SM VCSH OVC018
      TEMPO 2506/2508 VRB15G25KT 2SM -TSRA OVC020CB
     FM251500 24007KT P6SM VCSH SCT015 BKN025
     FM251800 21006KT P6SM SCT250
     FM260300 00000KT P6SM SKC=



000
FTUS44 KHGX 250520
TAFGLS
TAF
KGLS 250520Z 2506/2606 20007KT P6SM VCSH FEW006 OVC018
      TEMPO 2506/2509 VRB15G25KT 2SM -TSRA OVC020CB
     FM250900 16008KT 4SM BR VCTS BKN012CB
     FM251700 16011KT 6SM HZ OVC007
     FM251900 16010G17KT P6SM OVC015
     FM260400 20007KT 6SM BR BKN007=



000
FTUS44 KHGX 250520
TAFCXO
TAF
KCXO 250520Z 2506/2606 21009KT P6SM VCSH OVC018
      TEMPO 2506/2508 VRB15G25KT 2SM -TSRA OVC020CB
     FM251500 24007KT P6SM VCSH SCT015 BKN025
     FM251800 21006KT P6SM SCT250
     FM260300 00000KT P6SM SKC=



000
FTUS44 KHGX 250520
TAFCLL
TAF
KCLL 250520Z 2506/2606 17009KT P6SM VCSH SCT026
      TEMPO 2506/2508 VRB15G25KT 2SM -TSRA OVC020CB
     FM251500 24006KT P6SM VCSH SCT015
     FM251800 22013KT P6SM SCT250
     FM260000 18007KT P6SM SKC=



000
FTUS44 KHGX 250520
TAFGLS
TAF
KGLS 250520Z 2506/2606 20007KT P6SM VCSH FEW006 OVC018
      TEMPO 2506/2509 VRB15G25KT 2SM -TSRA OVC020CB
     FM250900 16008KT 4SM BR VCTS BKN012CB
     FM251700 16011KT 6SM HZ OVC007
     FM251900 16010G17KT P6SM OVC015
     FM260400 20007KT 6SM BR BKN007=



000
FTUS44 KHGX 250520
TAFCLL
TAF
KCLL 250520Z 2506/2606 17009KT P6SM VCSH SCT026
      TEMPO 2506/2508 VRB15G25KT 2SM -TSRA OVC020CB
     FM251500 24006KT P6SM VCSH SCT015
     FM251800 22013KT P6SM SCT250
     FM260000 18007KT P6SM SKC=



000
FTUS44 KHGX 250520
TAFIAH
TAF
KIAH 250520Z 2506/2612 23007KT P6SM VCTS BKN016CB OVC250
      TEMPO 2506/2509 VRB15G25KT 2SM -TSRA OVC020CB
     FM251000 23003KT P6SM VCSH BKN020
     FM251500 19007KT P6SM FEW070 SCT150
     FM251800 21007KT P6SM FEW050
     FM260300 19004KT P6SM MIFG OVC012=



000
FTUS44 KHGX 250520
TAFCLL
TAF
KCLL 250520Z 2506/2606 17009KT P6SM VCSH SCT026
      TEMPO 2506/2508 VRB15G25KT 2SM -TSRA OVC020CB
     FM251500 24006KT P6SM VCSH SCT015
     FM251800 22013KT P6SM SCT250
     FM260000 18007KT P6SM SKC=



000
FTUS44 KHGX 250520
TAFIAH
TAF
KIAH 250520Z 2506/2612 23007KT P6SM VCTS BKN016CB OVC250
      TEMPO 2506/2509 VRB15G25KT 2SM -TSRA OVC020CB
     FM251000 23003KT P6SM VCSH BKN020
     FM251500 19007KT P6SM FEW070 SCT150
     FM251800 21007KT P6SM FEW050
     FM260300 19004KT P6SM MIFG OVC012=



000
FTUS44 KHGX 250520
TAFUTS
TAF
KUTS 250520Z 2506/2606 16003KT P6SM VCSH OVC014
      TEMPO 2506/2508 VRB15G25KT 2SM -TSRA OVC020CB
     FM251500 21007KT P6SM VCSH SCT015 BKN250
     FM251800 24005KT P6SM BKN250
     FM260000 20005KT P6SM SKC=



000
FTUS44 KHGX 250520
TAFHOU
TAF
KHOU 250520Z 2506/2606 25008KT P6SM VCTS SCT008 OVC017CB
      TEMPO 2506/2509 VRB15G25KT 2SM -TSRA OVC020CB
     FM250900 21005KT P6SM VCSH BKN012
     FM251500 20007KT P6SM SCT050 SCT250
     FM260300 19006KT P6SM MIFG OVC012=



000
FTUS44 KHGX 250520
TAFUTS
TAF
KUTS 250520Z 2506/2606 16003KT P6SM VCSH OVC014
      TEMPO 2506/2508 VRB15G25KT 2SM -TSRA OVC020CB
     FM251500 21007KT P6SM VCSH SCT015 BKN250
     FM251800 24005KT P6SM BKN250
     FM260000 20005KT P6SM SKC=



000
FTUS44 KHGX 250520
TAFSGR
TAF
KSGR 250520Z 2506/2606 21008KT P6SM -RA VCTS SCT011 BKN016 OVC027CB
      TEMPO 2506/2509 VRB15G25KT 2SM -TSRA OVC020CB
     FM251500 21007KT P6SM SCT050 SCT250
     FM260300 19006KT P6SM OVC015=



000
FTUS44 KHGX 250520
TAFSGR
TAF
KSGR 250520Z 2506/2606 21008KT P6SM -RA VCTS SCT011 BKN016 OVC027CB
      TEMPO 2506/2509 VRB15G25KT 2SM -TSRA OVC020CB
     FM251500 21007KT P6SM SCT050 SCT250
     FM260300 19006KT P6SM OVC015=



000
FTUS44 KHGX 250520
TAFLBX
TAF
KLBX 250520Z 2506/2606 26006KT 5SM -RA BR VCTS FEW009 BKN015CB
      BKN100
      TEMPO 2506/2509 VRB15G25KT 2SM -TSRA OVC020CB
     FM250900 VRB03KT 5SM BR VCSH OVC015
     FM251400 21007KT P6SM SCT015 BKN025
     FM260400 18004KT 6SM BR OVC015=



000
FTUS44 KHGX 250520
TAFHOU
TAF
KHOU 250520Z 2506/2606 25008KT P6SM VCTS SCT008 OVC017CB
      TEMPO 2506/2509 VRB15G25KT 2SM -TSRA OVC020CB
     FM250900 21005KT P6SM VCSH BKN012
     FM251500 20007KT P6SM SCT050 SCT250
     FM260300 19006KT P6SM MIFG OVC012=



000
FTUS44 KHGX 250520
TAFLBX
TAF
KLBX 250520Z 2506/2606 26006KT 5SM -RA BR VCTS FEW009 BKN015CB
      BKN100
      TEMPO 2506/2509 VRB15G25KT 2SM -TSRA OVC020CB
     FM250900 VRB03KT 5SM BR VCSH OVC015
     FM251400 21007KT P6SM SCT015 BKN025
     FM260400 18004KT 6SM BR OVC015=



000
FTUS44 KHGX 250520
TAFSGR
TAF
KSGR 250520Z 2506/2606 21008KT P6SM -RA VCTS SCT011 BKN016 OVC027CB
      TEMPO 2506/2509 VRB15G25KT 2SM -TSRA OVC020CB
     FM251500 21007KT P6SM SCT050 SCT250
     FM260300 19006KT P6SM OVC015=



000
FTUS44 KHGX 250520
TAFLBX
TAF
KLBX 250520Z 2506/2606 26006KT 5SM -RA BR VCTS FEW009 BKN015CB
      BKN100
      TEMPO 2506/2509 VRB15G25KT 2SM -TSRA OVC020CB
     FM250900 VRB03KT 5SM BR VCSH OVC015
     FM251400 21007KT P6SM SCT015 BKN025
     FM260400 18004KT 6SM BR OVC015=



000
FTUS44 KHGX 250520
TAFGLS
TAF
KGLS 250520Z 2506/2606 20007KT P6SM VCSH FEW006 OVC018
      TEMPO 2506/2509 VRB15G25KT 2SM -TSRA OVC020CB
     FM250900 16008KT 4SM BR VCTS BKN012CB
     FM251700 16011KT 6SM HZ OVC007
     FM251900 16010G17KT P6SM OVC015
     FM260400 20007KT 6SM BR BKN007=



000
FTUS44 KHGX 250520
TAFHOU
TAF
KHOU 250520Z 2506/2606 25008KT P6SM VCTS SCT008 OVC017CB
      TEMPO 2506/2509 VRB15G25KT 2SM -TSRA OVC020CB
     FM250900 21005KT P6SM VCSH BKN012
     FM251500 20007KT P6SM SCT050 SCT250
     FM260300 19006KT P6SM MIFG OVC012=



000
FTUS44 KHGX 250520
TAFGLS
TAF
KGLS 250520Z 2506/2606 20007KT P6SM VCSH FEW006 OVC018
      TEMPO 2506/2509 VRB15G25KT 2SM -TSRA OVC020CB
     FM250900 16008KT 4SM BR VCTS BKN012CB
     FM251700 16011KT 6SM HZ OVC007
     FM251900 16010G17KT P6SM OVC015
     FM260400 20007KT 6SM BR BKN007=



000
FTUS44 KHGX 250520
TAFLBX
TAF
KLBX 250520Z 2506/2606 26006KT 5SM -RA BR VCTS FEW009 BKN015CB
      BKN100
      TEMPO 2506/2509 VRB15G25KT 2SM -TSRA OVC020CB
     FM250900 VRB03KT 5SM BR VCSH OVC015
     FM251400 21007KT P6SM SCT015 BKN025
     FM260400 18004KT 6SM BR OVC015=



000
FTUS44 KHGX 250520
TAFIAH
TAF
KIAH 250520Z 2506/2612 23007KT P6SM VCTS BKN016CB OVC250
      TEMPO 2506/2509 VRB15G25KT 2SM -TSRA OVC020CB
     FM251000 23003KT P6SM VCSH BKN020
     FM251500 19007KT P6SM FEW070 SCT150
     FM251800 21007KT P6SM FEW050
     FM260300 19004KT P6SM MIFG OVC012=



000
FTUS44 KHGX 250520
TAFCLL
TAF
KCLL 250520Z 2506/2606 17009KT P6SM VCSH SCT026
      TEMPO 2506/2508 VRB15G25KT 2SM -TSRA OVC020CB
     FM251500 24006KT P6SM VCSH SCT015
     FM251800 22013KT P6SM SCT250
     FM260000 18007KT P6SM SKC=



000
FTUS44 KHGX 250520
TAFUTS
TAF
KUTS 250520Z 2506/2606 16003KT P6SM VCSH OVC014
      TEMPO 2506/2508 VRB15G25KT 2SM -TSRA OVC020CB
     FM251500 21007KT P6SM VCSH SCT015 BKN250
     FM251800 24005KT P6SM BKN250
     FM260000 20005KT P6SM SKC=



000
FTUS44 KHGX 250359 AAB
TAFLBX
TAF AMD
KLBX 250359Z 2504/2524 20006KT P6SM VCTS BKN020CB
      TEMPO 2505/2509 VRB15G25KT 2SM -TSRA OVC020CB
     FM250900 VRB03KT 5SM BR VCSH OVC015
     FM251400 21007KT P6SM SCT015 BKN025=



000
FTUS44 KHGX 250359 AAB
TAFLBX
TAF AMD
KLBX 250359Z 2504/2524 20006KT P6SM VCTS BKN020CB
      TEMPO 2505/2509 VRB15G25KT 2SM -TSRA OVC020CB
     FM250900 VRB03KT 5SM BR VCSH OVC015
     FM251400 21007KT P6SM SCT015 BKN025=



000
FTUS44 KHGX 250331 AAB
TAFSGR
TAF AMD
KSGR 250331Z 2504/2524 18009KT P6SM VCSH FEW030 SCT250
     FM250600 20007KT P6SM VCTS BKN025CB
      TEMPO 2506/2509 VRB15G25KT 2SM -TSRA OVC020CB
     FM251500 21007KT P6SM SCT050 SCT250=



000
FTUS44 KHGX 250331 AAB
TAFSGR
TAF AMD
KSGR 250331Z 2504/2524 18009KT P6SM VCSH FEW030 SCT250
     FM250600 20007KT P6SM VCTS BKN025CB
      TEMPO 2506/2509 VRB15G25KT 2SM -TSRA OVC020CB
     FM251500 21007KT P6SM SCT050 SCT250=



000
FTUS44 KHGX 250331 AAB
TAFHOU
TAF AMD
KHOU 250331Z 2504/2524 17006KT P6SM VCSH FEW030 SCT250
     FM250600 VRB03KT P6SM VCTS BKN025CB
      TEMPO 2506/2509 VRB15G25KT 2SM -TSRA OVC020CB
     FM250900 21005KT P6SM VCSH BKN012
     FM251500 20007KT P6SM SCT050 SCT250=



000
FTUS44 KHGX 250331 AAB
TAFHOU
TAF AMD
KHOU 250331Z 2504/2524 17006KT P6SM VCSH FEW030 SCT250
     FM250600 VRB03KT P6SM VCTS BKN025CB
      TEMPO 2506/2509 VRB15G25KT 2SM -TSRA OVC020CB
     FM250900 21005KT P6SM VCSH BKN012
     FM251500 20007KT P6SM SCT050 SCT250=



000
FTUS44 KHGX 250331 AAB
TAFGLS
TAF AMD
KGLS 250331Z 2504/2524 17009KT 6SM BR VCSH BKN005 OVC020
      TEMPO 2506/2509 VRB15G25KT 2SM -TSRA OVC020CB
     FM250900 16008KT 4SM BR VCTS BKN012CB
     FM251700 16011KT 6SM HZ OVC007
     FM251900 16010G17KT P6SM OVC015=



000
FTUS44 KHGX 250331 AAB
TAFGLS
TAF AMD
KGLS 250331Z 2504/2524 17009KT 6SM BR VCSH BKN005 OVC020
      TEMPO 2506/2509 VRB15G25KT 2SM -TSRA OVC020CB
     FM250900 16008KT 4SM BR VCTS BKN012CB
     FM251700 16011KT 6SM HZ OVC007
     FM251900 16010G17KT P6SM OVC015=



000
FTUS44 KHGX 250300 AAA
TAFCLL
TAF AMD
KCLL 250300Z 2503/2524 18015G20KT P6SM FEW025 SCT250
     FM250400 19005KT 6SM BR VCTS BKN020CB
      TEMPO 2505/2508 VRB15G25KT 2SM -TSRA OVC020CB
     FM251500 24006KT P6SM VCSH SCT015
     FM251800 22013KT P6SM SCT250=



000
FTUS44 KHGX 250300 AAA
TAFIAH
TAF AMD
KIAH 250300Z 2503/2606 16010KT P6SM FEW030 BKN250
     FM250500 15006KT P6SM VCTS SCT015 BKN025CB
      TEMPO 2505/2509 VRB15G25KT 2SM -TSRA OVC020CB
     FM251000 23003KT P6SM VCSH BKN020
     FM251500 19007KT P6SM FEW070 SCT150
     FM251800 21007KT P6SM FEW050=



000
FTUS44 KHGX 250300 AAA
TAFUTS
TAF AMD
KUTS 250300Z 2503/2524 16007KT P6SM SCT250
     FM250400 19010KT 6SM BR VCTS BKN020CB
      TEMPO 2505/2508 VRB15G25KT 2SM -TSRA OVC020CB
     FM251500 21007KT P6SM VCSH SCT015 BKN250
     FM251800 24005KT P6SM BKN250=



000
FTUS44 KHGX 250300 AAA
TAFCLL
TAF AMD
KCLL 250300Z 2503/2524 18015G20KT P6SM FEW025 SCT250
     FM250400 19005KT 6SM BR VCTS BKN020CB
      TEMPO 2505/2508 VRB15G25KT 2SM -TSRA OVC020CB
     FM251500 24006KT P6SM VCSH SCT015
     FM251800 22013KT P6SM SCT250=



000
FTUS44 KHGX 250300 AAA
TAFHOU
TAF AMD
KHOU 250300Z 2503/2524 17006KT P6SM FEW030 SCT250
     FM250600 VRB03KT P6SM VCTS BKN025CB
      TEMPO 2506/2509 VRB15G25KT 2SM -TSRA OVC020CB
     FM250900 21005KT P6SM VCSH BKN012
     FM251500 20007KT P6SM SCT050 SCT250=



000
FTUS44 KHGX 250300 AAA
TAFCXO
TAF AMD
KCXO 250300Z 2503/2524 17013KT P6SM FEW025 SCT250
     FM250400 18006KT 6SM BR VCTS BKN020CB
      TEMPO 2505/2508 VRB15G25KT 2SM -TSRA OVC020CB
     FM251500 24007KT P6SM VCSH SCT015 BKN025
     FM251800 21006KT P6SM SCT250=



000
FTUS44 KHGX 250300 AAA
TAFSGR
TAF AMD
KSGR 250300Z 2503/2524 18009KT P6SM FEW030 SCT250
     FM250600 20007KT P6SM VCTS BKN025CB
      TEMPO 2506/2509 VRB15G25KT 2SM -TSRA OVC020CB
     FM251500 21007KT P6SM SCT050 SCT250=



000
FTUS44 KHGX 250300 AAA
TAFUTS
TAF AMD
KUTS 250300Z 2503/2524 16007KT P6SM SCT250
     FM250400 19010KT 6SM BR VCTS BKN020CB
      TEMPO 2505/2508 VRB15G25KT 2SM -TSRA OVC020CB
     FM251500 21007KT P6SM VCSH SCT015 BKN250
     FM251800 24005KT P6SM BKN250=



000
FTUS44 KHGX 250300 AAA
TAFLBX
TAF AMD
KLBX 250300Z 2503/2524 20006KT P6SM VCSH BKN015 OVC025
     FM250500 23004KT P6SM VCTS BKN025CB
      TEMPO 2505/2509 VRB15G25KT 2SM -TSRA OVC020CB
     FM250900 VRB03KT 5SM BR VCSH OVC015
     FM251400 21007KT P6SM SCT015 BKN025=



000
FTUS44 KHGX 250300 AAA
TAFGLS
TAF AMD
KGLS 250300Z 2503/2524 14008KT P6SM OVC007
     FM250500 19010KT 3SM BR VCSH SCT005 BKN010
      TEMPO 2506/2509 VRB15G25KT 2SM -TSRA OVC020CB
     FM250900 16008KT 4SM BR VCTS BKN012CB
     FM251700 16011KT 6SM HZ OVC007
     FM251900 16010G17KT P6SM OVC015=



000
FTUS44 KHGX 242358 RRA
TAFGLS
TAF
KGLS 242358Z 2500/2524 14008KT P6SM OVC007
     FM250300 16012KT 4SM BR BKN008
     FM250500 19010KT 3SM BR VCSH SCT005 BKN010
     FM250900 16008KT 4SM BR VCTS BKN012CB
     FM251700 16011KT 6SM HZ OVC007
     FM251900 16010G17KT P6SM OVC015=



000
FTUS44 KHGX 242358 RRA
TAFGLS
TAF
KGLS 242358Z 2500/2524 14008KT P6SM OVC007
     FM250300 16012KT 4SM BR BKN008
     FM250500 19010KT 3SM BR VCSH SCT005 BKN010
     FM250900 16008KT 4SM BR VCTS BKN012CB
     FM251700 16011KT 6SM HZ OVC007
     FM251900 16010G17KT P6SM OVC015=



000
FTUS44 KHGX 242358 RRA
TAFGLS
TAF
KGLS 242358Z 2500/2524 14008KT P6SM OVC007
     FM250300 16012KT 4SM BR BKN008
     FM250500 19010KT 3SM BR VCSH SCT005 BKN010
     FM250900 16008KT 4SM BR VCTS BKN012CB
     FM251700 16011KT 6SM HZ OVC007
     FM251900 16010G17KT P6SM OVC015=



000
FTUS44 KHGX 242358 RRA
TAFGLS
TAF
KGLS 242358Z 2500/2524 14008KT P6SM OVC007
     FM250300 16012KT 4SM BR BKN008
     FM250500 19010KT 3SM BR VCSH SCT005 BKN010
     FM250900 16008KT 4SM BR VCTS BKN012CB
     FM251700 16011KT 6SM HZ OVC007
     FM251900 16010G17KT P6SM OVC015=



000
FTUS44 KHGX 242340
TAFIAH
TAF
KIAH 242340Z 2500/2606 16010KT P6SM FEW030 BKN250
     FM250600 15006KT P6SM VCSH SCT015
     FM251000 23003KT P6SM VCSH BKN020 PROB30 2510/2513 -TSRA
      OVC020CB
     FM251500 19007KT P6SM FEW070 SCT150
     FM251800 21007KT P6SM FEW050=



000
FTUS44 KHGX 242340
TAFSGR
TAF
KSGR 242340Z 2500/2524 18009KT P6SM FEW030 SCT250
     FM250700 20007KT P6SM VCSH BKN018 PROB30 2509/2513 -TSRA
      OVC015CB
     FM251500 21007KT P6SM SCT050 SCT250=



000
FTUS44 KHGX 242340
TAFCLL
TAF
KCLL 242340Z 2500/2524 18015G20KT P6SM FEW025 SCT250
     FM250600 19005KT 6SM BR VCSH BKN015
     FM251500 24006KT P6SM VCSH SCT015
     FM251800 22013KT P6SM SCT250=



000
FTUS44 KHGX 242340
TAFCXO
TAF
KCXO 242340Z 2500/2524 17013KT P6SM FEW025 SCT250
     FM250600 18006KT 6SM BR VCSH BKN015
     FM251500 24007KT P6SM VCSH SCT015 BKN025
     FM251800 21006KT P6SM SCT250=



000
FTUS44 KHGX 242340
TAFGLS
TAF
KGLS 242340Z 2500/2524 14008KT P6SM OVC007
     FM250200 16012KT 3SM BR BKN008
     FM250600 19010KT 6SM BR VCSH SCT005 BKN010
     FM250900 16008KT 4SM BR VCSH OVC004
     FM251400 16010KT 6SM BR OVC010=



000
FTUS44 KHGX 242340
TAFHOU
TAF
KHOU 242340Z 2500/2524 17006KT P6SM FEW030 SCT250
     FM250600 VRB03KT P6SM VCSH BKN018
     FM250900 21005KT P6SM VCSH BKN012 PROB30 2510/2513 -TSRA
      OVC015CB
     FM251500 20007KT P6SM SCT050 SCT250=



000
FTUS44 KHGX 242340
TAFUTS
TAF
KUTS 242340Z 2500/2524 16007KT P6SM SCT250
     FM250600 19010KT 6SM BR VCSH BKN015
     FM251500 21007KT P6SM VCSH SCT015 BKN250
     FM251800 24005KT P6SM BKN250=



000
FTUS44 KHGX 242340
TAFLBX
TAF
KLBX 242340Z 2500/2524 20006KT P6SM VCSH BKN015 OVC025
     FM250400 20007KT P6SM VCSH BKN012
     FM250700 VRB03KT 5SM BR VCSH OVC012 PROB30 2509/2513 -TSRA
      OVC010CB
     FM251500 21007KT P6SM SCT015 BKN025=



000
FTUS44 KHGX 242340
TAFCXO
TAF
KCXO 242340Z 2500/2524 17013KT P6SM FEW025 SCT250
     FM250600 18006KT 6SM BR VCSH BKN015
     FM251500 24007KT P6SM VCSH SCT015 BKN025
     FM251800 21006KT P6SM SCT250=



000
FTUS44 KHGX 242340
TAFCLL
TAF
KCLL 242340Z 2500/2524 18015G20KT P6SM FEW025 SCT250
     FM250600 19005KT 6SM BR VCSH BKN015
     FM251500 24006KT P6SM VCSH SCT015
     FM251800 22013KT P6SM SCT250=



000
FTUS44 KHGX 242340
TAFSGR
TAF
KSGR 242340Z 2500/2524 18009KT P6SM FEW030 SCT250
     FM250700 20007KT P6SM VCSH BKN018 PROB30 2509/2513 -TSRA
      OVC015CB
     FM251500 21007KT P6SM SCT050 SCT250=



000
FTUS44 KHGX 242340
TAFUTS
TAF
KUTS 242340Z 2500/2524 16007KT P6SM SCT250
     FM250600 19010KT 6SM BR VCSH BKN015
     FM251500 21007KT P6SM VCSH SCT015 BKN250
     FM251800 24005KT P6SM BKN250=



000
FTUS44 KHGX 242340
TAFGLS
TAF
KGLS 242340Z 2500/2524 14008KT P6SM OVC007
     FM250200 16012KT 3SM BR BKN008
     FM250600 19010KT 6SM BR VCSH SCT005 BKN010
     FM250900 16008KT 4SM BR VCSH OVC004
     FM251400 16010KT 6SM BR OVC010=



000
FTUS44 KHGX 242340
TAFIAH
TAF
KIAH 242340Z 2500/2606 16010KT P6SM FEW030 BKN250
     FM250600 15006KT P6SM VCSH SCT015
     FM251000 23003KT P6SM VCSH BKN020 PROB30 2510/2513 -TSRA
      OVC020CB
     FM251500 19007KT P6SM FEW070 SCT150
     FM251800 21007KT P6SM FEW050=



000
FTUS44 KHGX 242340
TAFLBX
TAF
KLBX 242340Z 2500/2524 20006KT P6SM VCSH BKN015 OVC025
     FM250400 20007KT P6SM VCSH BKN012
     FM250700 VRB03KT 5SM BR VCSH OVC012 PROB30 2509/2513 -TSRA
      OVC010CB
     FM251500 21007KT P6SM SCT015 BKN025=



000
FTUS44 KHGX 242340
TAFHOU
TAF
KHOU 242340Z 2500/2524 17006KT P6SM FEW030 SCT250
     FM250600 VRB03KT P6SM VCSH BKN018
     FM250900 21005KT P6SM VCSH BKN012 PROB30 2510/2513 -TSRA
      OVC015CB
     FM251500 20007KT P6SM SCT050 SCT250=



000
FTUS44 KHGX 242101 AAA
TAFIAH
TAF AMD
KIAH 242101Z 2421/2524 17008KT P6SM BKN035 OVC250
     FM250200 15006KT P6SM SCT012 BKN250
     FM250600 14005KT P6SM VCSH BKN012 PROB30 2509/2513 TSRA
      BKN010CB
     FM251500 14007KT P6SM SCT015 BKN025=



000
FTUS44 KHGX 242101 AAA
TAFHOU
TAF AMD
KHOU 242101Z 2421/2518 16012G18KT P6SM BKN027 BKN040 BKN130
     FM250200 14004KT P6SM SCT012 BKN250
     FM250600 VRB03KT P6SM VCSH BKN012 PROB30 2509/2513 TSRA
      BKN010CB
     FM251500 14007KT P6SM SCT015 BKN025=



000
FTUS44 KHGX 242101 AAA
TAFHOU
TAF AMD
KHOU 242101Z 2421/2518 16012G18KT P6SM BKN027 BKN040 BKN130
     FM250200 14004KT P6SM SCT012 BKN250
     FM250600 VRB03KT P6SM VCSH BKN012 PROB30 2509/2513 TSRA
      BKN010CB
     FM251500 14007KT P6SM SCT015 BKN025=



000
FTUS44 KHGX 242101 AAA
TAFIAH
TAF AMD
KIAH 242101Z 2421/2524 17008KT P6SM BKN035 OVC250
     FM250200 15006KT P6SM SCT012 BKN250
     FM250600 14005KT P6SM VCSH BKN012 PROB30 2509/2513 TSRA
      BKN010CB
     FM251500 14007KT P6SM SCT015 BKN025=



000
FTUS44 KHGX 242026 AAA
TAFUTS
TAF AMD
KUTS 242026Z 2420/2518 VRB03KT P6SM VCTS BKN018 OVC023CB
      TEMPO 2420/2422 VRB25KT 3SM TSRA BR BKN015CB
     FM250200 17003KT P6SM SCT015 BKN250
     FM250600 19010KT 6SM BR VCSH BKN015 PROB30 2508/2513 TSRA
      BKN010CB
     FM251500 14007KT P6SM SCT015 BKN025=



000
FTUS44 KHGX 242026 AAA
TAFUTS
TAF AMD
KUTS 242026Z 2420/2518 VRB03KT P6SM VCTS BKN018 OVC023CB
      TEMPO 2420/2422 VRB25KT 3SM TSRA BR BKN015CB
     FM250200 17003KT P6SM SCT015 BKN250
     FM250600 19010KT 6SM BR VCSH BKN015 PROB30 2508/2513 TSRA
      BKN010CB
     FM251500 14007KT P6SM SCT015 BKN025=



000
FTUS44 KHGX 242024 AAB
TAFCLL
TAF AMD
KCLL 242024Z 2420/2518 16010KT P6SM VCTS SCT040CB BKN060
      TEMPO 2420/2421 VRB25KT 3SM TSRA BR BKN015CB
     FM250200 18006KT P6SM SCT015 BKN250
     FM250600 17007KT 4SM BR VCSH BKN015 PROB30 2507/2513 TSRA
      BKN010CB
     FM251500 14007KT P6SM SCT015 BKN025=



000
FTUS44 KHGX 242024 AAB
TAFCLL
TAF AMD
KCLL 242024Z 2420/2518 16010KT P6SM VCTS SCT040CB BKN060
      TEMPO 2420/2421 VRB25KT 3SM TSRA BR BKN015CB
     FM250200 18006KT P6SM SCT015 BKN250
     FM250600 17007KT 4SM BR VCSH BKN015 PROB30 2507/2513 TSRA
      BKN010CB
     FM251500 14007KT P6SM SCT015 BKN025=



000
FTUS44 KHGX 241943 AAA
TAFCXO
TAF AMD
KCXO 241943Z 2420/2518 10009KT P6SM VCTS SCT016 BKN035CB OVC050
      TEMPO 2420/2421 VRB25KT 3SM TSRA BR BKN015CB
     FM250300 12004KT P6SM SCT015 BKN250
     FM250600 18006KT 6SM BR VCSH BKN012 PROB30 2508/2513 TSRA
      BKN010CB
     FM251500 14007KT P6SM SCT015 BKN025=



000
FTUS44 KHGX 241943 AAA
TAFCXO
TAF AMD
KCXO 241943Z 2420/2518 10009KT P6SM VCTS SCT016 BKN035CB OVC050
      TEMPO 2420/2421 VRB25KT 3SM TSRA BR BKN015CB
     FM250300 12004KT P6SM SCT015 BKN250
     FM250600 18006KT 6SM BR VCSH BKN012 PROB30 2508/2513 TSRA
      BKN010CB
     FM251500 14007KT P6SM SCT015 BKN025=



000
FTUS44 KHGX 241943 AAA
TAFCLL
TAF AMD
KCLL 241943Z 2420/2518 16010KT P6SM VCTS SCT025 BKN040CB
     FM250200 18006KT P6SM SCT015 BKN250
     FM250600 17007KT 4SM BR VCSH BKN015 PROB30 2507/2513 TSRA
      BKN010CB
     FM251500 14007KT P6SM SCT015 BKN025=



000
FTUS44 KHGX 241943 AAA
TAFCLL
TAF AMD
KCLL 241943Z 2420/2518 16010KT P6SM VCTS SCT025 BKN040CB
     FM250200 18006KT P6SM SCT015 BKN250
     FM250600 17007KT 4SM BR VCSH BKN015 PROB30 2507/2513 TSRA
      BKN010CB
     FM251500 14007KT P6SM SCT015 BKN025=



000
FTUS44 KHGX 241728
TAFCLL
TAF
KCLL 241728Z 2418/2518 15011KT P6SM SKC
     FM250200 18006KT P6SM SCT015 BKN250
     FM250600 17007KT 4SM BR VCSH BKN015 PROB30 2507/2513 TSRA
      BKN010CB
     FM251500 14007KT P6SM SCT015 BKN025=



000
FTUS44 KHGX 241728
TAFCXO
TAF
KCXO 241728Z 2418/2518 10006KT P6SM BKN013 OVC019
     FM241900 14011G18KT P6SM BKN025
     FM250300 12004KT P6SM SCT015 BKN250
     FM250600 18006KT 6SM BR VCSH BKN012 PROB30 2508/2513 TSRA
      BKN010CB
     FM251500 14007KT P6SM SCT015 BKN025=



000
FTUS44 KHGX 241728
TAFUTS
TAF
KUTS 241728Z 2418/2518 VRB03KT P6SM SKC
     FM250200 17003KT P6SM SCT015 BKN250
     FM250600 19010KT 6SM BR VCSH BKN015 PROB30 2508/2513 TSRA
      BKN010CB
     FM251500 14007KT P6SM SCT015 BKN025=



000
FTUS44 KHGX 241728
TAFSGR
TAF
KSGR 241728Z 2418/2518 16011KT P6SM SCT019 OVC045
     FM250200 14005KT P6SM SCT012 BKN250
     FM250700 20007KT P6SM VCSH BKN012 PROB30 2509/2513 TSRA
      BKN010CB
     FM251500 14007KT P6SM SCT015 BKN025=



000
FTUS44 KHGX 241728
TAFLBX
TAF
KLBX 241728Z 2418/2518 14011KT P6SM BKN016 BKN023 OVC035
     FM242100 15010KT P6SM VCSH SCT035 BKN250
     FM250200 16005KT P6SM SCT012 BKN250
     FM250700 20007KT P6SM VCSH BKN012
     FM251500 14007KT P6SM SCT015 BKN025=



000
FTUS44 KHGX 241728
TAFHOU
TAF
KHOU 241728Z 2418/2518 16009KT P6SM SCT017 OVC035
     FM250200 14004KT P6SM SCT012 BKN250
     FM250600 VRB03KT P6SM VCSH BKN012 PROB30 2509/2513 TSRA
      BKN010CB
     FM251500 14007KT P6SM SCT015 BKN025=



000
FTUS44 KHGX 241728
TAFIAH
TAF
KIAH 241728Z 2418/2524 13010KT P6SM BKN018 OVC250
     FM241900 14011G18KT P6SM BKN025
     FM250200 15006KT P6SM SCT012 BKN250
     FM250600 14005KT P6SM VCSH BKN012 PROB30 2509/2513 TSRA
      BKN010CB
     FM251500 14007KT P6SM SCT015 BKN025=



000
FTUS44 KHGX 241728
TAFGLS
TAF
KGLS 241728Z 2418/2518 13008KT 2SM BR OVC006
     FM242100 13010KT 6SM BR BKN010
     FM250200 16012KT 3SM BR BKN008
     FM250600 19010KT 6SM BR VCSH SCT005 BKN010
     FM250900 16008KT 4SM BR VCSH OVC004
     FM251400 16010KT 6SM BR OVC010=



000
FTUS44 KHGX 241728
TAFSGR
TAF
KSGR 241728Z 2418/2518 16011KT P6SM SCT019 OVC045
     FM250200 14005KT P6SM SCT012 BKN250
     FM250700 20007KT P6SM VCSH BKN012 PROB30 2509/2513 TSRA
      BKN010CB
     FM251500 14007KT P6SM SCT015 BKN025=



000
FTUS44 KHGX 241728
TAFUTS
TAF
KUTS 241728Z 2418/2518 VRB03KT P6SM SKC
     FM250200 17003KT P6SM SCT015 BKN250
     FM250600 19010KT 6SM BR VCSH BKN015 PROB30 2508/2513 TSRA
      BKN010CB
     FM251500 14007KT P6SM SCT015 BKN025=



000
FTUS44 KHGX 241728
TAFIAH
TAF
KIAH 241728Z 2418/2524 13010KT P6SM BKN018 OVC250
     FM241900 14011G18KT P6SM BKN025
     FM250200 15006KT P6SM SCT012 BKN250
     FM250600 14005KT P6SM VCSH BKN012 PROB30 2509/2513 TSRA
      BKN010CB
     FM251500 14007KT P6SM SCT015 BKN025=



000
FTUS44 KHGX 241728
TAFHOU
TAF
KHOU 241728Z 2418/2518 16009KT P6SM SCT017 OVC035
     FM250200 14004KT P6SM SCT012 BKN250
     FM250600 VRB03KT P6SM VCSH BKN012 PROB30 2509/2513 TSRA
      BKN010CB
     FM251500 14007KT P6SM SCT015 BKN025=



000
FTUS44 KHGX 241728
TAFLBX
TAF
KLBX 241728Z 2418/2518 14011KT P6SM BKN016 BKN023 OVC035
     FM242100 15010KT P6SM VCSH SCT035 BKN250
     FM250200 16005KT P6SM SCT012 BKN250
     FM250700 20007KT P6SM VCSH BKN012
     FM251500 14007KT P6SM SCT015 BKN025=



000
FTUS44 KHGX 241728
TAFCLL
TAF
KCLL 241728Z 2418/2518 15011KT P6SM SKC
     FM250200 18006KT P6SM SCT015 BKN250
     FM250600 17007KT 4SM BR VCSH BKN015 PROB30 2507/2513 TSRA
      BKN010CB
     FM251500 14007KT P6SM SCT015 BKN025=



000
FTUS44 KHGX 241728
TAFGLS
TAF
KGLS 241728Z 2418/2518 13008KT 2SM BR OVC006
     FM242100 13010KT 6SM BR BKN010
     FM250200 16012KT 3SM BR BKN008
     FM250600 19010KT 6SM BR VCSH SCT005 BKN010
     FM250900 16008KT 4SM BR VCSH OVC004
     FM251400 16010KT 6SM BR OVC010=



000
FTUS44 KHGX 241728
TAFCXO
TAF
KCXO 241728Z 2418/2518 10006KT P6SM BKN013 OVC019
     FM241900 14011G18KT P6SM BKN025
     FM250300 12004KT P6SM SCT015 BKN250
     FM250600 18006KT 6SM BR VCSH BKN012 PROB30 2508/2513 TSRA
      BKN010CB
     FM251500 14007KT P6SM SCT015 BKN025=



000
FTUS44 KHGX 241602 AAC
TAFGLS
TAF AMD
KGLS 241602Z 2416/2512 12008KT 2SM BR OVC005
     FM241700 13008KT 5SM BR BKN010
     FM242000 13010KT P6SM SCT025
     FM250600 19010KT P6SM SCT005 BKN020=



000
FTUS44 KHGX 241602 AAC
TAFGLS
TAF AMD
KGLS 241602Z 2416/2512 12008KT 2SM BR OVC005
     FM241700 13008KT 5SM BR BKN010
     FM242000 13010KT P6SM SCT025
     FM250600 19010KT P6SM SCT005 BKN020=



000
FTUS44 KHGX 241513 AAA
TAFHOU
TAF AMD
KHOU 241513Z 2415/2512 13004KT P6SM SCT009 OVC250
     FM241600 14014KT P6SM SCT035 BKN250
     FM250200 14004KT P6SM SCT012 BKN250
     FM250700 VRB03KT P6SM VCSH BKN012=



000
FTUS44 KHGX 241513 AAB
TAFIAH
TAF AMD
KIAH 241513Z 2415/2518 12005KT 4SM BR OVC007
     FM241600 14012G22KT P6SM SCT035 BKN250
     FM250200 15006KT P6SM SCT012 BKN250
     FM250600 14005KT P6SM VCSH BKN012
     FM251200 14007KT P6SM SCT015 BKN025=



000
FTUS44 KHGX 241513 AAB
TAFIAH
TAF AMD
KIAH 241513Z 2415/2518 12005KT 4SM BR OVC007
     FM241600 14012G22KT P6SM SCT035 BKN250
     FM250200 15006KT P6SM SCT012 BKN250
     FM250600 14005KT P6SM VCSH BKN012
     FM251200 14007KT P6SM SCT015 BKN025=



000
FTUS44 KHGX 241513 AAA
TAFHOU
TAF AMD
KHOU 241513Z 2415/2512 13004KT P6SM SCT009 OVC250
     FM241600 14014KT P6SM SCT035 BKN250
     FM250200 14004KT P6SM SCT012 BKN250
     FM250700 VRB03KT P6SM VCSH BKN012=



000
FTUS44 KHGX 241513 AAA
TAFHOU
TAF AMD
KHOU 241513Z 2415/2512 13004KT P6SM SCT009 OVC250
     FM241600 14014KT P6SM SCT035 BKN250
     FM250200 14004KT P6SM SCT012 BKN250
     FM250700 VRB03KT P6SM VCSH BKN012=



000
FTUS44 KHGX 241513 AAB
TAFIAH
TAF AMD
KIAH 241513Z 2415/2518 12005KT 4SM BR OVC007
     FM241600 14012G22KT P6SM SCT035 BKN250
     FM250200 15006KT P6SM SCT012 BKN250
     FM250600 14005KT P6SM VCSH BKN012
     FM251200 14007KT P6SM SCT015 BKN025=



000
FTUS44 KHGX 241513 AAA
TAFHOU
TAF AMD
KHOU 241513Z 2415/2512 13004KT P6SM SCT009 OVC250
     FM241600 14014KT P6SM SCT035 BKN250
     FM250200 14004KT P6SM SCT012 BKN250
     FM250700 VRB03KT P6SM VCSH BKN012=



000
FTUS44 KHGX 241513 AAB
TAFIAH
TAF AMD
KIAH 241513Z 2415/2518 12005KT 4SM BR OVC007
     FM241600 14012G22KT P6SM SCT035 BKN250
     FM250200 15006KT P6SM SCT012 BKN250
     FM250600 14005KT P6SM VCSH BKN012
     FM251200 14007KT P6SM SCT015 BKN025=



000
FTUS44 KHGX 241417 AAB
TAFCLL
TAF AMD
KCLL 241417Z 2414/2512 32005KT P6SM VCTS SCT008 BKN040CB
      TEMPO 2414/2415 5SM -TSRA BR BKN025CB
     FM241600 16012G20KT P6SM VCSH SCT035 BKN250
     FM250200 18006KT P6SM SCT015 BKN250
     FM250600 17007KT 4SM BR VCSH BKN015=



000
FTUS44 KHGX 241417 AAB
TAFCLL
TAF AMD
KCLL 241417Z 2414/2512 32005KT P6SM VCTS SCT008 BKN040CB
      TEMPO 2414/2415 5SM -TSRA BR BKN025CB
     FM241600 16012G20KT P6SM VCSH SCT035 BKN250
     FM250200 18006KT P6SM SCT015 BKN250
     FM250600 17007KT 4SM BR VCSH BKN015=



000
FTUS44 KHGX 241416 AAA
TAFUTS
TAF AMD
KUTS 241416Z 2414/2512 16004KT P6SM VCTS BKN040CB BKN120
      TEMPO 2414/2416 2SM TSRA BR BKN015CB
     FM241700 16012KT P6SM VCTS SCT035CB BKN250
     FM250200 17003KT P6SM SCT015 BKN250
     FM250600 19010KT 6SM BR VCSH BKN015=



000
FTUS44 KHGX 241416 AAA
TAFUTS
TAF AMD
KUTS 241416Z 2414/2512 16004KT P6SM VCTS BKN040CB BKN120
      TEMPO 2414/2416 2SM TSRA BR BKN015CB
     FM241700 16012KT P6SM VCTS SCT035CB BKN250
     FM250200 17003KT P6SM SCT015 BKN250
     FM250600 19010KT 6SM BR VCSH BKN015=



000
FTUS44 KHGX 241416 AAA
TAFUTS
TAF AMD
KUTS 241416Z 2414/2512 16004KT P6SM VCTS BKN040CB BKN120
      TEMPO 2414/2416 2SM TSRA BR BKN015CB
     FM241700 16012KT P6SM VCTS SCT035CB BKN250
     FM250200 17003KT P6SM SCT015 BKN250
     FM250600 19010KT 6SM BR VCSH BKN015=



000
FTUS44 KHGX 241416 AAA
TAFUTS
TAF AMD
KUTS 241416Z 2414/2512 16004KT P6SM VCTS BKN040CB BKN120
      TEMPO 2414/2416 2SM TSRA BR BKN015CB
     FM241700 16012KT P6SM VCTS SCT035CB BKN250
     FM250200 17003KT P6SM SCT015 BKN250
     FM250600 19010KT 6SM BR VCSH BKN015=



000
FTUS44 KHGX 241414 AAC
TAFCXO
TAF AMD
KCXO 241414Z 2414/2512 00000KT 5SM BR VCTS BKN015CB
      TEMPO 2414/2415 1SM -TSRA BR BKN003 BKN015CB
     FM241600 16014KT P6SM VCTS SCT035CB BKN250
     FM250300 12004KT P6SM SCT015 BKN250
     FM250600 18006KT 6SM BR VCSH BKN012=



000
FTUS44 KHGX 241414 AAC
TAFCXO
TAF AMD
KCXO 241414Z 2414/2512 00000KT 5SM BR VCTS BKN015CB
      TEMPO 2414/2415 1SM -TSRA BR BKN003 BKN015CB
     FM241600 16014KT P6SM VCTS SCT035CB BKN250
     FM250300 12004KT P6SM SCT015 BKN250
     FM250600 18006KT 6SM BR VCSH BKN012=



000
FTUS44 KHGX 241414 AAC
TAFCXO
TAF AMD
KCXO 241414Z 2414/2512 00000KT 5SM BR VCTS BKN015CB
      TEMPO 2414/2415 1SM -TSRA BR BKN003 BKN015CB
     FM241600 16014KT P6SM VCTS SCT035CB BKN250
     FM250300 12004KT P6SM SCT015 BKN250
     FM250600 18006KT 6SM BR VCSH BKN012=



000
FTUS44 KHGX 241414 AAC
TAFCXO
TAF AMD
KCXO 241414Z 2414/2512 00000KT 5SM BR VCTS BKN015CB
      TEMPO 2414/2415 1SM -TSRA BR BKN003 BKN015CB
     FM241600 16014KT P6SM VCTS SCT035CB BKN250
     FM250300 12004KT P6SM SCT015 BKN250
     FM250600 18006KT 6SM BR VCSH BKN012=



000
FTUS44 KHGX 241412 AAB
TAFGLS
TAF AMD
KGLS 241412Z 2414/2512 08006KT 2SM BR OVC003
     FM241600 13008KT P6SM SCT015 BKN120
     FM242000 13010KT P6SM SCT025
     FM250600 19010KT P6SM SCT005 BKN020=



000
FTUS44 KHGX 241412 AAB
TAFGLS
TAF AMD
KGLS 241412Z 2414/2512 08006KT 2SM BR OVC003
     FM241600 13008KT P6SM SCT015 BKN120
     FM242000 13010KT P6SM SCT025
     FM250600 19010KT P6SM SCT005 BKN020=



000
FTUS44 KHGX 241251 AAA
TAFCLL
TAF AMD
KCLL 241251Z 2413/2512 32005KT 3SM -TSRA BR SCT008 BKN040CB
      TEMPO 2413/2414 VRB30KT TSRA BKN008 BKN035CB
     FM241400 14008KT 6SM TSRA BR SCT015 BKN025CB
     FM241800 16012G20KT P6SM VCSH SCT035 BKN250
     FM250200 18006KT P6SM SCT015 BKN250
     FM250600 17007KT 4SM BR VCSH BKN015=



000
FTUS44 KHGX 241251 AAA
TAFCLL
TAF AMD
KCLL 241251Z 2413/2512 32005KT 3SM -TSRA BR SCT008 BKN040CB
      TEMPO 2413/2414 VRB30KT TSRA BKN008 BKN035CB
     FM241400 14008KT 6SM TSRA BR SCT015 BKN025CB
     FM241800 16012G20KT P6SM VCSH SCT035 BKN250
     FM250200 18006KT P6SM SCT015 BKN250
     FM250600 17007KT 4SM BR VCSH BKN015=



000
FTUS44 KHGX 241251 AAA
TAFCLL
TAF AMD
KCLL 241251Z 2413/2512 32005KT 3SM -TSRA BR SCT008 BKN040CB
      TEMPO 2413/2414 VRB30KT TSRA BKN008 BKN035CB
     FM241400 14008KT 6SM TSRA BR SCT015 BKN025CB
     FM241800 16012G20KT P6SM VCSH SCT035 BKN250
     FM250200 18006KT P6SM SCT015 BKN250
     FM250600 17007KT 4SM BR VCSH BKN015=



000
FTUS44 KHGX 241237 CCA
TAFCXO
TAF COR
KCXO 241237Z 2413/2512 00000KT 1/4SM FG VCTS BKN002 OVC025CB
      TEMPO 2413/2414 3SM BR SCT005 BKN015
     FM241400 15006KT P6SM -TSRA SCT015 BKN025CB OVC250
     FM241800 16014KT P6SM VCTS SCT035CB BKN250
     FM250300 12004KT P6SM SCT015 BKN250
     FM250600 18006KT 6SM BR VCSH BKN012=



000
FTUS44 KHGX 241237 CCA
TAFCXO
TAF COR
KCXO 241237Z 2413/2512 00000KT 1/4SM FG VCTS BKN002 OVC025CB
      TEMPO 2413/2414 3SM BR SCT005 BKN015
     FM241400 15006KT P6SM -TSRA SCT015 BKN025CB OVC250
     FM241800 16014KT P6SM VCTS SCT035CB BKN250
     FM250300 12004KT P6SM SCT015 BKN250
     FM250600 18006KT 6SM BR VCSH BKN012=



000
FTUS44 KHGX 241237 CCA
TAFCXO
TAF COR
KCXO 241237Z 2413/2512 00000KT 1/4SM FG VCTS BKN002 OVC025CB
      TEMPO 2413/2414 3SM BR SCT005 BKN015
     FM241400 15006KT P6SM -TSRA SCT015 BKN025CB OVC250
     FM241800 16014KT P6SM VCTS SCT035CB BKN250
     FM250300 12004KT P6SM SCT015 BKN250
     FM250600 18006KT 6SM BR VCSH BKN012=



000
FTUS44 KHGX 241237 CCA
TAFCXO
TAF COR
KCXO 241237Z 2413/2512 00000KT 1/4SM FG VCTS BKN002 OVC025CB
      TEMPO 2413/2414 3SM BR SCT005 BKN015
     FM241400 15006KT P6SM -TSRA SCT015 BKN025CB OVC250
     FM241800 16014KT P6SM VCTS SCT035CB BKN250
     FM250300 12004KT P6SM SCT015 BKN250
     FM250600 18006KT 6SM BR VCSH BKN012=



000
FTUS44 KHGX 241236 AAB
TAFCXO
TAF AMD
KCXO 241236Z 2413/2512 00000KT 1/4SM FG VCSH VV002
      TEMPO 2413/2414 3SM BR SCT005 BKN015
     FM241400 15006KT P6SM -TSRA SCT015 BKN025CB OVC250
     FM241800 16014KT P6SM VCTS SCT035CB BKN250
     FM250300 12004KT P6SM SCT015 BKN250
     FM250600 18006KT 6SM BR VCSH BKN012=



000
FTUS44 KHGX 241236 AAB
TAFCXO
TAF AMD
KCXO 241236Z 2413/2512 00000KT 1/4SM FG VCSH VV002
      TEMPO 2413/2414 3SM BR SCT005 BKN015
     FM241400 15006KT P6SM -TSRA SCT015 BKN025CB OVC250
     FM241800 16014KT P6SM VCTS SCT035CB BKN250
     FM250300 12004KT P6SM SCT015 BKN250
     FM250600 18006KT 6SM BR VCSH BKN012=



000
FTUS44 KHGX 241236 AAB
TAFCXO
TAF AMD
KCXO 241236Z 2413/2512 00000KT 1/4SM FG VCSH VV002
      TEMPO 2413/2414 3SM BR SCT005 BKN015
     FM241400 15006KT P6SM -TSRA SCT015 BKN025CB OVC250
     FM241800 16014KT P6SM VCTS SCT035CB BKN250
     FM250300 12004KT P6SM SCT015 BKN250
     FM250600 18006KT 6SM BR VCSH BKN012=



000
FTUS44 KHGX 241236 AAB
TAFCXO
TAF AMD
KCXO 241236Z 2413/2512 00000KT 1/4SM FG VCSH VV002
      TEMPO 2413/2414 3SM BR SCT005 BKN015
     FM241400 15006KT P6SM -TSRA SCT015 BKN025CB OVC250
     FM241800 16014KT P6SM VCTS SCT035CB BKN250
     FM250300 12004KT P6SM SCT015 BKN250
     FM250600 18006KT 6SM BR VCSH BKN012=



000
FTUS44 KHGX 241203 AAA
TAFLBX
TAF AMD
KLBX 241203Z 2412/2512 14005KT 6SM BR VCSH FEW004 FEW009 BKN027
      TEMPO 2412/2414 OVC010
     FM241600 15015KT P6SM SCT015 BKN025 BKN250
     FM242000 15010KT P6SM VCSH SCT035 BKN250
     FM250200 16005KT P6SM SCT012 BKN250
     FM250800 VRB03KT 6SM BR MIFG BKN012=



000
FTUS44 KHGX 241203 AAA
TAFLBX
TAF AMD
KLBX 241203Z 2412/2512 14005KT 6SM BR VCSH FEW004 FEW009 BKN027
      TEMPO 2412/2414 OVC010
     FM241600 15015KT P6SM SCT015 BKN025 BKN250
     FM242000 15010KT P6SM VCSH SCT035 BKN250
     FM250200 16005KT P6SM SCT012 BKN250
     FM250800 VRB03KT 6SM BR MIFG BKN012=



000
FTUS44 KHGX 241203 AAA
TAFLBX
TAF AMD
KLBX 241203Z 2412/2512 14005KT 6SM BR VCSH FEW004 FEW009 BKN027
      TEMPO 2412/2414 OVC010
     FM241600 15015KT P6SM SCT015 BKN025 BKN250
     FM242000 15010KT P6SM VCSH SCT035 BKN250
     FM250200 16005KT P6SM SCT012 BKN250
     FM250800 VRB03KT 6SM BR MIFG BKN012=



000
FTUS44 KHGX 241202 AAA
TAFIAH
TAF AMD
KIAH 241202Z 2412/2518 08005KT P6SM VCSH BKN009 BKN017 OVC060
      TEMPO 2413/2415 SCT010 SCT015 OVC060
     FM241500 12007KT P6SM -TSRA BKN025CB BKN250
     FM241800 14012G22KT P6SM VCTS SCT035CB BKN250
     FM250200 15006KT P6SM SCT012 BKN250
     FM250600 14005KT P6SM VCSH BKN012
     FM251200 14007KT P6SM SCT015 BKN025=



000
FTUS44 KHGX 241202 AAA
TAFIAH
TAF AMD
KIAH 241202Z 2412/2518 08005KT P6SM VCSH BKN009 BKN017 OVC060
      TEMPO 2413/2415 SCT010 SCT015 OVC060
     FM241500 12007KT P6SM -TSRA BKN025CB BKN250
     FM241800 14012G22KT P6SM VCTS SCT035CB BKN250
     FM250200 15006KT P6SM SCT012 BKN250
     FM250600 14005KT P6SM VCSH BKN012
     FM251200 14007KT P6SM SCT015 BKN025=



000
FTUS44 KHGX 241202 AAA
TAFCXO
TAF AMD
KCXO 241202Z 2412/2512 00000KT 1/2SM FG VCSH VV002
      TEMPO 2412/2413 3SM -TSRA SCT009 BKN013CB
     FM241300 15004KT 6SM BR VCSH SCT009 BKN013
     FM241500 15006KT P6SM -TSRA SCT015 BKN025CB OVC250
     FM241800 16014KT P6SM VCTS SCT035CB BKN250
     FM250300 12004KT P6SM SCT015 BKN250
     FM250600 18006KT 6SM BR VCSH BKN012=



000
FTUS44 KHGX 241202 AAA
TAFSGR
TAF AMD
KSGR 241202Z 2412/2512 08005KT P6SM VCSH SCT007 BKN023 OVC070
     FM241400 12007KT P6SM VCSH SCT015 BKN025
     FM241700 16014KT P6SM VCTS SCT035CB BKN250
     FM250200 14005KT P6SM SCT012 BKN250
     FM250700 20007KT P6SM VCSH BKN012=



000
FTUS44 KHGX 241202 AAA
TAFIAH
TAF AMD
KIAH 241202Z 2412/2518 08005KT P6SM VCSH BKN009 BKN017 OVC060
      TEMPO 2413/2415 SCT010 SCT015 OVC060
     FM241500 12007KT P6SM -TSRA BKN025CB BKN250
     FM241800 14012G22KT P6SM VCTS SCT035CB BKN250
     FM250200 15006KT P6SM SCT012 BKN250
     FM250600 14005KT P6SM VCSH BKN012
     FM251200 14007KT P6SM SCT015 BKN025=



000
FTUS44 KHGX 241202 AAA
TAFCXO
TAF AMD
KCXO 241202Z 2412/2512 00000KT 1/2SM FG VCSH VV002
      TEMPO 2412/2413 3SM -TSRA SCT009 BKN013CB
     FM241300 15004KT 6SM BR VCSH SCT009 BKN013
     FM241500 15006KT P6SM -TSRA SCT015 BKN025CB OVC250
     FM241800 16014KT P6SM VCTS SCT035CB BKN250
     FM250300 12004KT P6SM SCT015 BKN250
     FM250600 18006KT 6SM BR VCSH BKN012=



000
FTUS44 KHGX 241202 AAA
TAFSGR
TAF AMD
KSGR 241202Z 2412/2512 08005KT P6SM VCSH SCT007 BKN023 OVC070
     FM241400 12007KT P6SM VCSH SCT015 BKN025
     FM241700 16014KT P6SM VCTS SCT035CB BKN250
     FM250200 14005KT P6SM SCT012 BKN250
     FM250700 20007KT P6SM VCSH BKN012=



000
FTUS44 KHGX 241202 AAA
TAFCXO
TAF AMD
KCXO 241202Z 2412/2512 00000KT 1/2SM FG VCSH VV002
      TEMPO 2412/2413 3SM -TSRA SCT009 BKN013CB
     FM241300 15004KT 6SM BR VCSH SCT009 BKN013
     FM241500 15006KT P6SM -TSRA SCT015 BKN025CB OVC250
     FM241800 16014KT P6SM VCTS SCT035CB BKN250
     FM250300 12004KT P6SM SCT015 BKN250
     FM250600 18006KT 6SM BR VCSH BKN012=



000
FTUS44 KHGX 241202 AAA
TAFCXO
TAF AMD
KCXO 241202Z 2412/2512 00000KT 1/2SM FG VCSH VV002
      TEMPO 2412/2413 3SM -TSRA SCT009 BKN013CB
     FM241300 15004KT 6SM BR VCSH SCT009 BKN013
     FM241500 15006KT P6SM -TSRA SCT015 BKN025CB OVC250
     FM241800 16014KT P6SM VCTS SCT035CB BKN250
     FM250300 12004KT P6SM SCT015 BKN250
     FM250600 18006KT 6SM BR VCSH BKN012=



000
FTUS44 KHGX 241202 AAA
TAFIAH
TAF AMD
KIAH 241202Z 2412/2518 08005KT P6SM VCSH BKN009 BKN017 OVC060
      TEMPO 2413/2415 SCT010 SCT015 OVC060
     FM241500 12007KT P6SM -TSRA BKN025CB BKN250
     FM241800 14012G22KT P6SM VCTS SCT035CB BKN250
     FM250200 15006KT P6SM SCT012 BKN250
     FM250600 14005KT P6SM VCSH BKN012
     FM251200 14007KT P6SM SCT015 BKN025=



000
FTUS44 KHGX 241202 AAA
TAFSGR
TAF AMD
KSGR 241202Z 2412/2512 08005KT P6SM VCSH SCT007 BKN023 OVC070
     FM241400 12007KT P6SM VCSH SCT015 BKN025
     FM241700 16014KT P6SM VCTS SCT035CB BKN250
     FM250200 14005KT P6SM SCT012 BKN250
     FM250700 20007KT P6SM VCSH BKN012=



000
FTUS44 KHGX 241202 AAA
TAFSGR
TAF AMD
KSGR 241202Z 2412/2512 08005KT P6SM VCSH SCT007 BKN023 OVC070
     FM241400 12007KT P6SM VCSH SCT015 BKN025
     FM241700 16014KT P6SM VCTS SCT035CB BKN250
     FM250200 14005KT P6SM SCT012 BKN250
     FM250700 20007KT P6SM VCSH BKN012=



000
FTUS44 KHGX 241200 AAA
TAFGLS
TAF AMD
KGLS 241200Z 2412/2512 13007KT 4SM BR BKN005 BKN024
      TEMPO 2412/2414 6SM BR SCT005 BKN025
     FM241400 13008KT P6SM VCSH SCT015 BKN120
      TEMPO 2415/2419 -TSRA SCT005 BKN015CB
     FM242000 13010KT P6SM SCT025
     FM250600 19010KT P6SM SCT005 BKN020=



000
FTUS44 KHGX 241200 AAA
TAFGLS
TAF AMD
KGLS 241200Z 2412/2512 13007KT 4SM BR BKN005 BKN024
      TEMPO 2412/2414 6SM BR SCT005 BKN025
     FM241400 13008KT P6SM VCSH SCT015 BKN120
      TEMPO 2415/2419 -TSRA SCT005 BKN015CB
     FM242000 13010KT P6SM SCT025
     FM250600 19010KT P6SM SCT005 BKN020=



000
FTUS44 KHGX 241120
TAFCLL
TAF
KCLL 241120Z 2412/2512 VRB03KT 6SM BR VCTS FEW010 SCT045 BKN120CB
      TEMPO 2412/2414 TSRA BKN035CB
     FM241400 14008KT 6SM TSRA BR SCT015 BKN025CB
     FM241800 16012G20KT P6SM VCSH SCT035 BKN250
     FM250200 18006KT P6SM SCT015 BKN250
     FM250600 17007KT 4SM BR VCSH BKN015=



000
FTUS44 KHGX 241120
TAFLBX
TAF
KLBX 241120Z 2412/2512 14005KT 6SM BR VCSH FEW004 FEW009 BKN027
     FM241600 15015KT P6SM SCT015 BKN025 BKN250
     FM242000 15010KT P6SM VCSH SCT035 BKN250
     FM250200 16005KT P6SM SCT012 BKN250
     FM250800 VRB03KT 6SM BR MIFG BKN012=



000
FTUS44 KHGX 241120
TAFHOU
TAF
KHOU 241120Z 2412/2512 VRB03KT P6SM VCSH SCT006 BKN250
     FM241400 13008KT P6SM VCSH SCT015 BKN025
     FM241700 14014KT P6SM VCTS SCT035CB BKN250
     FM250200 14004KT P6SM SCT012 BKN250
     FM250700 VRB03KT P6SM VCSH BKN012=



000
FTUS44 KHGX 241120
TAFIAH
TAF
KIAH 241120Z 2412/2518 08003KT P6SM VCSH FEW007 SCT015 BKN250
     FM241500 12007KT P6SM -TSRA BKN025CB BKN250
     FM241800 14012G22KT P6SM VCTS SCT035CB BKN250
     FM250200 15006KT P6SM SCT012 BKN250
     FM250600 14005KT P6SM VCSH BKN012
     FM251200 14007KT P6SM SCT015 BKN025=



000
FTUS44 KHGX 241120
TAFIAH
TAF
KIAH 241120Z 2412/2518 08003KT P6SM VCSH FEW007 SCT015 BKN250
     FM241500 12007KT P6SM -TSRA BKN025CB BKN250
     FM241800 14012G22KT P6SM VCTS SCT035CB BKN250
     FM250200 15006KT P6SM SCT012 BKN250
     FM250600 14005KT P6SM VCSH BKN012
     FM251200 14007KT P6SM SCT015 BKN025=



000
FTUS44 KHGX 241120
TAFLBX
TAF
KLBX 241120Z 2412/2512 14005KT 6SM BR VCSH FEW004 FEW009 BKN027
     FM241600 15015KT P6SM SCT015 BKN025 BKN250
     FM242000 15010KT P6SM VCSH SCT035 BKN250
     FM250200 16005KT P6SM SCT012 BKN250
     FM250800 VRB03KT 6SM BR MIFG BKN012=



000
FTUS44 KHGX 241120
TAFSGR
TAF
KSGR 241120Z 2412/2512 15005KT P6SM VCSH SCT006 BKN250
     FM241400 12007KT P6SM VCSH SCT015 BKN025
     FM241700 16014KT P6SM VCTS SCT035CB BKN250
     FM250200 14005KT P6SM SCT012 BKN250
     FM250700 20007KT P6SM VCSH BKN012=



000
FTUS44 KHGX 241120
TAFSGR
TAF
KSGR 241120Z 2412/2512 15005KT P6SM VCSH SCT006 BKN250
     FM241400 12007KT P6SM VCSH SCT015 BKN025
     FM241700 16014KT P6SM VCTS SCT035CB BKN250
     FM250200 14005KT P6SM SCT012 BKN250
     FM250700 20007KT P6SM VCSH BKN012=



000
FTUS44 KHGX 241120
TAFHOU
TAF
KHOU 241120Z 2412/2512 VRB03KT P6SM VCSH SCT006 BKN250
     FM241400 13008KT P6SM VCSH SCT015 BKN025
     FM241700 14014KT P6SM VCTS SCT035CB BKN250
     FM250200 14004KT P6SM SCT012 BKN250
     FM250700 VRB03KT P6SM VCSH BKN012=



000
FTUS44 KHGX 241120
TAFUTS
TAF
KUTS 241120Z 2412/2512 16004KT P6SM VCTS FEW008 SCT050 BKN120CB
      TEMPO 2412/2415 TSRA BKN035CB
     FM241500 16006KT 6SM TSRA BR BKN020CB OVC250
     FM241900 16012KT P6SM VCTS SCT035CB BKN250
     FM250200 17003KT P6SM SCT015 BKN250
     FM250600 19010KT 6SM BR VCSH BKN015=



000
FTUS44 KHGX 241120
TAFUTS
TAF
KUTS 241120Z 2412/2512 16004KT P6SM VCTS FEW008 SCT050 BKN120CB
      TEMPO 2412/2415 TSRA BKN035CB
     FM241500 16006KT 6SM TSRA BR BKN020CB OVC250
     FM241900 16012KT P6SM VCTS SCT035CB BKN250
     FM250200 17003KT P6SM SCT015 BKN250
     FM250600 19010KT 6SM BR VCSH BKN015=



000
FTUS44 KHGX 241120
TAFGLS
TAF
KGLS 241120Z 2412/2512 15008KT P6SM VCSH SCT005 SCT015 BKN120
      TEMPO 2415/2419 -TSRA SCT005 BKN015CB
     FM242000 13010KT P6SM SCT025
     FM250600 19010KT P6SM SCT005 BKN020=



000
FTUS44 KHGX 241120
TAFCLL
TAF
KCLL 241120Z 2412/2512 VRB03KT 6SM BR VCTS FEW010 SCT045 BKN120CB
      TEMPO 2412/2414 TSRA BKN035CB
     FM241400 14008KT 6SM TSRA BR SCT015 BKN025CB
     FM241800 16012G20KT P6SM VCSH SCT035 BKN250
     FM250200 18006KT P6SM SCT015 BKN250
     FM250600 17007KT 4SM BR VCSH BKN015=



000
FTUS44 KHGX 241120
TAFHOU
TAF
KHOU 241120Z 2412/2512 VRB03KT P6SM VCSH SCT006 BKN250
     FM241400 13008KT P6SM VCSH SCT015 BKN025
     FM241700 14014KT P6SM VCTS SCT035CB BKN250
     FM250200 14004KT P6SM SCT012 BKN250
     FM250700 VRB03KT P6SM VCSH BKN012=



000
FTUS44 KHGX 241120
TAFLBX
TAF
KLBX 241120Z 2412/2512 14005KT 6SM BR VCSH FEW004 FEW009 BKN027
     FM241600 15015KT P6SM SCT015 BKN025 BKN250
     FM242000 15010KT P6SM VCSH SCT035 BKN250
     FM250200 16005KT P6SM SCT012 BKN250
     FM250800 VRB03KT 6SM BR MIFG BKN012=



000
FTUS44 KHGX 241120
TAFUTS
TAF
KUTS 241120Z 2412/2512 16004KT P6SM VCTS FEW008 SCT050 BKN120CB
      TEMPO 2412/2415 TSRA BKN035CB
     FM241500 16006KT 6SM TSRA BR BKN020CB OVC250
     FM241900 16012KT P6SM VCTS SCT035CB BKN250
     FM250200 17003KT P6SM SCT015 BKN250
     FM250600 19010KT 6SM BR VCSH BKN015=



000
FTUS44 KHGX 241120
TAFIAH
TAF
KIAH 241120Z 2412/2518 08003KT P6SM VCSH FEW007 SCT015 BKN250
     FM241500 12007KT P6SM -TSRA BKN025CB BKN250
     FM241800 14012G22KT P6SM VCTS SCT035CB BKN250
     FM250200 15006KT P6SM SCT012 BKN250
     FM250600 14005KT P6SM VCSH BKN012
     FM251200 14007KT P6SM SCT015 BKN025=



000
FTUS44 KHGX 241120
TAFCLL
TAF
KCLL 241120Z 2412/2512 VRB03KT 6SM BR VCTS FEW010 SCT045 BKN120CB
      TEMPO 2412/2414 TSRA BKN035CB
     FM241400 14008KT 6SM TSRA BR SCT015 BKN025CB
     FM241800 16012G20KT P6SM VCSH SCT035 BKN250
     FM250200 18006KT P6SM SCT015 BKN250
     FM250600 17007KT 4SM BR VCSH BKN015=



000
FTUS44 KHGX 241120
TAFCXO
TAF
KCXO 241120Z 2412/2512 15004KT 6SM BR VCSH SCT009 BKN013
     FM241500 15006KT P6SM -TSRA SCT015 BKN025CB OVC250
     FM241800 16014KT P6SM VCTS SCT035CB BKN250
     FM250300 12004KT P6SM SCT015 BKN250
     FM250600 18006KT 6SM BR VCSH BKN012=



000
FTUS44 KHGX 241120
TAFCXO
TAF
KCXO 241120Z 2412/2512 15004KT 6SM BR VCSH SCT009 BKN013
     FM241500 15006KT P6SM -TSRA SCT015 BKN025CB OVC250
     FM241800 16014KT P6SM VCTS SCT035CB BKN250
     FM250300 12004KT P6SM SCT015 BKN250
     FM250600 18006KT 6SM BR VCSH BKN012=



000
FTUS44 KHGX 241120
TAFLBX
TAF
KLBX 241120Z 2412/2512 14005KT 6SM BR VCSH FEW004 FEW009 BKN027
     FM241600 15015KT P6SM SCT015 BKN025 BKN250
     FM242000 15010KT P6SM VCSH SCT035 BKN250
     FM250200 16005KT P6SM SCT012 BKN250
     FM250800 VRB03KT 6SM BR MIFG BKN012=



000
FTUS44 KHGX 241120
TAFCLL
TAF
KCLL 241120Z 2412/2512 VRB03KT 6SM BR VCTS FEW010 SCT045 BKN120CB
      TEMPO 2412/2414 TSRA BKN035CB
     FM241400 14008KT 6SM TSRA BR SCT015 BKN025CB
     FM241800 16012G20KT P6SM VCSH SCT035 BKN250
     FM250200 18006KT P6SM SCT015 BKN250
     FM250600 17007KT 4SM BR VCSH BKN015=



000
FTUS44 KHGX 241120
TAFCXO
TAF
KCXO 241120Z 2412/2512 15004KT 6SM BR VCSH SCT009 BKN013
     FM241500 15006KT P6SM -TSRA SCT015 BKN025CB OVC250
     FM241800 16014KT P6SM VCTS SCT035CB BKN250
     FM250300 12004KT P6SM SCT015 BKN250
     FM250600 18006KT 6SM BR VCSH BKN012=



000
FTUS44 KHGX 241120
TAFHOU
TAF
KHOU 241120Z 2412/2512 VRB03KT P6SM VCSH SCT006 BKN250
     FM241400 13008KT P6SM VCSH SCT015 BKN025
     FM241700 14014KT P6SM VCTS SCT035CB BKN250
     FM250200 14004KT P6SM SCT012 BKN250
     FM250700 VRB03KT P6SM VCSH BKN012=



000
FTUS44 KHGX 241120
TAFSGR
TAF
KSGR 241120Z 2412/2512 15005KT P6SM VCSH SCT006 BKN250
     FM241400 12007KT P6SM VCSH SCT015 BKN025
     FM241700 16014KT P6SM VCTS SCT035CB BKN250
     FM250200 14005KT P6SM SCT012 BKN250
     FM250700 20007KT P6SM VCSH BKN012=



000
FTUS44 KHGX 241120
TAFSGR
TAF
KSGR 241120Z 2412/2512 15005KT P6SM VCSH SCT006 BKN250
     FM241400 12007KT P6SM VCSH SCT015 BKN025
     FM241700 16014KT P6SM VCTS SCT035CB BKN250
     FM250200 14005KT P6SM SCT012 BKN250
     FM250700 20007KT P6SM VCSH BKN012=



000
FTUS44 KHGX 241120
TAFIAH
TAF
KIAH 241120Z 2412/2518 08003KT P6SM VCSH FEW007 SCT015 BKN250
     FM241500 12007KT P6SM -TSRA BKN025CB BKN250
     FM241800 14012G22KT P6SM VCTS SCT035CB BKN250
     FM250200 15006KT P6SM SCT012 BKN250
     FM250600 14005KT P6SM VCSH BKN012
     FM251200 14007KT P6SM SCT015 BKN025=



000
FTUS44 KHGX 241120
TAFCXO
TAF
KCXO 241120Z 2412/2512 15004KT 6SM BR VCSH SCT009 BKN013
     FM241500 15006KT P6SM -TSRA SCT015 BKN025CB OVC250
     FM241800 16014KT P6SM VCTS SCT035CB BKN250
     FM250300 12004KT P6SM SCT015 BKN250
     FM250600 18006KT 6SM BR VCSH BKN012=



000
FTUS44 KHGX 241120
TAFUTS
TAF
KUTS 241120Z 2412/2512 16004KT P6SM VCTS FEW008 SCT050 BKN120CB
      TEMPO 2412/2415 TSRA BKN035CB
     FM241500 16006KT 6SM TSRA BR BKN020CB OVC250
     FM241900 16012KT P6SM VCTS SCT035CB BKN250
     FM250200 17003KT P6SM SCT015 BKN250
     FM250600 19010KT 6SM BR VCSH BKN015=



000
FTUS44 KHGX 241120
TAFGLS
TAF
KGLS 241120Z 2412/2512 15008KT P6SM VCSH SCT005 SCT015 BKN120
      TEMPO 2415/2419 -TSRA SCT005 BKN015CB
     FM242000 13010KT P6SM SCT025
     FM250600 19010KT P6SM SCT005 BKN020=



000
FTUS44 KHGX 241001 AAC
TAFHOU
TAF AMD
KHOU 241001Z 2410/2506 00000KT P6SM FEW006 BKN250
     FM241300 16014KT P6SM VCSH BKN020 BKN250
     FM241900 15015KT P6SM VCTS BKN030CB
     FM250300 15008KT P6SM VCSH OVC015=



000
FTUS44 KHGX 241001 AAC
TAFHOU
TAF AMD
KHOU 241001Z 2410/2506 00000KT P6SM FEW006 BKN250
     FM241300 16014KT P6SM VCSH BKN020 BKN250
     FM241900 15015KT P6SM VCTS BKN030CB
     FM250300 15008KT P6SM VCSH OVC015=



000
FTUS44 KHGX 241001 AAB
TAFIAH
TAF AMD
KIAH 241001Z 2410/2512 08003KT P6SM FEW007 SCT015 BKN200
     FM241300 12011KT P6SM VCSH BKN025 OVC120
     FM241900 15015KT P6SM VCTS BKN030CB
     FM250300 17007KT P6SM VCSH BKN008 OVC015=



000
FTUS44 KHGX 241001 AAB
TAFIAH
TAF AMD
KIAH 241001Z 2410/2512 08003KT P6SM FEW007 SCT015 BKN200
     FM241300 12011KT P6SM VCSH BKN025 OVC120
     FM241900 15015KT P6SM VCTS BKN030CB
     FM250300 17007KT P6SM VCSH BKN008 OVC015=



000
FTUS44 KHGX 241000 AAB
TAFCXO
TAF AMD
KCXO 241000Z 2410/2506 15004KT 6SM BR BKN009 BKN013
      TEMPO 2411/2415 SCT009 BKN015
     FM241500 15006KT P6SM VCSH SCT015 BKN025 OVC250
     FM241900 16011KT P6SM VCTS SCT030 BKN050CB PROB30 2419/2422 4SM
      -TSRA OVC020CB
     FM250300 15004KT P6SM VCSH OVC020=



000
FTUS44 KHGX 241000 AAC
TAFSGR
TAF AMD
KSGR 241000Z 2410/2506 15005KT P6SM OVC006
      TEMPO 2412/2415 SCT006 BKN020
     FM241500 16015KT P6SM VCSH BKN020 BKN250
     FM241900 16017KT P6SM VCTS BKN030CB
     FM250300 15009KT P6SM OVC007=



000
FTUS44 KHGX 241000 AAC
TAFSGR
TAF AMD
KSGR 241000Z 2410/2506 15005KT P6SM OVC006
      TEMPO 2412/2415 SCT006 BKN020
     FM241500 16015KT P6SM VCSH BKN020 BKN250
     FM241900 16017KT P6SM VCTS BKN030CB
     FM250300 15009KT P6SM OVC007=



000
FTUS44 KHGX 241000 AAC
TAFSGR
TAF AMD
KSGR 241000Z 2410/2506 15005KT P6SM OVC006
      TEMPO 2412/2415 SCT006 BKN020
     FM241500 16015KT P6SM VCSH BKN020 BKN250
     FM241900 16017KT P6SM VCTS BKN030CB
     FM250300 15009KT P6SM OVC007=



000
FTUS44 KHGX 241000 AAB
TAFCXO
TAF AMD
KCXO 241000Z 2410/2506 15004KT 6SM BR BKN009 BKN013
      TEMPO 2411/2415 SCT009 BKN015
     FM241500 15006KT P6SM VCSH SCT015 BKN025 OVC250
     FM241900 16011KT P6SM VCTS SCT030 BKN050CB PROB30 2419/2422 4SM
      -TSRA OVC020CB
     FM250300 15004KT P6SM VCSH OVC020=



000
FTUS44 KHGX 241000 AAB
TAFCXO
TAF AMD
KCXO 241000Z 2410/2506 15004KT 6SM BR BKN009 BKN013
      TEMPO 2411/2415 SCT009 BKN015
     FM241500 15006KT P6SM VCSH SCT015 BKN025 OVC250
     FM241900 16011KT P6SM VCTS SCT030 BKN050CB PROB30 2419/2422 4SM
      -TSRA OVC020CB
     FM250300 15004KT P6SM VCSH OVC020=



000
FTUS44 KHGX 240958 AAD
TAFLBX
TAF AMD
KLBX 240958Z 2410/2506 17007KT 6SM BR VCSH FEW003 SCT012
      TEMPO 2410/2414 3SM BR SCT003 BKN012
     FM241600 15015KT P6SM VCSH SCT015 BKN025 BKN250
     FM250400 15008KT 6SM BR VCSH SCT008 OVC010=



000
FTUS44 KHGX 240958 AAD
TAFLBX
TAF AMD
KLBX 240958Z 2410/2506 17007KT 6SM BR VCSH FEW003 SCT012
      TEMPO 2410/2414 3SM BR SCT003 BKN012
     FM241600 15015KT P6SM VCSH SCT015 BKN025 BKN250
     FM250400 15008KT 6SM BR VCSH SCT008 OVC010=



000
FTUS44 KHGX 240950 AAC
TAFCLL
TAF AMD
KCLL 240950Z 2410/2506 00000KT 6SM BR VCTS SCT009 BKN120CB
     FM241600 16014KT P6SM VCTS BKN025CB BKN250
     FM241900 16015G22KT P6SM VCTS BKN030CB PROB30 2419/2422 4SM TS
      OVC025CB
     FM250200 17009KT P6SM VCSH OVC015=



000
FTUS44 KHGX 240950 AAC
TAFCLL
TAF AMD
KCLL 240950Z 2410/2506 00000KT 6SM BR VCTS SCT009 BKN120CB
     FM241600 16014KT P6SM VCTS BKN025CB BKN250
     FM241900 16015G22KT P6SM VCTS BKN030CB PROB30 2419/2422 4SM TS
      OVC025CB
     FM250200 17009KT P6SM VCSH OVC015=



000
FTUS44 KHGX 240950 AAC
TAFCLL
TAF AMD
KCLL 240950Z 2410/2506 00000KT 6SM BR VCTS SCT009 BKN120CB
     FM241600 16014KT P6SM VCTS BKN025CB BKN250
     FM241900 16015G22KT P6SM VCTS BKN030CB PROB30 2419/2422 4SM TS
      OVC025CB
     FM250200 17009KT P6SM VCSH OVC015=



000
FTUS44 KHGX 240939 AAB
TAFCLL
TAF AMD
KCLL 240939Z 2410/2506 00000KT 6SM BR VCSH SCT009 BKN120
     FM241600 16014KT P6SM VCTS BKN025CB BKN250
     FM241900 16015G22KT P6SM VCTS BKN030CB PROB30 2419/2422 4SM TS
      OVC025CB
     FM250200 17009KT P6SM VCSH OVC015=



000
FTUS44 KHGX 240939 AAB
TAFCLL
TAF AMD
KCLL 240939Z 2410/2506 00000KT 6SM BR VCSH SCT009 BKN120
     FM241600 16014KT P6SM VCTS BKN025CB BKN250
     FM241900 16015G22KT P6SM VCTS BKN030CB PROB30 2419/2422 4SM TS
      OVC025CB
     FM250200 17009KT P6SM VCSH OVC015=



000
FTUS44 KHGX 240904 AAC
TAFGLS
TAF AMD
KGLS 240904Z 2409/2506 13006KT P6SM FEW010 OVC250
     FM241500 13006KT P6SM VCTS SCT015 BKN025CB
     FM242100 14013KT P6SM BKN015
     FM250300 16012KT P6SM VCSH SCT007 BKN010=



000
FTUS44 KHGX 240904 AAC
TAFGLS
TAF AMD
KGLS 240904Z 2409/2506 13006KT P6SM FEW010 OVC250
     FM241500 13006KT P6SM VCTS SCT015 BKN025CB
     FM242100 14013KT P6SM BKN015
     FM250300 16012KT P6SM VCSH SCT007 BKN010=



000
FTUS44 KHGX 240903 AAC
TAFLBX
TAF AMD
KLBX 240903Z 2409/2506 14005KT 4SM BR MIFG BKN003 OVC009
     FM241200 12004KT P6SM MIFG BKN010 OVC018
      TEMPO 2412/2414 3SM BR OVC007
     FM241600 15015KT P6SM VCSH SCT015 BKN025 BKN250
     FM250400 15008KT 6SM BR VCSH SCT008 OVC010=



000
FTUS44 KHGX 240903 AAC
TAFLBX
TAF AMD
KLBX 240903Z 2409/2506 14005KT 4SM BR MIFG BKN003 OVC009
     FM241200 12004KT P6SM MIFG BKN010 OVC018
      TEMPO 2412/2414 3SM BR OVC007
     FM241600 15015KT P6SM VCSH SCT015 BKN025 BKN250
     FM250400 15008KT 6SM BR VCSH SCT008 OVC010=



000
FTUS44 KHGX 240902 AAB
TAFSGR
TAF AMD
KSGR 240902Z 2409/2506 12004KT P6SM OVC005
     FM241500 16015KT P6SM BKN020 BKN250
     FM241900 16017KT P6SM VCTS BKN030CB
     FM250300 15009KT P6SM OVC007=



000
FTUS44 KHGX 240902 AAB
TAFSGR
TAF AMD
KSGR 240902Z 2409/2506 12004KT P6SM OVC005
     FM241500 16015KT P6SM BKN020 BKN250
     FM241900 16017KT P6SM VCTS BKN030CB
     FM250300 15009KT P6SM OVC007=



000
FTUS44 KHGX 240902 AAB
TAFSGR
TAF AMD
KSGR 240902Z 2409/2506 12004KT P6SM OVC005
     FM241500 16015KT P6SM BKN020 BKN250
     FM241900 16017KT P6SM VCTS BKN030CB
     FM250300 15009KT P6SM OVC007=



000
FTUS44 KHGX 240902 AAB
TAFHOU
TAF AMD
KHOU 240902Z 2409/2506 00000KT P6SM FEW020 BKN250
     FM241000 14004KT P6SM VCSH SCT007 OVC015
     FM241500 16014KT P6SM BKN020 BKN250
     FM241900 15015KT P6SM VCTS BKN030CB
     FM250300 15008KT P6SM VCSH OVC015=



000
FTUS44 KHGX 240902 AAB
TAFHOU
TAF AMD
KHOU 240902Z 2409/2506 00000KT P6SM FEW020 BKN250
     FM241000 14004KT P6SM VCSH SCT007 OVC015
     FM241500 16014KT P6SM BKN020 BKN250
     FM241900 15015KT P6SM VCTS BKN030CB
     FM250300 15008KT P6SM VCSH OVC015=



000
FTUS44 KHGX 240902 AAB
TAFHOU
TAF AMD
KHOU 240902Z 2409/2506 00000KT P6SM FEW020 BKN250
     FM241000 14004KT P6SM VCSH SCT007 OVC015
     FM241500 16014KT P6SM BKN020 BKN250
     FM241900 15015KT P6SM VCTS BKN030CB
     FM250300 15008KT P6SM VCSH OVC015=



000
FTUS44 KHGX 240901 AAA
TAFIAH
TAF AMD
KIAH 240901Z 2409/2512 16004KT P6SM SCT010 BKN200
     FM241000 14004KT 5SM BR VCSH SCT008 OVC015
     FM241500 12011KT P6SM VCSH BKN025 OVC120
     FM241900 15015KT P6SM VCTS BKN030CB
     FM250300 17007KT P6SM VCSH BKN008 OVC015=



000
FTUS44 KHGX 240901 AAA
TAFIAH
TAF AMD
KIAH 240901Z 2409/2512 16004KT P6SM SCT010 BKN200
     FM241000 14004KT 5SM BR VCSH SCT008 OVC015
     FM241500 12011KT P6SM VCSH BKN025 OVC120
     FM241900 15015KT P6SM VCTS BKN030CB
     FM250300 17007KT P6SM VCSH BKN008 OVC015=



000
FTUS44 KHGX 240900 AAA
TAFCLL
TAF AMD
KCLL 240900Z 2409/2506 20005KT 6SM BR VCSH BKN008 OVC045
     FM241600 16014KT P6SM VCTS BKN025CB BKN250
     FM241900 16015G22KT P6SM VCTS BKN030CB PROB30 2419/2422 4SM TS
      OVC025CB
     FM250200 17009KT P6SM VCSH OVC015=



000
FTUS44 KHGX 240900 AAA
TAFCLL
TAF AMD
KCLL 240900Z 2409/2506 20005KT 6SM BR VCSH BKN008 OVC045
     FM241600 16014KT P6SM VCTS BKN025CB BKN250
     FM241900 16015G22KT P6SM VCTS BKN030CB PROB30 2419/2422 4SM TS
      OVC025CB
     FM250200 17009KT P6SM VCSH OVC015=



000
FTUS44 KHGX 240809 AAB
TAFGLS
TAF AMD
KGLS 240809Z 2408/2506 15003KT P6SM FEW005 SCT020
      TEMPO 2408/2410 BKN005 BKN011
     FM241000 13006KT P6SM VCSH SCT005 BKN011
     FM242100 14013KT P6SM BKN015
     FM250300 16012KT P6SM VCSH SCT007 BKN010=



000
FTUS44 KHGX 240809 AAB
TAFGLS
TAF AMD
KGLS 240809Z 2408/2506 15003KT P6SM FEW005 SCT020
      TEMPO 2408/2410 BKN005 BKN011
     FM241000 13006KT P6SM VCSH SCT005 BKN011
     FM242100 14013KT P6SM BKN015
     FM250300 16012KT P6SM VCSH SCT007 BKN010=



000
FTUS44 KHGX 240809 AAB
TAFLBX
TAF AMD
KLBX 240809Z 2408/2506 14004KT 6SM BR MIFG BKN010
      TEMPO 2408/2412 1SM BR OVC004
     FM241200 12004KT P6SM MIFG BKN010 OVC018
      TEMPO 2412/2414 3SM BR OVC007
     FM241600 15015KT P6SM VCSH SCT015 BKN025 BKN250
     FM250400 15008KT 6SM BR VCSH SCT008 OVC010=



000
FTUS44 KHGX 240808 AAA
TAFHOU
TAF AMD
KHOU 240808Z 2408/2506 17005KT 6SM BR SCT004 OVC250
      TEMPO 2408/2410 BKN004
     FM241000 14004KT P6SM OVC015
      TEMPO 2410/2413 -SHRA OVC007
     FM241500 16014KT P6SM BKN020 BKN250
     FM241900 15015KT P6SM VCTS BKN030CB PROB30 2419/2422 -TSRA
      OVC025CB
     FM250300 15008KT P6SM VCSH OVC015=



000
FTUS44 KHGX 240808 AAA
TAFHOU
TAF AMD
KHOU 240808Z 2408/2506 17005KT 6SM BR SCT004 OVC250
      TEMPO 2408/2410 BKN004
     FM241000 14004KT P6SM OVC015
      TEMPO 2410/2413 -SHRA OVC007
     FM241500 16014KT P6SM BKN020 BKN250
     FM241900 15015KT P6SM VCTS BKN030CB PROB30 2419/2422 -TSRA
      OVC025CB
     FM250300 15008KT P6SM VCSH OVC015=



000
FTUS44 KHGX 240808 AAA
TAFCXO
TAF AMD
KCXO 240808Z 2408/2506 12004KT P6SM FEW009 OVC250
      TEMPO 2411/2415 BKN009
     FM241500 15006KT P6SM VCSH SCT015 BKN025 OVC250
     FM241900 16011KT P6SM VCTS SCT030 BKN050CB PROB30 2419/2422 4SM
      -TSRA OVC020CB
     FM250300 15004KT P6SM VCSH OVC020=



000
FTUS44 KHGX 240808 AAA
TAFCXO
TAF AMD
KCXO 240808Z 2408/2506 12004KT P6SM FEW009 OVC250
      TEMPO 2411/2415 BKN009
     FM241500 15006KT P6SM VCSH SCT015 BKN025 OVC250
     FM241900 16011KT P6SM VCTS SCT030 BKN050CB PROB30 2419/2422 4SM
      -TSRA OVC020CB
     FM250300 15004KT P6SM VCSH OVC020=



000
FTUS44 KHGX 240807 AAA
TAFUTS
TAF AMD
KUTS 240807Z 2408/2506 00000KT P6SM OVC250
     FM240900 16006KT P6SM FEW008 OVC250
      TEMPO 2411/2415 BKN008
     FM241500 16010G15KT P6SM VCTS BKN020CB OVC250
     FM241900 16012KT P6SM VCTS BKN030CB PROB30 2419/2422 4SM TS
      OVC025CB
     FM250400 17006KT P6SM VCSH BKN025=



000
FTUS44 KHGX 240807 AAA
TAFUTS
TAF AMD
KUTS 240807Z 2408/2506 00000KT P6SM OVC250
     FM240900 16006KT P6SM FEW008 OVC250
      TEMPO 2411/2415 BKN008
     FM241500 16010G15KT P6SM VCTS BKN020CB OVC250
     FM241900 16012KT P6SM VCTS BKN030CB PROB30 2419/2422 4SM TS
      OVC025CB
     FM250400 17006KT P6SM VCSH BKN025=



000
FTUS44 KHGX 240710 AAA
TAFSGR
TAF AMD
KSGR 240710Z 2407/2506 21005KT 5SM BR OVC006
      TEMPO 2407/2409 SCT006 BKN015
     FM240900 14004KT P6SM OVC015
      TEMPO 2410/2413 -SHRA OVC007
     FM241500 16015KT P6SM BKN020 BKN250
     FM241900 16017KT P6SM VCTS BKN030CB PROB30 2419/2422 -TSRA
      OVC025CB
     FM250300 15009KT P6SM OVC007=



000
FTUS44 KHGX 240710 AAA
TAFSGR
TAF AMD
KSGR 240710Z 2407/2506 21005KT 5SM BR OVC006
      TEMPO 2407/2409 SCT006 BKN015
     FM240900 14004KT P6SM OVC015
      TEMPO 2410/2413 -SHRA OVC007
     FM241500 16015KT P6SM BKN020 BKN250
     FM241900 16017KT P6SM VCTS BKN030CB PROB30 2419/2422 -TSRA
      OVC025CB
     FM250300 15009KT P6SM OVC007=



000
FTUS44 KHGX 240709 AAA
TAFGLS
TAF AMD
KGLS 240709Z 2407/2506 17005KT P6SM SCT005 SCT011
      TEMPO 2407/2410 BKN005 BKN011
     FM241000 13006KT P6SM VCSH SCT005 BKN011
     FM242100 14013KT P6SM BKN015
     FM250300 16012KT P6SM VCSH SCT007 BKN010=



000
FTUS44 KHGX 240709 AAA
TAFGLS
TAF AMD
KGLS 240709Z 2407/2506 17005KT P6SM SCT005 SCT011
      TEMPO 2407/2410 BKN005 BKN011
     FM241000 13006KT P6SM VCSH SCT005 BKN011
     FM242100 14013KT P6SM BKN015
     FM250300 16012KT P6SM VCSH SCT007 BKN010=



000
FTUS44 KHGX 240608 AAA
TAFLBX
TAF AMD
KLBX 240608Z 2406/2506 14004KT 6SM BR MIFG BKN010
      TEMPO 2406/2409 BKN007
     FM240900 12004KT P6SM MIFG BKN010 OVC018
      TEMPO 2410/2414 3SM BR OVC007
     FM241600 15015KT P6SM VCSH SCT015 BKN025 BKN250
     FM250400 15008KT 6SM BR VCSH SCT008 OVC010=



000
FTUS44 KHGX 240608 AAA
TAFLBX
TAF AMD
KLBX 240608Z 2406/2506 14004KT 6SM BR MIFG BKN010
      TEMPO 2406/2409 BKN007
     FM240900 12004KT P6SM MIFG BKN010 OVC018
      TEMPO 2410/2414 3SM BR OVC007
     FM241600 15015KT P6SM VCSH SCT015 BKN025 BKN250
     FM250400 15008KT 6SM BR VCSH SCT008 OVC010=



000
FTUS44 KHGX 240521 CCA
TAFLBX
TAF COR
KLBX 240521Z 2406/2506 14004KT 6SM BR MIFG SCT250
     FM240900 12004KT P6SM MIFG BKN010 OVC018
      TEMPO 2410/2414 3SM BR OVC007
     FM241600 15015KT P6SM VCSH SCT015 BKN025 BKN250
     FM250400 15008KT 6SM BR VCSH SCT008 OVC010=



000
FTUS44 KHGX 240521 CCA
TAFLBX
TAF COR
KLBX 240521Z 2406/2506 14004KT 6SM BR MIFG SCT250
     FM240900 12004KT P6SM MIFG BKN010 OVC018
      TEMPO 2410/2414 3SM BR OVC007
     FM241600 15015KT P6SM VCSH SCT015 BKN025 BKN250
     FM250400 15008KT 6SM BR VCSH SCT008 OVC010=



000
FTUS44 KHGX 240520
TAFCLL
TAF
KCLL 240520Z 2406/2506 09006KT P6SM FEW030 SCT250
     FM240900 16006KT P6SM OVC010
     FM241100 16006KT 6SM BR VCSH OVC007
     FM241600 16014KT P6SM VCTS BKN025CB BKN250
     FM241900 16015G22KT P6SM VCTS BKN030CB PROB30 2419/2422 4SM TS
      OVC025CB
     FM250200 17009KT P6SM VCSH OVC015=



000
FTUS44 KHGX 240520
TAFLBX
TAF
KLBX 240520Z 2406/2506 14004KT P6SM SCT250
     FM240900 12004KT P6SM MIFG BKN010 OVC018
      TEMPO 2410/2414 3SM BR OVC007
     FM241600 15015KT P6SM VCSH SCT015 BKN025 BKN250
     FM250400 15008KT 6SM BR VCSH SCT008 OVC010=



000
FTUS44 KHGX 240520
TAFUTS
TAF
KUTS 240520Z 2406/2506 11003KT P6SM FEW035
     FM240800 VRB03KT P6SM BKN015 OVC150
     FM240900 16006KT P6SM BKN008 OVC010
     FM241500 16010G15KT P6SM VCTS BKN020CB OVC250
     FM241900 16012KT P6SM VCTS BKN030CB PROB30 2419/2422 4SM TS
      OVC025CB
     FM250400 17006KT P6SM VCSH BKN025=



000
FTUS44 KHGX 240520
TAFHOU
TAF
KHOU 240520Z 2406/2506 17004KT P6SM FEW040 BKN250
     FM241000 14004KT P6SM OVC015
      TEMPO 2410/2413 -SHRA OVC007
     FM241500 16014KT P6SM BKN020 BKN250
     FM241900 15015KT P6SM VCTS BKN030CB PROB30 2419/2422 -TSRA
      OVC025CB
     FM250300 15008KT P6SM VCSH OVC015=



000
FTUS44 KHGX 240520
TAFIAH
TAF
KIAH 240520Z 2406/2512 17004KT P6SM BKN045 OVC250
     FM241000 14004KT 5SM BR VCSH OVC015
      TEMPO 2410/2413 -SHRA OVC008
     FM241500 12011KT P6SM VCSH BKN025 OVC120
     FM241900 15015KT P6SM VCTS BKN030CB PROB30 2419/2422 -TSRA
      OVC025CB
     FM250300 17007KT P6SM VCSH BKN008 OVC015=



000
FTUS44 KHGX 240520
TAFLBX
TAF
KLBX 240520Z 2406/2506 14004KT P6SM SCT250
     FM240900 12004KT P6SM MIFG BKN010 OVC018
      TEMPO 2410/2414 3SM BR OVC007
     FM241600 15015KT P6SM VCSH SCT015 BKN025 BKN250
     FM250400 15008KT 6SM BR VCSH SCT008 OVC010=



000
FTUS44 KHGX 240520
TAFCLL
TAF
KCLL 240520Z 2406/2506 09006KT P6SM FEW030 SCT250
     FM240900 16006KT P6SM OVC010
     FM241100 16006KT 6SM BR VCSH OVC007
     FM241600 16014KT P6SM VCTS BKN025CB BKN250
     FM241900 16015G22KT P6SM VCTS BKN030CB PROB30 2419/2422 4SM TS
      OVC025CB
     FM250200 17009KT P6SM VCSH OVC015=



000
FTUS44 KHGX 240520
TAFGLS
TAF
KGLS 240520Z 2406/2506 15005KT P6SM SCT250
     FM240700 13007KT P6SM VCSH SCT007 BKN015 BKN250
     FM242100 14013KT P6SM BKN015
     FM250300 16012KT P6SM VCSH SCT007 BKN010=



000
FTUS44 KHGX 240520
TAFCXO
TAF
KCXO 240520Z 2406/2506 15006KT P6SM SCT250
     FM240700 13003KT P6SM FEW008 BKN015 OVC150
     FM240900 VRB03KT 4SM BR OVC009
     FM241500 15006KT P6SM VCSH SCT015 BKN025 OVC250
     FM241900 16011KT P6SM VCTS SCT030 BKN050CB PROB30 2419/2422 4SM
      -TSRA OVC020CB
     FM250300 15004KT P6SM VCSH OVC020=



000
FTUS44 KHGX 240520
TAFSGR
TAF
KSGR 240520Z 2406/2506 15006KT P6SM FEW040
     FM240900 14004KT P6SM OVC015
      TEMPO 2410/2413 -SHRA OVC007
     FM241500 16015KT P6SM BKN020 BKN250
     FM241900 16017KT P6SM VCTS BKN030CB PROB30 2419/2422 -TSRA
      OVC025CB
     FM250300 15009KT P6SM OVC007=



000
FTUS44 KHGX 240520
TAFHOU
TAF
KHOU 240520Z 2406/2506 17004KT P6SM FEW040 BKN250
     FM241000 14004KT P6SM OVC015
      TEMPO 2410/2413 -SHRA OVC007
     FM241500 16014KT P6SM BKN020 BKN250
     FM241900 15015KT P6SM VCTS BKN030CB PROB30 2419/2422 -TSRA
      OVC025CB
     FM250300 15008KT P6SM VCSH OVC015=



000
FTUS44 KHGX 240520
TAFIAH
TAF
KIAH 240520Z 2406/2512 17004KT P6SM BKN045 OVC250
     FM241000 14004KT 5SM BR VCSH OVC015
      TEMPO 2410/2413 -SHRA OVC008
     FM241500 12011KT P6SM VCSH BKN025 OVC120
     FM241900 15015KT P6SM VCTS BKN030CB PROB30 2419/2422 -TSRA
      OVC025CB
     FM250300 17007KT P6SM VCSH BKN008 OVC015=



000
FTUS44 KHGX 240520
TAFUTS
TAF
KUTS 240520Z 2406/2506 11003KT P6SM FEW035
     FM240800 VRB03KT P6SM BKN015 OVC150
     FM240900 16006KT P6SM BKN008 OVC010
     FM241500 16010G15KT P6SM VCTS BKN020CB OVC250
     FM241900 16012KT P6SM VCTS BKN030CB PROB30 2419/2422 4SM TS
      OVC025CB
     FM250400 17006KT P6SM VCSH BKN025=



000
FTUS44 KHGX 240520
TAFCXO
TAF
KCXO 240520Z 2406/2506 15006KT P6SM SCT250
     FM240700 13003KT P6SM FEW008 BKN015 OVC150
     FM240900 VRB03KT 4SM BR OVC009
     FM241500 15006KT P6SM VCSH SCT015 BKN025 OVC250
     FM241900 16011KT P6SM VCTS SCT030 BKN050CB PROB30 2419/2422 4SM
      -TSRA OVC020CB
     FM250300 15004KT P6SM VCSH OVC020=



000
FTUS44 KHGX 240520
TAFSGR
TAF
KSGR 240520Z 2406/2506 15006KT P6SM FEW040
     FM240900 14004KT P6SM OVC015
      TEMPO 2410/2413 -SHRA OVC007
     FM241500 16015KT P6SM BKN020 BKN250
     FM241900 16017KT P6SM VCTS BKN030CB PROB30 2419/2422 -TSRA
      OVC025CB
     FM250300 15009KT P6SM OVC007=



000
FTUS44 KHGX 240520
TAFGLS
TAF
KGLS 240520Z 2406/2506 15005KT P6SM SCT250
     FM240700 13007KT P6SM VCSH SCT007 BKN015 BKN250
     FM242100 14013KT P6SM BKN015
     FM250300 16012KT P6SM VCSH SCT007 BKN010=



000
FTUS44 KHGX 240309 AAD
TAFIAH
TAF AMD
KIAH 240309Z 2403/2506 14007KT P6SM SCT040 OVC250
     FM240500 14004KT P6SM SCT025 OVC250
     FM241000 14004KT 5SM BR VCSH OVC015
      TEMPO 2410/2413 -SHRA OVC008
     FM241500 12011KT P6SM VCSH BKN025 OVC120
     FM241900 15015KT P6SM VCTS BKN030CB PROB30 2419/2422 -TSRA
      OVC025CB
     FM250300 17011KT P6SM VCSH BKN008 OVC015=



000
FTUS44 KHGX 240309 AAD
TAFHOU
TAF AMD
KHOU 240309Z 2403/2424 14005KT P6SM SCT040 OVC250
     FM240600 15005KT P6SM SCT025 BKN250
     FM241000 14004KT P6SM OVC015
      TEMPO 2410/2413 -SHRA OVC007
     FM241500 16014KT P6SM BKN020 BKN250
     FM241900 15015KT P6SM VCTS BKN030CB PROB30 2419/2422 -TSRA
      OVC025CB=



000
FTUS44 KHGX 240309 AAD
TAFIAH
TAF AMD
KIAH 240309Z 2403/2506 14007KT P6SM SCT040 OVC250
     FM240500 14004KT P6SM SCT025 OVC250
     FM241000 14004KT 5SM BR VCSH OVC015
      TEMPO 2410/2413 -SHRA OVC008
     FM241500 12011KT P6SM VCSH BKN025 OVC120
     FM241900 15015KT P6SM VCTS BKN030CB PROB30 2419/2422 -TSRA
      OVC025CB
     FM250300 17011KT P6SM VCSH BKN008 OVC015=



000
FTUS44 KHGX 240309 AAD
TAFHOU
TAF AMD
KHOU 240309Z 2403/2424 14005KT P6SM SCT040 OVC250
     FM240600 15005KT P6SM SCT025 BKN250
     FM241000 14004KT P6SM OVC015
      TEMPO 2410/2413 -SHRA OVC007
     FM241500 16014KT P6SM BKN020 BKN250
     FM241900 15015KT P6SM VCTS BKN030CB PROB30 2419/2422 -TSRA
      OVC025CB=



000
FTUS44 KHGX 240307 AAC
TAFHOU
TAF AMD
KHOU 240307Z 2403/2424 16005KT P6SM SCT040 OVC250
     FM240600 15005KT P6SM SCT025 BKN250
     FM241000 14004KT P6SM OVC015
      TEMPO 2410/2413 -SHRA OVC007
     FM241500 16014KT P6SM BKN020 BKN250
     FM241900 15015KT P6SM VCTS BKN030CB PROB30 2419/2422 -TSRA
      OVC025CB=



000
FTUS44 KHGX 240307 AAC
TAFHOU
TAF AMD
KHOU 240307Z 2403/2424 16005KT P6SM SCT040 OVC250
     FM240600 15005KT P6SM SCT025 BKN250
     FM241000 14004KT P6SM OVC015
      TEMPO 2410/2413 -SHRA OVC007
     FM241500 16014KT P6SM BKN020 BKN250
     FM241900 15015KT P6SM VCTS BKN030CB PROB30 2419/2422 -TSRA
      OVC025CB=



000
FTUS44 KHGX 240307 AAC
TAFIAH
TAF AMD
KIAH 240307Z 2403/2506 14007KT P6SM SCT040 OVC250
     FM240500 14004KT P6SM SCT025 OVC250
     FM241000 14004KT 5SM BR VCSH OVC015
      TEMPO 2410/2413 -SHRA OVC008
     FM241500 12011KT P6SM VCSH BKN025 OVC120
     FM241900 15015KT P6SM VCTS BKN030CB PROB30 2419/2422 -TSRA
      OVC025CB
     FM250300 17011KT P6SM VCSH BKN008 OVC015=



000
FTUS44 KHGX 240304 AAB
TAFHOU
TAF AMD
KHOU 240304Z 2403/2424 16005KT P6SM SCT040 OVC250
     FM240600 15005KT P6SM SCT025 BKN250
     FM241000 14004KT P6SM OVC015
      TEMPO 2410/2413 -SHRA OVC007
     FM241500 16014KT P6SM BKN020 BKN250
     FM241900 15015KT P6SM VCTS BKN030CB PROB30 2419/2422 -TSRA
      OVC025CB=



000
FTUS44 KHGX 240304 AAB
TAFHOU
TAF AMD
KHOU 240304Z 2403/2424 16005KT P6SM SCT040 OVC250
     FM240600 15005KT P6SM SCT025 BKN250
     FM241000 14004KT P6SM OVC015
      TEMPO 2410/2413 -SHRA OVC007
     FM241500 16014KT P6SM BKN020 BKN250
     FM241900 15015KT P6SM VCTS BKN030CB PROB30 2419/2422 -TSRA
      OVC025CB=



000
FTUS44 KHGX 240304 AAB
TAFIAH
TAF AMD
KIAH 240304Z 2403/2506 14007KT P6SM SCT040 OVC250
     FM240500 14004KT P6SM SCT025 OVC250
     FM241000 14004KT 5SM BR VCSH OVC015
      TEMPO 2410/2413 -SHRA OVC008
     FM241500 12011KT P6SM VCSH BKN025 OVC120
     FM241900 15015KT P6SM VCTS BKN030CB PROB30 2419/2422 -TSRA
      OVC025CB
     FM250300 17011KT P6SM VCSH BKN008 OVC015=



000
FTUS44 KHGX 240304 AAB
TAFIAH
TAF AMD
KIAH 240304Z 2403/2506 14007KT P6SM SCT040 OVC250
     FM240500 14004KT P6SM SCT025 OVC250
     FM241000 14004KT 5SM BR VCSH OVC015
      TEMPO 2410/2413 -SHRA OVC008
     FM241500 12011KT P6SM VCSH BKN025 OVC120
     FM241900 15015KT P6SM VCTS BKN030CB PROB30 2419/2422 -TSRA
      OVC025CB
     FM250300 17011KT P6SM VCSH BKN008 OVC015=



000
FTUS44 KHGX 240304 AAB
TAFHOU
TAF AMD
KHOU 240304Z 2403/2424 16005KT P6SM SCT040 OVC250
     FM240600 15005KT P6SM SCT025 BKN250
     FM241000 14004KT P6SM OVC015
      TEMPO 2410/2413 -SHRA OVC007
     FM241500 16014KT P6SM BKN020 BKN250
     FM241900 15015KT P6SM VCTS BKN030CB PROB30 2419/2422 -TSRA
      OVC025CB=



000
FTUS44 KHGX 240304 AAB
TAFHOU
TAF AMD
KHOU 240304Z 2403/2424 16005KT P6SM SCT040 OVC250
     FM240600 15005KT P6SM SCT025 BKN250
     FM241000 14004KT P6SM OVC015
      TEMPO 2410/2413 -SHRA OVC007
     FM241500 16014KT P6SM BKN020 BKN250
     FM241900 15015KT P6SM VCTS BKN030CB PROB30 2419/2422 -TSRA
      OVC025CB=



000
FTUS44 KHGX 240304 AAB
TAFIAH
TAF AMD
KIAH 240304Z 2403/2506 14007KT P6SM SCT040 OVC250
     FM240500 14004KT P6SM SCT025 OVC250
     FM241000 14004KT 5SM BR VCSH OVC015
      TEMPO 2410/2413 -SHRA OVC008
     FM241500 12011KT P6SM VCSH BKN025 OVC120
     FM241900 15015KT P6SM VCTS BKN030CB PROB30 2419/2422 -TSRA
      OVC025CB
     FM250300 17011KT P6SM VCSH BKN008 OVC015=



000
FTUS44 KHGX 240304 AAB
TAFIAH
TAF AMD
KIAH 240304Z 2403/2506 14007KT P6SM SCT040 OVC250
     FM240500 14004KT P6SM SCT025 OVC250
     FM241000 14004KT 5SM BR VCSH OVC015
      TEMPO 2410/2413 -SHRA OVC008
     FM241500 12011KT P6SM VCSH BKN025 OVC120
     FM241900 15015KT P6SM VCTS BKN030CB PROB30 2419/2422 -TSRA
      OVC025CB
     FM250300 17011KT P6SM VCSH BKN008 OVC015=



000
FTUS44 KHGX 240300 AAA
TAFIAH
TAF AMD
KIAH 240300Z 2403/2506 14007KT P6SM SCT040 OVC250
     FM240500 14004KT P6SM SCT025 OVC250
     FM241000 14004KT 5SM BR VCSH OVC015
      TEMPO 2410/2413 -SHRA OVC008
     FM241500 12011KT P6SM VCSH BKN025 OVC120
     FM241900 15015KT P6SM VCTS BKN030CB PROB30 2419/2422 -TSRA
      OVC025CB
     FM250300 17011KT P6SM VCSH BKN008 OVC015=



000
FTUS44 KHGX 240300 AAA
TAFHOU
TAF AMD
KHOU 240300Z 2403/2424 16005KT P6SM SCT040 OVC250
     FM240600 15005KT P6SM SCT025 BKN250
     FM241000 14004KT P6SM OVC015
      TEMPO 2410/2413 -SHRA OVC007
     FM241500 16014KT P6SM BKN020 BKN250
     FM241900 15015KT P6SM VCTS BKN030CB PROB30 2419/2422 -TSRA
      OVC025CB=



000
FTUS44 KHGX 240300 AAA
TAFHOU
TAF AMD
KHOU 240300Z 2403/2424 16005KT P6SM SCT040 OVC250
     FM240600 15005KT P6SM SCT025 BKN250
     FM241000 14004KT P6SM OVC015
      TEMPO 2410/2413 -SHRA OVC007
     FM241500 16014KT P6SM BKN020 BKN250
     FM241900 15015KT P6SM VCTS BKN030CB PROB30 2419/2422 -TSRA
      OVC025CB=



000
FTUS44 KHGX 240300 AAA
TAFIAH
TAF AMD
KIAH 240300Z 2403/2506 14007KT P6SM SCT040 OVC250
     FM240500 14004KT P6SM SCT025 OVC250
     FM241000 14004KT 5SM BR VCSH OVC015
      TEMPO 2410/2413 -SHRA OVC008
     FM241500 12011KT P6SM VCSH BKN025 OVC120
     FM241900 15015KT P6SM VCTS BKN030CB PROB30 2419/2422 -TSRA
      OVC025CB
     FM250300 17011KT P6SM VCSH BKN008 OVC015=



000
FTUS44 KHGX 232345 CCA
TAFCXO
TAF COR
KCXO 232345Z 2400/2424 08005KT P6SM SCT250
     FM240300 14003KT P6SM SCT025 OVC250
     FM240700 13003KT P6SM FEW008 BKN015 OVC150
     FM240900 VRB03KT 4SM BR OVC009
     FM241500 15006KT P6SM VCSH SCT015 BKN025 OVC250
     FM241900 16011KT P6SM VCTS SCT030 BKN050CB PROB30 2419/2422 4SM
      -TSRA OVC020CB=



000
FTUS44 KHGX 232345 CCA
TAFCXO
TAF COR
KCXO 232345Z 2400/2424 08005KT P6SM SCT250
     FM240300 14003KT P6SM SCT025 OVC250
     FM240700 13003KT P6SM FEW008 BKN015 OVC150
     FM240900 VRB03KT 4SM BR OVC009
     FM241500 15006KT P6SM VCSH SCT015 BKN025 OVC250
     FM241900 16011KT P6SM VCTS SCT030 BKN050CB PROB30 2419/2422 4SM
      -TSRA OVC020CB=



000
FTUS44 KHGX 232345 CCA
TAFUTS
TAF COR
KUTS 232345Z 2400/2424 VRB03KT P6SM FEW030 SCT250
     FM240300 17003KT P6SM SCT025 OVC250
     FM240800 VRB03KT P6SM BKN015 OVC150
     FM240900 16006KT P6SM BKN008 OVC010
     FM241500 16010G15KT P6SM VCTS BKN020CB OVC250
     FM241900 16012KT P6SM VCTS BKN030CB PROB30 2419/2422 4SM TS
      OVC025CB=



000
FTUS44 KHGX 232345 CCA
TAFCXO
TAF COR
KCXO 232345Z 2400/2424 08005KT P6SM SCT250
     FM240300 14003KT P6SM SCT025 OVC250
     FM240700 13003KT P6SM FEW008 BKN015 OVC150
     FM240900 VRB03KT 4SM BR OVC009
     FM241500 15006KT P6SM VCSH SCT015 BKN025 OVC250
     FM241900 16011KT P6SM VCTS SCT030 BKN050CB PROB30 2419/2422 4SM
      -TSRA OVC020CB=



000
FTUS44 KHGX 232345 CCA
TAFUTS
TAF COR
KUTS 232345Z 2400/2424 VRB03KT P6SM FEW030 SCT250
     FM240300 17003KT P6SM SCT025 OVC250
     FM240800 VRB03KT P6SM BKN015 OVC150
     FM240900 16006KT P6SM BKN008 OVC010
     FM241500 16010G15KT P6SM VCTS BKN020CB OVC250
     FM241900 16012KT P6SM VCTS BKN030CB PROB30 2419/2422 4SM TS
      OVC025CB=



000
FTUS44 KHGX 232345 CCA
TAFUTS
TAF COR
KUTS 232345Z 2400/2424 VRB03KT P6SM FEW030 SCT250
     FM240300 17003KT P6SM SCT025 OVC250
     FM240800 VRB03KT P6SM BKN015 OVC150
     FM240900 16006KT P6SM BKN008 OVC010
     FM241500 16010G15KT P6SM VCTS BKN020CB OVC250
     FM241900 16012KT P6SM VCTS BKN030CB PROB30 2419/2422 4SM TS
      OVC025CB=



000
FTUS44 KHGX 232345 CCA
TAFCXO
TAF COR
KCXO 232345Z 2400/2424 08005KT P6SM SCT250
     FM240300 14003KT P6SM SCT025 OVC250
     FM240700 13003KT P6SM FEW008 BKN015 OVC150
     FM240900 VRB03KT 4SM BR OVC009
     FM241500 15006KT P6SM VCSH SCT015 BKN025 OVC250
     FM241900 16011KT P6SM VCTS SCT030 BKN050CB PROB30 2419/2422 4SM
      -TSRA OVC020CB=



000
FTUS44 KHGX 232345 CCA
TAFUTS
TAF COR
KUTS 232345Z 2400/2424 VRB03KT P6SM FEW030 SCT250
     FM240300 17003KT P6SM SCT025 OVC250
     FM240800 VRB03KT P6SM BKN015 OVC150
     FM240900 16006KT P6SM BKN008 OVC010
     FM241500 16010G15KT P6SM VCTS BKN020CB OVC250
     FM241900 16012KT P6SM VCTS BKN030CB PROB30 2419/2422 4SM TS
      OVC025CB=



000
FTUS44 KHGX 232340
TAFLBX
TAF
KLBX 232340Z 2400/2424 15007KT P6SM BKN020 OVC030
     FM240600 15005KT P6SM SCT025 BKN250
     FM240900 12004KT P6SM MIFG BKN010 OVC018
      TEMPO 2410/2414 3SM BR OVC007
     FM241600 15015KT P6SM VCSH SCT015 BKN025 BKN250=



000
FTUS44 KHGX 232340
TAFGLS
TAF
KGLS 232340Z 2400/2424 17010KT P6SM FEW030 SCT250
     FM240300 14008KT P6SM SCT015 BKN250
     FM240700 13007KT P6SM VCSH SCT007 BKN015 BKN250
     FM242100 14015KT P6SM BKN015=



000
FTUS44 KHGX 232340
TAFUTS
TAF
KUTS 232340Z 2400/2424 VRB03KT P6SM FEW030 SCT250
     FM240300 17003KT P6SM SCT025 OVC250
     FM240800 VRB03KT P6SM BKN015 OVC150
     FM240900 16006KT P6SM BKN008 OVC010
     FM241500 16010G15KT P6SM BKN020 OVC250=



000
FTUS44 KHGX 232340
TAFSGR
TAF
KSGR 232340Z 2400/2424 18008KT P6SM FEW030 BKN250
     FM240600 15005KT P6SM FEW015 SCT025 BKN250
     FM240900 14004KT P6SM OVC015
      TEMPO 2410/2413 -SHRA OVC007
     FM241500 16015KT P6SM BKN020 BKN250
     FM241900 16017KT P6SM VCTS BKN030CB PROB30 2419/2422 -TSRA
      OVC025CB=



000
FTUS44 KHGX 232340
TAFSGR
TAF
KSGR 232340Z 2400/2424 18008KT P6SM FEW030 BKN250
     FM240600 15005KT P6SM FEW015 SCT025 BKN250
     FM240900 14004KT P6SM OVC015
      TEMPO 2410/2413 -SHRA OVC007
     FM241500 16015KT P6SM BKN020 BKN250
     FM241900 16017KT P6SM VCTS BKN030CB PROB30 2419/2422 -TSRA
      OVC025CB=



000
FTUS44 KHGX 232340
TAFSGR
TAF
KSGR 232340Z 2400/2424 18008KT P6SM FEW030 BKN250
     FM240600 15005KT P6SM FEW015 SCT025 BKN250
     FM240900 14004KT P6SM OVC015
      TEMPO 2410/2413 -SHRA OVC007
     FM241500 16015KT P6SM BKN020 BKN250
     FM241900 16017KT P6SM VCTS BKN030CB PROB30 2419/2422 -TSRA
      OVC025CB=



000
FTUS44 KHGX 232340
TAFCLL
TAF
KCLL 232340Z 2400/2424 00000KT P6SM FEW030
     FM240500 16007KT P6SM SCT020 BKN120
     FM240900 16006KT P6SM OVC010
     FM241100 16006KT 6SM BR VCSH OVC007
     FM241600 16014KT P6SM VCTS BKN025CB BKN250
     FM241900 16015G22KT P6SM VCTS BKN030CB PROB30 2419/2422 4SM TS
      OVC025CB=



000
FTUS44 KHGX 232340
TAFHOU
TAF
KHOU 232340Z 2400/2424 14007KT P6SM SCT035 OVC250
     FM240600 15005KT P6SM SCT025 BKN250
     FM241000 14004KT P6SM OVC015
      TEMPO 2410/2413 -SHRA OVC007
     FM241500 16014KT P6SM BKN020 BKN250
     FM241900 15015KT P6SM VCTS BKN030CB PROB30 2419/2422 -TSRA
      OVC025CB=



000
FTUS44 KHGX 232340
TAFCXO
TAF
KCXO 232340Z 2400/2424 08005KT P6SM SKC
     FM240300 14003KT P6SM FEW012 SCT025 OVC250
     FM240700 VRB03KT P6SM FEW008 BKN015 OVC150
     FM240900 15004KT P6SM OVC009
     FM241500 16010G15KT P6SM BKN020 OVC250=



000
FTUS44 KHGX 232340
TAFIAH
TAF
KIAH 232340Z 2400/2506 12006KT P6SM FEW035 OVC250
     FM240500 14004KT P6SM SCT025 OVC250
     FM241000 14004KT 5SM BR VCSH OVC015
      TEMPO 2410/2413 -SHRA OVC008
     FM241500 12011KT P6SM VCSH BKN025 OVC120
     FM241900 15015KT P6SM VCTS BKN030CB PROB30 2419/2422 -TSRA
      OVC025CB
     FM250300 17011KT P6SM VCSH BKN008 OVC015=



000
FTUS44 KHGX 232340
TAFHOU
TAF
KHOU 232340Z 2400/2424 14007KT P6SM SCT035 OVC250
     FM240600 15005KT P6SM SCT025 BKN250
     FM241000 14004KT P6SM OVC015
      TEMPO 2410/2413 -SHRA OVC007
     FM241500 16014KT P6SM BKN020 BKN250
     FM241900 15015KT P6SM VCTS BKN030CB PROB30 2419/2422 -TSRA
      OVC025CB=



000
FTUS44 KHGX 232340
TAFGLS
TAF
KGLS 232340Z 2400/2424 17010KT P6SM FEW030 SCT250
     FM240300 14008KT P6SM SCT015 BKN250
     FM240700 13007KT P6SM VCSH SCT007 BKN015 BKN250
     FM242100 14015KT P6SM BKN015=



000
FTUS44 KHGX 232340
TAFLBX
TAF
KLBX 232340Z 2400/2424 15007KT P6SM BKN020 OVC030
     FM240600 15005KT P6SM SCT025 BKN250
     FM240900 12004KT P6SM MIFG BKN010 OVC018
      TEMPO 2410/2414 3SM BR OVC007
     FM241600 15015KT P6SM VCSH SCT015 BKN025 BKN250=



000
FTUS44 KHGX 232340
TAFHOU
TAF
KHOU 232340Z 2400/2424 14007KT P6SM SCT035 OVC250
     FM240600 15005KT P6SM SCT025 BKN250
     FM241000 14004KT P6SM OVC015
      TEMPO 2410/2413 -SHRA OVC007
     FM241500 16014KT P6SM BKN020 BKN250
     FM241900 15015KT P6SM VCTS BKN030CB PROB30 2419/2422 -TSRA
      OVC025CB=



000
FTUS44 KHGX 232340
TAFCXO
TAF
KCXO 232340Z 2400/2424 08005KT P6SM SKC
     FM240300 14003KT P6SM FEW012 SCT025 OVC250
     FM240700 VRB03KT P6SM FEW008 BKN015 OVC150
     FM240900 15004KT P6SM OVC009
     FM241500 16010G15KT P6SM BKN020 OVC250=



000
FTUS44 KHGX 232340
TAFSGR
TAF
KSGR 232340Z 2400/2424 18008KT P6SM FEW030 BKN250
     FM240600 15005KT P6SM FEW015 SCT025 BKN250
     FM240900 14004KT P6SM OVC015
      TEMPO 2410/2413 -SHRA OVC007
     FM241500 16015KT P6SM BKN020 BKN250
     FM241900 16017KT P6SM VCTS BKN030CB PROB30 2419/2422 -TSRA
      OVC025CB=



000
FTUS44 KHGX 232340
TAFCLL
TAF
KCLL 232340Z 2400/2424 00000KT P6SM FEW030
     FM240500 16007KT P6SM SCT020 BKN120
     FM240900 16006KT P6SM OVC010
     FM241100 16006KT 6SM BR VCSH OVC007
     FM241600 16014KT P6SM VCTS BKN025CB BKN250
     FM241900 16015G22KT P6SM VCTS BKN030CB PROB30 2419/2422 4SM TS
      OVC025CB=



000
FTUS44 KHGX 232340
TAFCLL
TAF
KCLL 232340Z 2400/2424 00000KT P6SM FEW030
     FM240500 16007KT P6SM SCT020 BKN120
     FM240900 16006KT P6SM OVC010
     FM241100 16006KT 6SM BR VCSH OVC007
     FM241600 16014KT P6SM VCTS BKN025CB BKN250
     FM241900 16015G22KT P6SM VCTS BKN030CB PROB30 2419/2422 4SM TS
      OVC025CB=



000
FTUS44 KHGX 232340
TAFUTS
TAF
KUTS 232340Z 2400/2424 VRB03KT P6SM FEW030 SCT250
     FM240300 17003KT P6SM SCT025 OVC250
     FM240800 VRB03KT P6SM BKN015 OVC150
     FM240900 16006KT P6SM BKN008 OVC010
     FM241500 16010G15KT P6SM BKN020 OVC250=



000
FTUS44 KHGX 232340
TAFGLS
TAF
KGLS 232340Z 2400/2424 17010KT P6SM FEW030 SCT250
     FM240300 14008KT P6SM SCT015 BKN250
     FM240700 13007KT P6SM VCSH SCT007 BKN015 BKN250
     FM242100 14015KT P6SM BKN015=



000
FTUS44 KHGX 232340
TAFIAH
TAF
KIAH 232340Z 2400/2506 12006KT P6SM FEW035 OVC250
     FM240500 14004KT P6SM SCT025 OVC250
     FM241000 14004KT 5SM BR VCSH OVC015
      TEMPO 2410/2413 -SHRA OVC008
     FM241500 12011KT P6SM VCSH BKN025 OVC120
     FM241900 15015KT P6SM VCTS BKN030CB PROB30 2419/2422 -TSRA
      OVC025CB
     FM250300 17011KT P6SM VCSH BKN008 OVC015=



000
FTUS44 KHGX 232340
TAFLBX
TAF
KLBX 232340Z 2400/2424 15007KT P6SM BKN020 OVC030
     FM240600 15005KT P6SM SCT025 BKN250
     FM240900 12004KT P6SM MIFG BKN010 OVC018
      TEMPO 2410/2414 3SM BR OVC007
     FM241600 15015KT P6SM VCSH SCT015 BKN025 BKN250=



000
FTUS44 KHGX 232340
TAFUTS
TAF
KUTS 232340Z 2400/2424 VRB03KT P6SM FEW030 SCT250
     FM240300 17003KT P6SM SCT025 OVC250
     FM240800 VRB03KT P6SM BKN015 OVC150
     FM240900 16006KT P6SM BKN008 OVC010
     FM241500 16010G15KT P6SM BKN020 OVC250=



000
FTUS44 KHGX 232340
TAFCXO
TAF
KCXO 232340Z 2400/2424 08005KT P6SM SCT250
     FM240300 14003KT P6SM SCT025 OVC250
     FM240700 13003KT P6SM FEW008 BKN015 OVC150
     FM240900 VRB03KT 4SM BR OVC009
     FM241500 15006KT P6SM VCSH SCT015 BKN025 OVC250
     FM241900 16011KT P6SM VCTS SCT030 BKN050CB PROB30 2419/2422 4SM
      -TSRA OVC020CB=



000
FTUS44 KHGX 232340
TAFUTS
TAF
KUTS 232340Z 2400/2424 VRB03KT P6SM FEW030 SCT250
     FM240300 17003KT P6SM SCT025 OVC250
     FM240800 VRB03KT P6SM BKN015 OVC150
     FM240900 16006KT P6SM BKN008 OVC010
     FM241500 16010G15KT P6SM VCTS BKN020CB OVC250
     FM241900 16012KT P6SM VCTS BKN030CB PROB30 2419/2422 4SM TS
      OVC025CB=



000
FTUS44 KHGX 232340
TAFCXO
TAF
KCXO 232340Z 2400/2424 08005KT P6SM SCT250
     FM240300 14003KT P6SM SCT025 OVC250
     FM240700 13003KT P6SM FEW008 BKN015 OVC150
     FM240900 VRB03KT 4SM BR OVC009
     FM241500 15006KT P6SM VCSH SCT015 BKN025 OVC250
     FM241900 16011KT P6SM VCTS SCT030 BKN050CB PROB30 2419/2422 4SM
      -TSRA OVC020CB=



000
FTUS44 KHGX 232340
TAFUTS
TAF
KUTS 232340Z 2400/2424 VRB03KT P6SM FEW030 SCT250
     FM240300 17003KT P6SM SCT025 OVC250
     FM240800 VRB03KT P6SM BKN015 OVC150
     FM240900 16006KT P6SM BKN008 OVC010
     FM241500 16010G15KT P6SM VCTS BKN020CB OVC250
     FM241900 16012KT P6SM VCTS BKN030CB PROB30 2419/2422 4SM TS
      OVC025CB=



000
FTUS44 KHGX 232340
TAFCXO
TAF
KCXO 232340Z 2400/2424 08005KT P6SM SCT250
     FM240300 14003KT P6SM SCT025 OVC250
     FM240700 13003KT P6SM FEW008 BKN015 OVC150
     FM240900 VRB03KT 4SM BR OVC009
     FM241500 15006KT P6SM VCSH SCT015 BKN025 OVC250
     FM241900 16011KT P6SM VCTS SCT030 BKN050CB PROB30 2419/2422 4SM
      -TSRA OVC020CB=



000
FTUS44 KHGX 232340
TAFCXO
TAF
KCXO 232340Z 2400/2424 08005KT P6SM SCT250
     FM240300 14003KT P6SM SCT025 OVC250
     FM240700 13003KT P6SM FEW008 BKN015 OVC150
     FM240900 VRB03KT 4SM BR OVC009
     FM241500 15006KT P6SM VCSH SCT015 BKN025 OVC250
     FM241900 16011KT P6SM VCTS SCT030 BKN050CB PROB30 2419/2422 4SM
      -TSRA OVC020CB=



000
FTUS44 KHGX 232340
TAFUTS
TAF
KUTS 232340Z 2400/2424 VRB03KT P6SM FEW030 SCT250
     FM240300 17003KT P6SM SCT025 OVC250
     FM240800 VRB03KT P6SM BKN015 OVC150
     FM240900 16006KT P6SM BKN008 OVC010
     FM241500 16010G15KT P6SM VCTS BKN020CB OVC250
     FM241900 16012KT P6SM VCTS BKN030CB PROB30 2419/2422 4SM TS
      OVC025CB=



000
FTUS44 KHGX 232340
TAFUTS
TAF
KUTS 232340Z 2400/2424 VRB03KT P6SM FEW030 SCT250
     FM240300 17003KT P6SM SCT025 OVC250
     FM240800 VRB03KT P6SM BKN015 OVC150
     FM240900 16006KT P6SM BKN008 OVC010
     FM241500 16010G15KT P6SM VCTS BKN020CB OVC250
     FM241900 16012KT P6SM VCTS BKN030CB PROB30 2419/2422 4SM TS
      OVC025CB=



000
FTUS44 KHGX 232340
TAFHOU
TAF
KHOU 232340Z 2400/2424 14007KT P6SM SCT035 OVC250
     FM240600 15005KT P6SM SCT025 BKN250
     FM241000 14004KT P6SM OVC015
      TEMPO 2410/2413 -SHRA OVC007
     FM241500 16014KT P6SM BKN020 BKN250
     FM241900 15015KT P6SM VCTS BKN030CB PROB30 2419/2422 -TSRA
      OVC025CB=



000
FTUS44 KHGX 232340
TAFCXO
TAF
KCXO 232340Z 2400/2424 08005KT P6SM SKC
     FM240300 14003KT P6SM FEW012 SCT025 OVC250
     FM240700 VRB03KT P6SM FEW008 BKN015 OVC150
     FM240900 15004KT P6SM OVC009
     FM241500 16010G15KT P6SM BKN020 OVC250=



000
FTUS44 KHGX 232340
TAFIAH
TAF
KIAH 232340Z 2400/2506 12006KT P6SM FEW035 OVC250
     FM240500 14004KT P6SM SCT025 OVC250
     FM241000 14004KT 5SM BR VCSH OVC015
      TEMPO 2410/2413 -SHRA OVC008
     FM241500 12011KT P6SM VCSH BKN025 OVC120
     FM241900 15015KT P6SM VCTS BKN030CB PROB30 2419/2422 -TSRA
      OVC025CB
     FM250300 17011KT P6SM VCSH BKN008 OVC015=



000
FTUS44 KHGX 232340
TAFCLL
TAF
KCLL 232340Z 2400/2424 00000KT P6SM FEW030
     FM240500 16007KT P6SM SCT020 BKN120
     FM240900 16006KT P6SM OVC010
     FM241100 16006KT 6SM BR VCSH OVC007
     FM241600 16014KT P6SM VCTS BKN025CB BKN250
     FM241900 16015G22KT P6SM VCTS BKN030CB PROB30 2419/2422 4SM TS
      OVC025CB=



000
FTUS44 KHGX 232340
TAFUTS
TAF
KUTS 232340Z 2400/2424 VRB03KT P6SM FEW030 SCT250
     FM240300 17003KT P6SM SCT025 OVC250
     FM240800 VRB03KT P6SM BKN015 OVC150
     FM240900 16006KT P6SM BKN008 OVC010
     FM241500 16010G15KT P6SM BKN020 OVC250=



000
FTUS44 KHGX 232340
TAFCXO
TAF
KCXO 232340Z 2400/2424 08005KT P6SM SKC
     FM240300 14003KT P6SM FEW012 SCT025 OVC250
     FM240700 VRB03KT P6SM FEW008 BKN015 OVC150
     FM240900 15004KT P6SM OVC009
     FM241500 16010G15KT P6SM BKN020 OVC250=



000
FTUS44 KHGX 232340
TAFLBX
TAF
KLBX 232340Z 2400/2424 15007KT P6SM BKN020 OVC030
     FM240600 15005KT P6SM SCT025 BKN250
     FM240900 12004KT P6SM MIFG BKN010 OVC018
      TEMPO 2410/2414 3SM BR OVC007
     FM241600 15015KT P6SM VCSH SCT015 BKN025 BKN250=



000
FTUS44 KHGX 232340
TAFIAH
TAF
KIAH 232340Z 2400/2506 12006KT P6SM FEW035 OVC250
     FM240500 14004KT P6SM SCT025 OVC250
     FM241000 14004KT 5SM BR VCSH OVC015
      TEMPO 2410/2413 -SHRA OVC008
     FM241500 12011KT P6SM VCSH BKN025 OVC120
     FM241900 15015KT P6SM VCTS BKN030CB PROB30 2419/2422 -TSRA
      OVC025CB
     FM250300 17011KT P6SM VCSH BKN008 OVC015=



000
FTUS44 KHGX 232340
TAFGLS
TAF
KGLS 232340Z 2400/2424 17010KT P6SM FEW030 SCT250
     FM240300 14008KT P6SM SCT015 BKN250
     FM240700 13007KT P6SM VCSH SCT007 BKN015 BKN250
     FM242100 14015KT P6SM BKN015=



    US Dept of Commerce
    National Oceanic and Atmospheric Administration
    National Weather Service
    1325 East West Highway
    Silver Spring, MD 20910
    Page Author: NWS Internet Services Team
Disclaimer
Information Quality
Credits
Glossary
Privacy Policy
Freedom of Information Act (FOIA)
About Us
Career Opportunities